PWSweather.com
Personal Weather Stations
Station Observations
KCOFALCO8
Falcon Hills, Falcon, CO 80831

Falcon HillsFalcon, CO 80831

Lat: 38.979792, Lon: -104.61195

Elevation: 7170

Station Type: AcuRite Pro 5-in-1

http://wx.frazierhome.net/

High Low Average
Temperature 81.7°F27.6°C 48.2°F9.0°C 64.3°F17.9°C
Dew Point 55.2°F12.9°C 36.3°F2.4°C 45.3°F7.4°C
Winds 28.0 mph 45.1 kmh Calm Calm 8.0 mph SSW12.9 kmh SSW
Wind Gusts -- -- --
Humidity 95% 20% 58%
Pressure 30.22 in1023.4 mb 29.97 in1014.9 mb -
Precipitation 0.00 in0.0 mm - -
Hour Temp Dew Point Humidity Winds Wind Gusts Pressure Precip Precip Rate Daily Precip Total
12:00 AM 55.5°F13.1°C 43.9°F6.6°C 65% Calm Calm -- 30.03 in1016.9 mb 0.00 in0.0 mm 0.00 in0.0 mm 0.00 in0.0 mm
12:01 AM 55.5°F13.1°C 43.9°F6.6°C 65% Calm Calm -- 30.03 in1016.9 mb 0.00 in0.0 mm 0.00 in0.0 mm 0.00 in0.0 mm
12:03 AM 55.3°F12.9°C 44.0°F6.7°C 66% Calm Calm -- 30.03 in1016.9 mb 0.00 in0.0 mm 0.00 in0.0 mm 0.00 in0.0 mm
12:04 AM 55.3°F12.9°C 44.0°F6.7°C 66% Calm Calm -- 30.03 in1016.9 mb 0.00 in0.0 mm 0.00 in0.0 mm 0.00 in0.0 mm
12:05 AM 55.1°F12.8°C 43.8°F6.6°C 66% Calm Calm -- 30.03 in1016.9 mb 0.00 in0.0 mm 0.00 in0.0 mm 0.00 in0.0 mm
12:06 AM 55.0°F12.8°C 43.8°F6.6°C 66% Calm Calm -- 30.03 in1016.9 mb 0.00 in0.0 mm 0.00 in0.0 mm 0.00 in0.0 mm
12:07 AM 54.9°F12.7°C 43.6°F6.4°C 66% Calm Calm -- 30.03 in1016.9 mb 0.00 in0.0 mm 0.00 in0.0 mm 0.00 in0.0 mm
12:08 AM 54.7°F12.6°C 44.2°F6.8°C 68% Calm Calm -- 30.02 in1016.6 mb 0.00 in0.0 mm 0.00 in0.0 mm 0.00 in0.0 mm
12:09 AM 54.4°F12.4°C 44.3°F6.8°C 69% Calm Calm -- 30.02 in1016.6 mb 0.00 in0.0 mm 0.00 in0.0 mm 0.00 in0.0 mm
12:10 AM 54.2°F12.3°C 44.1°F6.7°C 69% Calm Calm -- 30.02 in1016.6 mb 0.00 in0.0 mm 0.00 in0.0 mm 0.00 in0.0 mm
12:11 AM 54.2°F12.3°C 44.1°F6.7°C 69% Calm Calm -- 30.03 in1016.9 mb 0.00 in0.0 mm 0.00 in0.0 mm 0.00 in0.0 mm
12:12 AM 54.2°F12.3°C 44.1°F6.7°C 69% Calm Calm -- 30.02 in1016.6 mb 0.00 in0.0 mm 0.00 in0.0 mm 0.00 in0.0 mm
12:13 AM 54.2°F12.3°C 44.1°F6.7°C 69% Calm Calm -- 30.02 in1016.6 mb 0.00 in0.0 mm 0.00 in0.0 mm 0.00 in0.0 mm
12:14 AM 54.0°F12.2°C 43.9°F6.6°C 69% Calm Calm -- 30.02 in1016.6 mb 0.00 in0.0 mm 0.00 in0.0 mm 0.00 in0.0 mm
12:16 AM 54.2°F12.3°C 44.1°F6.7°C 69% Calm Calm -- 30.02 in1016.6 mb 0.00 in0.0 mm 0.00 in0.0 mm 0.00 in0.0 mm
12:17 AM 54.4°F12.4°C 44.3°F6.8°C 69% Calm Calm -- 30.02 in1016.6 mb 0.00 in0.0 mm 0.00 in0.0 mm 0.00 in0.0 mm
12:19 AM 54.4°F12.4°C 44.3°F6.8°C 69% Calm Calm -- 30.02 in1016.6 mb 0.00 in0.0 mm 0.00 in0.0 mm 0.00 in0.0 mm
12:20 AM 54.2°F12.3°C 44.1°F6.7°C 69% Calm Calm -- 30.02 in1016.6 mb 0.00 in0.0 mm 0.00 in0.0 mm 0.00 in0.0 mm
12:21 AM 54.0°F12.2°C 44.3°F6.8°C 70% Calm Calm -- 30.02 in1016.6 mb 0.00 in0.0 mm 0.00 in0.0 mm 0.00 in0.0 mm
12:22 AM 53.8°F12.1°C 44.1°F6.7°C 70% Calm Calm -- 30.02 in1016.6 mb 0.00 in0.0 mm 0.00 in0.0 mm 0.00 in0.0 mm
12:23 AM 53.8°F12.1°C 44.1°F6.7°C 70% Calm Calm -- 30.02 in1016.6 mb 0.00 in0.0 mm 0.00 in0.0 mm 0.00 in0.0 mm
12:24 AM 53.5°F11.9°C 43.8°F6.6°C 70% Calm Calm -- 30.02 in1016.6 mb 0.00 in0.0 mm 0.00 in0.0 mm 0.00 in0.0 mm
12:25 AM 53.5°F11.9°C 43.8°F6.6°C 70% Calm Calm -- 30.02 in1016.6 mb 0.00 in0.0 mm 0.00 in0.0 mm 0.00 in0.0 mm
12:26 AM 53.5°F11.9°C 43.8°F6.6°C 70% Calm Calm -- 30.02 in1016.6 mb 0.00 in0.0 mm 0.00 in0.0 mm 0.00 in0.0 mm
12:27 AM 53.5°F11.9°C 43.8°F6.6°C 70% Calm Calm -- 30.02 in1016.6 mb 0.00 in0.0 mm 0.00 in0.0 mm 0.00 in0.0 mm
12:28 AM 53.5°F11.9°C 43.8°F6.6°C 70% Calm Calm -- 30.02 in1016.6 mb 0.00 in0.0 mm 0.00 in0.0 mm 0.00 in0.0 mm
12:29 AM 53.5°F11.9°C 43.8°F6.6°C 70% Calm Calm -- 30.02 in1016.6 mb 0.00 in0.0 mm 0.00 in0.0 mm 0.00 in0.0 mm
12:30 AM 53.5°F11.9°C 44.2°F6.8°C 71% Calm Calm -- 30.02 in1016.6 mb 0.00 in0.0 mm 0.00 in0.0 mm 0.00 in0.0 mm
12:34 AM 53.5°F11.9°C 44.2°F6.8°C 71% Calm Calm -- 30.02 in1016.6 mb 0.00 in0.0 mm 0.00 in0.0 mm 0.00 in0.0 mm
12:35 AM 53.5°F11.9°C 44.2°F6.8°C 71% Calm Calm -- 30.02 in1016.6 mb 0.00 in0.0 mm 0.00 in0.0 mm 0.00 in0.0 mm
12:42 AM 53.5°F11.9°C 44.2°F6.8°C 71% Calm Calm -- 30.02 in1016.6 mb 0.00 in0.0 mm 0.00 in0.0 mm 0.00 in0.0 mm
12:43 AM 53.5°F11.9°C 44.2°F6.8°C 71% 2.0 mph WNW3.2 kmh WNW -- 30.02 in1016.6 mb 0.00 in0.0 mm 0.00 in0.0 mm 0.00 in0.0 mm
12:45 AM 53.5°F11.9°C 44.9°F7.2°C 73% 2.0 mph W3.2 kmh W -- 30.02 in1016.6 mb 0.00 in0.0 mm 0.00 in0.0 mm 0.00 in0.0 mm
12:49 AM 53.5°F11.9°C 44.9°F7.2°C 73% 1.0 mph W1.6 kmh W -- 30.02 in1016.6 mb 0.00 in0.0 mm 0.00 in0.0 mm 0.00 in0.0 mm
12:50 AM 53.5°F11.9°C 44.9°F7.2°C 73% Calm Calm -- 30.02 in1016.6 mb 0.00 in0.0 mm 0.00 in0.0 mm 0.00 in0.0 mm
12:51 AM 53.5°F11.9°C 45.3°F7.4°C 74% 2.0 mph W3.2 kmh W -- 30.02 in1016.6 mb 0.00 in0.0 mm 0.00 in0.0 mm 0.00 in0.0 mm
12:52 AM 53.4°F11.9°C 45.3°F7.4°C 74% 2.0 mph W3.2 kmh W -- 30.02 in1016.6 mb 0.00 in0.0 mm 0.00 in0.0 mm 0.00 in0.0 mm
12:53 AM 53.2°F11.8°C 45.4°F7.4°C 75% 2.0 mph W3.2 kmh W -- 30.02 in1016.6 mb 0.00 in0.0 mm 0.00 in0.0 mm 0.00 in0.0 mm
12:54 AM 53.2°F11.8°C 45.4°F7.4°C 75% Calm Calm -- 30.03 in1016.9 mb 0.00 in0.0 mm 0.00 in0.0 mm 0.00 in0.0 mm
12:56 AM 53.2°F11.8°C 45.4°F7.4°C 75% Calm Calm -- 30.02 in1016.6 mb 0.00 in0.0 mm 0.00 in0.0 mm 0.00 in0.0 mm
01:02 AM 53.2°F11.8°C 45.4°F7.4°C 75% Calm Calm -- 30.02 in1016.6 mb 0.00 in0.0 mm 0.00 in0.0 mm 0.00 in0.0 mm
01:04 AM 53.1°F11.7°C 45.3°F7.4°C 75% Calm Calm -- 30.02 in1016.6 mb 0.00 in0.0 mm 0.00 in0.0 mm 0.00 in0.0 mm
01:05 AM 53.1°F11.7°C 45.3°F7.4°C 75% Calm Calm -- 30.02 in1016.6 mb 0.00 in0.0 mm 0.00 in0.0 mm 0.00 in0.0 mm
01:06 AM 52.8°F11.6°C 45.1°F7.3°C 75% Calm Calm -- 30.02 in1016.6 mb 0.00 in0.0 mm 0.00 in0.0 mm 0.00 in0.0 mm
01:10 AM 53.1°F11.7°C 45.3°F7.4°C 75% Calm Calm -- 30.02 in1016.6 mb 0.00 in0.0 mm 0.00 in0.0 mm 0.00 in0.0 mm
01:11 AM 53.1°F11.7°C 45.3°F7.4°C 75% 2.0 mph W3.2 kmh W -- 30.02 in1016.6 mb 0.00 in0.0 mm 0.00 in0.0 mm 0.00 in0.0 mm
01:12 AM 53.2°F11.8°C 45.4°F7.4°C 75% 1.0 mph W1.6 kmh W -- 30.02 in1016.6 mb 0.00 in0.0 mm 0.00 in0.0 mm 0.00 in0.0 mm
01:13 AM 53.2°F11.8°C 45.4°F7.4°C 75% Calm Calm -- 30.02 in1016.6 mb 0.00 in0.0 mm 0.00 in0.0 mm 0.00 in0.0 mm
01:14 AM 53.4°F11.9°C 45.6°F7.6°C 75% Calm Calm -- 30.02 in1016.6 mb 0.00 in0.0 mm 0.00 in0.0 mm 0.00 in0.0 mm
01:15 AM 53.4°F11.9°C 45.6°F7.6°C 75% Calm Calm -- 30.02 in1016.6 mb 0.00 in0.0 mm 0.00 in0.0 mm 0.00 in0.0 mm
01:16 AM 53.4°F11.9°C 45.6°F7.6°C 75% Calm Calm -- 30.02 in1016.6 mb 0.00 in0.0 mm 0.00 in0.0 mm 0.00 in0.0 mm
01:18 AM 53.4°F11.9°C 45.6°F7.6°C 75% Calm Calm -- 30.02 in1016.6 mb 0.00 in0.0 mm 0.00 in0.0 mm 0.00 in0.0 mm
01:19 AM 53.4°F11.9°C 45.6°F7.6°C 75% Calm Calm -- 30.02 in1016.6 mb 0.00 in0.0 mm 0.00 in0.0 mm 0.00 in0.0 mm
01:20 AM 53.4°F11.9°C 45.6°F7.6°C 75% Calm Calm -- 30.02 in1016.6 mb 0.00 in0.0 mm 0.00 in0.0 mm 0.00 in0.0 mm
01:22 AM 53.2°F11.8°C 45.4°F7.4°C 75% Calm Calm -- 30.02 in1016.6 mb 0.00 in0.0 mm 0.00 in0.0 mm 0.00 in0.0 mm
01:23 AM 53.2°F11.8°C 45.4°F7.4°C 75% Calm Calm -- 30.02 in1016.6 mb 0.00 in0.0 mm 0.00 in0.0 mm 0.00 in0.0 mm
01:24 AM 53.1°F11.7°C 45.3°F7.4°C 75% Calm Calm -- 30.02 in1016.6 mb 0.00 in0.0 mm 0.00 in0.0 mm 0.00 in0.0 mm
01:25 AM 53.1°F11.7°C 45.3°F7.4°C 75% Calm Calm -- 30.02 in1016.6 mb 0.00 in0.0 mm 0.00 in0.0 mm 0.00 in0.0 mm
01:26 AM 52.6°F11.4°C 45.1°F7.3°C 76% Calm Calm -- 30.02 in1016.6 mb 0.00 in0.0 mm 0.00 in0.0 mm 0.00 in0.0 mm
01:27 AM 52.5°F11.4°C 45.1°F7.3°C 76% Calm Calm -- 30.02 in1016.6 mb 0.00 in0.0 mm 0.00 in0.0 mm 0.00 in0.0 mm
01:28 AM 52.3°F11.3°C 45.6°F7.6°C 78% Calm Calm -- 30.02 in1016.6 mb 0.00 in0.0 mm 0.00 in0.0 mm 0.00 in0.0 mm
01:29 AM 51.9°F11.1°C 45.6°F7.6°C 79% Calm Calm -- 30.02 in1016.6 mb 0.00 in0.0 mm 0.00 in0.0 mm 0.00 in0.0 mm
01:30 AM 51.9°F11.1°C 45.6°F7.6°C 79% Calm Calm -- 30.02 in1016.6 mb 0.00 in0.0 mm 0.00 in0.0 mm 0.00 in0.0 mm
01:32 AM 51.9°F11.1°C 45.6°F7.6°C 79% Calm Calm -- 30.02 in1016.6 mb 0.00 in0.0 mm 0.00 in0.0 mm 0.00 in0.0 mm
01:33 AM 51.9°F11.1°C 45.6°F7.6°C 79% Calm Calm -- 30.02 in1016.6 mb 0.00 in0.0 mm 0.00 in0.0 mm 0.00 in0.0 mm
01:35 AM 51.9°F11.1°C 45.6°F7.6°C 79% Calm Calm -- 30.02 in1016.6 mb 0.00 in0.0 mm 0.00 in0.0 mm 0.00 in0.0 mm
01:36 AM 51.8°F11.0°C 45.4°F7.4°C 79% Calm Calm -- 30.02 in1016.6 mb 0.00 in0.0 mm 0.00 in0.0 mm 0.00 in0.0 mm
01:37 AM 51.8°F11.0°C 45.4°F7.4°C 79% Calm Calm -- 30.02 in1016.6 mb 0.00 in0.0 mm 0.00 in0.0 mm 0.00 in0.0 mm
01:38 AM 51.8°F11.0°C 45.4°F7.4°C 79% Calm Calm -- 30.02 in1016.6 mb 0.00 in0.0 mm 0.00 in0.0 mm 0.00 in0.0 mm
01:39 AM 51.8°F11.0°C 45.4°F7.4°C 79% Calm Calm -- 30.02 in1016.6 mb 0.00 in0.0 mm 0.00 in0.0 mm 0.00 in0.0 mm
01:40 AM 51.5°F10.8°C 45.1°F7.3°C 79% Calm Calm -- 30.02 in1016.6 mb 0.00 in0.0 mm 0.00 in0.0 mm 0.00 in0.0 mm
01:41 AM 51.5°F10.8°C 45.1°F7.3°C 79% Calm Calm -- 30.02 in1016.6 mb 0.00 in0.0 mm 0.00 in0.0 mm 0.00 in0.0 mm
01:42 AM 51.4°F10.8°C 45.1°F7.3°C 79% Calm Calm -- 30.02 in1016.6 mb 0.00 in0.0 mm 0.00 in0.0 mm 0.00 in0.0 mm
01:43 AM 51.0°F10.6°C 45.1°F7.3°C 80% Calm Calm -- 30.02 in1016.6 mb 0.00 in0.0 mm 0.00 in0.0 mm 0.00 in0.0 mm
01:44 AM 51.0°F10.6°C 45.4°F7.4°C 81% Calm Calm -- 30.02 in1016.6 mb 0.00 in0.0 mm 0.00 in0.0 mm 0.00 in0.0 mm
01:45 AM 50.9°F10.5°C 45.2°F7.3°C 81% Calm Calm -- 30.02 in1016.6 mb 0.00 in0.0 mm 0.00 in0.0 mm 0.00 in0.0 mm
01:46 AM 50.7°F10.4°C 45.0°F7.2°C 81% Calm Calm -- 30.02 in1016.6 mb 0.00 in0.0 mm 0.00 in0.0 mm 0.00 in0.0 mm
01:49 AM 50.7°F10.4°C 45.0°F7.2°C 81% Calm Calm -- 30.02 in1016.6 mb 0.00 in0.0 mm 0.00 in0.0 mm 0.00 in0.0 mm
01:50 AM 50.5°F10.3°C 44.9°F7.2°C 81% Calm Calm -- 30.02 in1016.6 mb 0.00 in0.0 mm 0.00 in0.0 mm 0.00 in0.0 mm
01:52 AM 50.5°F10.3°C 44.9°F7.2°C 81% Calm Calm -- 30.02 in1016.6 mb 0.00 in0.0 mm 0.00 in0.0 mm 0.00 in0.0 mm
01:53 AM 50.5°F10.3°C 44.9°F7.2°C 81% Calm Calm -- 30.02 in1016.6 mb 0.00 in0.0 mm 0.00 in0.0 mm 0.00 in0.0 mm
01:54 AM 50.5°F10.3°C 44.9°F7.2°C 81% Calm Calm -- 30.02 in1016.6 mb 0.00 in0.0 mm 0.00 in0.0 mm 0.00 in0.0 mm
01:55 AM 50.5°F10.3°C 45.5°F7.5°C 83% 2.0 mph WNW3.2 kmh WNW -- 30.02 in1016.6 mb 0.00 in0.0 mm 0.00 in0.0 mm 0.00 in0.0 mm
01:56 AM 50.3°F10.2°C 45.3°F7.4°C 83% 2.0 mph WNW3.2 kmh WNW -- 30.02 in1016.6 mb 0.00 in0.0 mm 0.00 in0.0 mm 0.00 in0.0 mm
01:57 AM 50.1°F10.1°C 45.2°F7.3°C 83% Calm Calm -- 30.02 in1016.6 mb 0.00 in0.0 mm 0.00 in0.0 mm 0.00 in0.0 mm
01:59 AM 50.0°F10.0°C 45.0°F7.2°C 83% Calm Calm -- 30.02 in1016.6 mb 0.00 in0.0 mm 0.00 in0.0 mm 0.00 in0.0 mm
02:00 AM 50.0°F10.0°C 45.0°F7.2°C 83% 1.0 mph WNW1.6 kmh WNW -- 30.02 in1016.6 mb 0.00 in0.0 mm 0.00 in0.0 mm 0.00 in0.0 mm
02:01 AM 50.0°F10.0°C 45.0°F7.2°C 83% 2.0 mph WNW3.2 kmh WNW -- 30.02 in1016.6 mb 0.00 in0.0 mm 0.00 in0.0 mm 0.00 in0.0 mm
02:02 AM 50.0°F10.0°C 45.0°F7.2°C 83% 2.0 mph NW3.2 kmh NW -- 30.01 in1016.3 mb 0.00 in0.0 mm 0.00 in0.0 mm 0.00 in0.0 mm
02:03 AM 49.8°F9.9°C 44.8°F7.1°C 83% 2.0 mph NW3.2 kmh NW -- 30.02 in1016.6 mb 0.00 in0.0 mm 0.00 in0.0 mm 0.00 in0.0 mm
02:04 AM 49.8°F9.9°C 44.8°F7.1°C 83% 1.0 mph W1.6 kmh W -- 30.02 in1016.6 mb 0.00 in0.0 mm 0.00 in0.0 mm 0.00 in0.0 mm
02:05 AM 49.8°F9.9°C 44.8°F7.1°C 83% Calm Calm -- 30.02 in1016.6 mb 0.00 in0.0 mm 0.00 in0.0 mm 0.00 in0.0 mm
02:06 AM 49.8°F9.9°C 44.8°F7.1°C 83% Calm Calm -- 30.02 in1016.6 mb 0.00 in0.0 mm 0.00 in0.0 mm 0.00 in0.0 mm
02:07 AM 49.8°F9.9°C 44.8°F7.1°C 83% Calm Calm -- 30.02 in1016.6 mb 0.00 in0.0 mm 0.00 in0.0 mm 0.00 in0.0 mm
02:09 AM 49.8°F9.9°C 44.8°F7.1°C 83% Calm Calm -- 30.02 in1016.6 mb 0.00 in0.0 mm 0.00 in0.0 mm 0.00 in0.0 mm
02:10 AM 49.6°F9.8°C 45.3°F7.4°C 85% Calm Calm -- 30.02 in1016.6 mb 0.00 in0.0 mm 0.00 in0.0 mm 0.00 in0.0 mm
02:13 AM 49.6°F9.8°C 45.3°F7.4°C 85% Calm Calm -- 30.01 in1016.3 mb 0.00 in0.0 mm 0.00 in0.0 mm 0.00 in0.0 mm
02:14 AM 49.6°F9.8°C 45.3°F7.4°C 85% Calm Calm -- 30.01 in1016.3 mb 0.00 in0.0 mm 0.00 in0.0 mm 0.00 in0.0 mm
02:16 AM 49.4°F9.7°C 45.4°F7.4°C 86% Calm Calm -- 30.01 in1016.3 mb 0.00 in0.0 mm 0.00 in0.0 mm 0.00 in0.0 mm
02:17 AM 49.4°F9.7°C 45.4°F7.4°C 86% 2.0 mph WNW3.2 kmh WNW -- 30.02 in1016.6 mb 0.00 in0.0 mm 0.00 in0.0 mm 0.00 in0.0 mm
02:18 AM 49.2°F9.6°C 45.2°F7.3°C 86% 2.0 mph WNW3.2 kmh WNW -- 30.02 in1016.6 mb 0.00 in0.0 mm 0.00 in0.0 mm 0.00 in0.0 mm
02:19 AM 49.2°F9.6°C 45.2°F7.3°C 86% 3.0 mph NW4.8 kmh NW -- 30.02 in1016.6 mb 0.00 in0.0 mm 0.00 in0.0 mm 0.00 in0.0 mm
02:20 AM 49.2°F9.6°C 45.2°F7.3°C 86% 2.0 mph WNW3.2 kmh WNW -- 30.01 in1016.3 mb 0.00 in0.0 mm 0.00 in0.0 mm 0.00 in0.0 mm
02:21 AM 49.2°F9.6°C 45.2°F7.3°C 86% 2.0 mph NW3.2 kmh NW -- 30.01 in1016.3 mb 0.00 in0.0 mm 0.00 in0.0 mm 0.00 in0.0 mm
02:22 AM 49.2°F9.6°C 45.2°F7.3°C 86% 3.0 mph WNW4.8 kmh WNW -- 30.01 in1016.3 mb 0.00 in0.0 mm 0.00 in0.0 mm 0.00 in0.0 mm
02:23 AM 49.2°F9.6°C 45.2°F7.3°C 86% 4.0 mph W6.4 kmh W -- 30.02 in1016.6 mb 0.00 in0.0 mm 0.00 in0.0 mm 0.00 in0.0 mm
02:24 AM 49.2°F9.6°C 45.2°F7.3°C 86% 1.0 mph W1.6 kmh W -- 30.02 in1016.6 mb 0.00 in0.0 mm 0.00 in0.0 mm 0.00 in0.0 mm
02:25 AM 49.2°F9.6°C 45.2°F7.3°C 86% Calm Calm -- 30.02 in1016.6 mb 0.00 in0.0 mm 0.00 in0.0 mm 0.00 in0.0 mm
02:26 AM 49.2°F9.6°C 45.2°F7.3°C 86% Calm Calm -- 30.01 in1016.3 mb 0.00 in0.0 mm 0.00 in0.0 mm 0.00 in0.0 mm
02:28 AM 49.0°F9.4°C 44.9°F7.2°C 86% 2.0 mph WNW3.2 kmh WNW -- 30.02 in1016.6 mb 0.00 in0.0 mm 0.00 in0.0 mm 0.00 in0.0 mm
02:29 AM 49.0°F9.4°C 45.5°F7.5°C 88% 3.0 mph NW4.8 kmh NW -- 30.02 in1016.6 mb 0.00 in0.0 mm 0.00 in0.0 mm 0.00 in0.0 mm
02:30 AM 49.0°F9.4°C 45.5°F7.5°C 88% 4.0 mph W6.4 kmh W -- 30.02 in1016.6 mb 0.00 in0.0 mm 0.00 in0.0 mm 0.00 in0.0 mm
02:31 AM 49.0°F9.4°C 45.5°F7.5°C 88% Calm Calm -- 30.02 in1016.6 mb 0.00 in0.0 mm 0.00 in0.0 mm 0.00 in0.0 mm
02:32 AM 49.0°F9.4°C 45.5°F7.5°C 88% Calm Calm -- 30.02 in1016.6 mb 0.00 in0.0 mm 0.00 in0.0 mm 0.00 in0.0 mm
02:33 AM 49.0°F9.4°C 45.5°F7.5°C 88% Calm Calm -- 30.02 in1016.6 mb 0.00 in0.0 mm 0.00 in0.0 mm 0.00 in0.0 mm
02:34 AM 48.9°F9.4°C 45.5°F7.5°C 88% Calm Calm -- 30.02 in1016.6 mb 0.00 in0.0 mm 0.00 in0.0 mm 0.00 in0.0 mm
02:35 AM 48.9°F9.4°C 45.5°F7.5°C 88% Calm Calm -- 30.01 in1016.3 mb 0.00 in0.0 mm 0.00 in0.0 mm 0.00 in0.0 mm
02:36 AM 48.9°F9.4°C 45.5°F7.5°C 88% Calm Calm -- 30.01 in1016.3 mb 0.00 in0.0 mm 0.00 in0.0 mm 0.00 in0.0 mm
02:38 AM 49.0°F9.4°C 46.1°F7.8°C 90% 3.0 mph W4.8 kmh W -- 30.02 in1016.6 mb 0.00 in0.0 mm 0.00 in0.0 mm 0.00 in0.0 mm
02:40 AM 49.0°F9.4°C 46.1°F7.8°C 90% 1.0 mph WNW1.6 kmh WNW -- 30.01 in1016.3 mb 0.00 in0.0 mm 0.00 in0.0 mm 0.00 in0.0 mm
02:41 AM 49.0°F9.4°C 46.1°F7.8°C 90% 2.0 mph W3.2 kmh W -- 30.01 in1016.3 mb 0.00 in0.0 mm 0.00 in0.0 mm 0.00 in0.0 mm
02:42 AM 49.0°F9.4°C 46.1°F7.8°C 90% 4.0 mph WNW6.4 kmh WNW -- 30.02 in1016.6 mb 0.00 in0.0 mm 0.00 in0.0 mm 0.00 in0.0 mm
02:43 AM 49.0°F9.4°C 46.1°F7.8°C 90% 2.0 mph WNW3.2 kmh WNW -- 30.02 in1016.6 mb 0.00 in0.0 mm 0.00 in0.0 mm 0.00 in0.0 mm
02:44 AM 49.0°F9.4°C 46.1°F7.8°C 90% Calm Calm -- 30.01 in1016.3 mb 0.00 in0.0 mm 0.00 in0.0 mm 0.00 in0.0 mm
02:45 AM 49.0°F9.4°C 46.1°F7.8°C 90% Calm Calm -- 30.02 in1016.6 mb 0.00 in0.0 mm 0.00 in0.0 mm 0.00 in0.0 mm
02:46 AM 49.2°F9.6°C 46.4°F8.0°C 90% Calm Calm -- 30.02 in1016.6 mb 0.00 in0.0 mm 0.00 in0.0 mm 0.00 in0.0 mm
02:47 AM 49.4°F9.7°C 46.6°F8.1°C 90% Calm Calm -- 30.02 in1016.6 mb 0.00 in0.0 mm 0.00 in0.0 mm 0.00 in0.0 mm
02:48 AM 49.2°F9.6°C 46.4°F8.0°C 90% Calm Calm -- 30.01 in1016.3 mb 0.00 in0.0 mm 0.00 in0.0 mm 0.00 in0.0 mm
02:49 AM 49.0°F9.4°C 46.1°F7.8°C 90% 3.0 mph NW4.8 kmh NW -- 30.01 in1016.3 mb 0.00 in0.0 mm 0.00 in0.0 mm 0.00 in0.0 mm
02:51 AM 48.9°F9.4°C 46.1°F7.8°C 90% 3.0 mph NW4.8 kmh NW -- 30.01 in1016.3 mb 0.00 in0.0 mm 0.00 in0.0 mm 0.00 in0.0 mm
02:52 AM 48.9°F9.4°C 46.4°F8.0°C 91% 3.0 mph NW4.8 kmh NW -- 30.01 in1016.3 mb 0.00 in0.0 mm 0.00 in0.0 mm 0.00 in0.0 mm
02:53 AM 48.9°F9.4°C 46.4°F8.0°C 91% 2.0 mph WNW3.2 kmh WNW -- 30.01 in1016.3 mb 0.00 in0.0 mm 0.00 in0.0 mm 0.00 in0.0 mm
02:54 AM 48.9°F9.4°C 46.4°F8.0°C 91% Calm Calm -- 30.01 in1016.3 mb 0.00 in0.0 mm 0.00 in0.0 mm 0.00 in0.0 mm
02:55 AM 48.9°F9.4°C 46.4°F8.0°C 91% Calm Calm -- 30.01 in1016.3 mb 0.00 in0.0 mm 0.00 in0.0 mm 0.00 in0.0 mm
02:57 AM 48.9°F9.4°C 46.4°F8.0°C 91% Calm Calm -- 30.02 in1016.6 mb 0.00 in0.0 mm 0.00 in0.0 mm 0.00 in0.0 mm
02:58 AM 48.9°F9.4°C 46.4°F8.0°C 91% Calm Calm -- 30.01 in1016.3 mb 0.00 in0.0 mm 0.00 in0.0 mm 0.00 in0.0 mm
02:59 AM 48.9°F9.4°C 46.4°F8.0°C 91% Calm Calm -- 30.01 in1016.3 mb 0.00 in0.0 mm 0.00 in0.0 mm 0.00 in0.0 mm
03:00 AM 48.9°F9.4°C 46.4°F8.0°C 91% Calm Calm -- 30.01 in1016.3 mb 0.00 in0.0 mm 0.00 in0.0 mm 0.00 in0.0 mm
03:01 AM 48.9°F9.4°C 46.4°F8.0°C 91% Calm Calm -- 30.02 in1016.6 mb 0.00 in0.0 mm 0.00 in0.0 mm 0.00 in0.0 mm
03:02 AM 48.6°F9.2°C 46.0°F7.8°C 91% Calm Calm -- 30.02 in1016.6 mb 0.00 in0.0 mm 0.00 in0.0 mm 0.00 in0.0 mm
03:04 AM 48.6°F9.2°C 46.0°F7.8°C 91% Calm Calm -- 30.02 in1016.6 mb 0.00 in0.0 mm 0.00 in0.0 mm 0.00 in0.0 mm
03:06 AM 48.6°F9.2°C 46.0°F7.8°C 91% Calm Calm -- 30.02 in1016.6 mb 0.00 in0.0 mm 0.00 in0.0 mm 0.00 in0.0 mm
03:08 AM 48.5°F9.2°C 46.0°F7.8°C 91% Calm Calm -- 30.02 in1016.6 mb 0.00 in0.0 mm 0.00 in0.0 mm 0.00 in0.0 mm
03:09 AM 48.4°F9.1°C 45.8°F7.7°C 91% Calm Calm -- 30.02 in1016.6 mb 0.00 in0.0 mm 0.00 in0.0 mm 0.00 in0.0 mm
03:10 AM 48.4°F9.1°C 45.8°F7.7°C 91% Calm Calm -- 30.02 in1016.6 mb 0.00 in0.0 mm 0.00 in0.0 mm 0.00 in0.0 mm
03:11 AM 48.4°F9.1°C 46.4°F8.0°C 93% Calm Calm -- 30.02 in1016.6 mb 0.00 in0.0 mm 0.00 in0.0 mm 0.00 in0.0 mm
03:12 AM 48.4°F9.1°C 46.4°F8.0°C 93% Calm Calm -- 30.02 in1016.6 mb 0.00 in0.0 mm 0.00 in0.0 mm 0.00 in0.0 mm
03:13 AM 48.5°F9.2°C 46.6°F8.1°C 93% Calm Calm -- 30.02 in1016.6 mb 0.00 in0.0 mm 0.00 in0.0 mm 0.00 in0.0 mm
03:14 AM 48.5°F9.2°C 46.6°F8.1°C 93% Calm Calm -- 30.02 in1016.6 mb 0.00 in0.0 mm 0.00 in0.0 mm 0.00 in0.0 mm
03:15 AM 48.5°F9.2°C 46.6°F8.1°C 93% 3.0 mph W4.8 kmh W -- 30.01 in1016.3 mb 0.00 in0.0 mm 0.00 in0.0 mm 0.00 in0.0 mm
03:16 AM 48.5°F9.2°C 46.6°F8.1°C 93% 2.0 mph WNW3.2 kmh WNW -- 30.02 in1016.6 mb 0.00 in0.0 mm 0.00 in0.0 mm 0.00 in0.0 mm
03:17 AM 48.5°F9.2°C 46.6°F8.1°C 93% Calm Calm -- 30.02 in1016.6 mb 0.00 in0.0 mm 0.00 in0.0 mm 0.00 in0.0 mm
03:19 AM 48.5°F9.2°C 46.6°F8.1°C 93% Calm Calm -- 30.01 in1016.3 mb 0.00 in0.0 mm 0.00 in0.0 mm 0.00 in0.0 mm
03:20 AM 48.5°F9.2°C 46.6°F8.1°C 93% 3.0 mph WNW4.8 kmh WNW -- 30.02 in1016.6 mb 0.00 in0.0 mm 0.00 in0.0 mm 0.00 in0.0 mm
03:21 AM 48.6°F9.2°C 46.6°F8.1°C 93% 4.0 mph NW6.4 kmh NW -- 30.02 in1016.6 mb 0.00 in0.0 mm 0.00 in0.0 mm 0.00 in0.0 mm
03:22 AM 48.9°F9.4°C 46.4°F8.0°C 91% 1.0 mph WNW1.6 kmh WNW -- 30.02 in1016.6 mb 0.00 in0.0 mm 0.00 in0.0 mm 0.00 in0.0 mm
03:25 AM 48.9°F9.4°C 46.4°F8.0°C 91% 3.0 mph WNW4.8 kmh WNW -- 30.02 in1016.6 mb 0.00 in0.0 mm 0.00 in0.0 mm 0.00 in0.0 mm
03:27 AM 49.0°F9.4°C 46.4°F8.0°C 91% 1.0 mph W1.6 kmh W -- 30.02 in1016.6 mb 0.00 in0.0 mm 0.00 in0.0 mm 0.00 in0.0 mm
03:28 AM 49.0°F9.4°C 46.4°F8.0°C 91% 2.0 mph WNW3.2 kmh WNW -- 30.02 in1016.6 mb 0.00 in0.0 mm 0.00 in0.0 mm 0.00 in0.0 mm
03:29 AM 49.0°F9.4°C 46.4°F8.0°C 91% Calm Calm -- 30.02 in1016.6 mb 0.00 in0.0 mm 0.00 in0.0 mm 0.00 in0.0 mm
03:30 AM 49.2°F9.6°C 46.7°F8.2°C 91% 1.0 mph W1.6 kmh W -- 30.02 in1016.6 mb 0.00 in0.0 mm 0.00 in0.0 mm 0.00 in0.0 mm
03:31 AM 49.2°F9.6°C 46.7°F8.2°C 91% Calm Calm -- 30.02 in1016.6 mb 0.00 in0.0 mm 0.00 in0.0 mm 0.00 in0.0 mm
03:32 AM 49.2°F9.6°C 46.7°F8.2°C 91% Calm Calm -- 30.01 in1016.3 mb 0.00 in0.0 mm 0.00 in0.0 mm 0.00 in0.0 mm
03:33 AM 49.2°F9.6°C 46.7°F8.2°C 91% Calm Calm -- 30.01 in1016.3 mb 0.00 in0.0 mm 0.00 in0.0 mm 0.00 in0.0 mm
03:34 AM 49.2°F9.6°C 46.7°F8.2°C 91% 1.0 mph W1.6 kmh W -- 30.02 in1016.6 mb 0.00 in0.0 mm 0.00 in0.0 mm 0.00 in0.0 mm
03:35 AM 49.4°F9.7°C 46.9°F8.3°C 91% 1.0 mph NW1.6 kmh NW -- 30.02 in1016.6 mb 0.00 in0.0 mm 0.00 in0.0 mm 0.00 in0.0 mm
03:36 AM 49.4°F9.7°C 46.9°F8.3°C 91% 2.0 mph WNW3.2 kmh WNW -- 30.02 in1016.6 mb 0.00 in0.0 mm 0.00 in0.0 mm 0.00 in0.0 mm
03:37 AM 49.4°F9.7°C 46.9°F8.3°C 91% 3.0 mph WNW4.8 kmh WNW -- 30.02 in1016.6 mb 0.00 in0.0 mm 0.00 in0.0 mm 0.00 in0.0 mm
03:38 AM 49.4°F9.7°C 46.9°F8.3°C 91% 2.0 mph WNW3.2 kmh WNW -- 30.02 in1016.6 mb 0.00 in0.0 mm 0.00 in0.0 mm 0.00 in0.0 mm
03:39 AM 49.4°F9.7°C 46.9°F8.3°C 91% 3.0 mph WNW4.8 kmh WNW -- 30.02 in1016.6 mb 0.00 in0.0 mm 0.00 in0.0 mm 0.00 in0.0 mm
03:40 AM 49.4°F9.7°C 46.9°F8.3°C 91% 4.0 mph WNW6.4 kmh WNW -- 30.02 in1016.6 mb 0.00 in0.0 mm 0.00 in0.0 mm 0.00 in0.0 mm
03:41 AM 49.4°F9.7°C 46.9°F8.3°C 91% 2.0 mph W3.2 kmh W -- 30.01 in1016.3 mb 0.00 in0.0 mm 0.00 in0.0 mm 0.00 in0.0 mm
03:42 AM 49.4°F9.7°C 46.9°F8.3°C 91% 2.0 mph WNW3.2 kmh WNW -- 30.01 in1016.3 mb 0.00 in0.0 mm 0.00 in0.0 mm 0.00 in0.0 mm
03:44 AM 49.4°F9.7°C 46.9°F8.3°C 91% 1.0 mph WNW1.6 kmh WNW -- 30.02 in1016.6 mb 0.00 in0.0 mm 0.00 in0.0 mm 0.00 in0.0 mm
03:45 AM 49.6°F9.8°C 47.1°F8.4°C 91% 2.0 mph W3.2 kmh W -- 30.02 in1016.6 mb 0.00 in0.0 mm 0.00 in0.0 mm 0.00 in0.0 mm
03:46 AM 49.6°F9.8°C 47.1°F8.4°C 91% 2.0 mph WNW3.2 kmh WNW -- 30.01 in1016.3 mb 0.00 in0.0 mm 0.00 in0.0 mm 0.00 in0.0 mm
03:47 AM 49.6°F9.8°C 47.1°F8.4°C 91% 3.0 mph WNW4.8 kmh WNW -- 30.02 in1016.6 mb 0.00 in0.0 mm 0.00 in0.0 mm 0.00 in0.0 mm
03:48 AM 49.6°F9.8°C 47.1°F8.4°C 91% 2.0 mph WNW3.2 kmh WNW -- 30.02 in1016.6 mb 0.00 in0.0 mm 0.00 in0.0 mm 0.00 in0.0 mm
03:49 AM 49.6°F9.8°C 47.1°F8.4°C 91% 3.0 mph WNW4.8 kmh WNW -- 30.02 in1016.6 mb 0.00 in0.0 mm 0.00 in0.0 mm 0.00 in0.0 mm
03:50 AM 49.6°F9.8°C 47.1°F8.4°C 91% 2.0 mph W3.2 kmh W -- 30.02 in1016.6 mb 0.00 in0.0 mm 0.00 in0.0 mm 0.00 in0.0 mm
03:51 AM 49.6°F9.8°C 47.1°F8.4°C 91% 2.0 mph WNW3.2 kmh WNW -- 30.01 in1016.3 mb 0.00 in0.0 mm 0.00 in0.0 mm 0.00 in0.0 mm
03:52 AM 49.6°F9.8°C 47.1°F8.4°C 91% 2.0 mph NW3.2 kmh NW -- 30.01 in1016.3 mb 0.00 in0.0 mm 0.00 in0.0 mm 0.00 in0.0 mm
03:53 AM 49.6°F9.8°C 47.1°F8.4°C 91% 2.0 mph NNW3.2 kmh NNW -- 30.02 in1016.6 mb 0.00 in0.0 mm 0.00 in0.0 mm 0.00 in0.0 mm
03:54 AM 49.6°F9.8°C 47.1°F8.4°C 91% 2.0 mph WNW3.2 kmh WNW -- 30.01 in1016.3 mb 0.00 in0.0 mm 0.00 in0.0 mm 0.00 in0.0 mm
03:55 AM 49.6°F9.8°C 46.8°F8.2°C 90% 3.0 mph W4.8 kmh W -- 30.01 in1016.3 mb 0.00 in0.0 mm 0.00 in0.0 mm 0.00 in0.0 mm
03:56 AM 49.6°F9.8°C 46.8°F8.2°C 90% 4.0 mph W6.4 kmh W -- 30.01 in1016.3 mb 0.00 in0.0 mm 0.00 in0.0 mm 0.00 in0.0 mm
03:57 AM 49.6°F9.8°C 46.2°F7.9°C 88% 4.0 mph W6.4 kmh W -- 30.02 in1016.6 mb 0.00 in0.0 mm 0.00 in0.0 mm 0.00 in0.0 mm
03:58 AM 49.6°F9.8°C 46.2°F7.9°C 88% 3.0 mph W4.8 kmh W -- 30.02 in1016.6 mb 0.00 in0.0 mm 0.00 in0.0 mm 0.00 in0.0 mm
03:59 AM 49.8°F9.9°C 46.4°F8.0°C 88% 2.0 mph WNW3.2 kmh WNW -- 30.02 in1016.6 mb 0.00 in0.0 mm 0.00 in0.0 mm 0.00 in0.0 mm
04:00 AM 50.0°F10.0°C 45.9°F7.7°C 86% 3.0 mph WNW4.8 kmh WNW -- 30.02 in1016.6 mb 0.00 in0.0 mm 0.00 in0.0 mm 0.00 in0.0 mm
04:01 AM 50.1°F10.1°C 45.8°F7.7°C 85% 1.0 mph W1.6 kmh W -- 30.01 in1016.3 mb 0.00 in0.0 mm 0.00 in0.0 mm 0.00 in0.0 mm
04:02 AM 50.1°F10.1°C 45.8°F7.7°C 85% Calm Calm -- 30.01 in1016.3 mb 0.00 in0.0 mm 0.00 in0.0 mm 0.00 in0.0 mm
04:03 AM 50.3°F10.2°C 45.3°F7.4°C 83% Calm Calm -- 30.01 in1016.3 mb 0.00 in0.0 mm 0.00 in0.0 mm 0.00 in0.0 mm
04:04 AM 50.5°F10.3°C 45.5°F7.5°C 83% Calm Calm -- 30.01 in1016.3 mb 0.00 in0.0 mm 0.00 in0.0 mm 0.00 in0.0 mm
04:05 AM 50.7°F10.4°C 45.7°F7.6°C 83% Calm Calm -- 30.01 in1016.3 mb 0.00 in0.0 mm 0.00 in0.0 mm 0.00 in0.0 mm
04:06 AM 50.7°F10.4°C 45.7°F7.6°C 83% Calm Calm -- 30.01 in1016.3 mb 0.00 in0.0 mm 0.00 in0.0 mm 0.00 in0.0 mm
04:07 AM 50.7°F10.4°C 45.7°F7.6°C 83% Calm Calm -- 30.01 in1016.3 mb 0.00 in0.0 mm 0.00 in0.0 mm 0.00 in0.0 mm
04:10 AM 50.7°F10.4°C 45.7°F7.6°C 83% Calm Calm -- 30.01 in1016.3 mb 0.00 in0.0 mm 0.00 in0.0 mm 0.00 in0.0 mm
04:11 AM 50.9°F10.5°C 45.2°F7.3°C 81% 1.0 mph WSW1.6 kmh WSW -- 30.01 in1016.3 mb 0.00 in0.0 mm 0.00 in0.0 mm 0.00 in0.0 mm
04:12 AM 51.3°F10.7°C 44.9°F7.2°C 79% 2.0 mph SW3.2 kmh SW -- 30.01 in1016.3 mb 0.00 in0.0 mm 0.00 in0.0 mm 0.00 in0.0 mm
04:13 AM 51.9°F11.1°C 45.3°F7.4°C 78% 2.0 mph SSW3.2 kmh SSW -- 30.01 in1016.3 mb 0.00 in0.0 mm 0.00 in0.0 mm 0.00 in0.0 mm
04:14 AM 53.1°F11.7°C 45.3°F7.4°C 75% 2.0 mph S3.2 kmh S -- 30.01 in1016.3 mb 0.00 in0.0 mm 0.00 in0.0 mm 0.00 in0.0 mm
04:15 AM 54.0°F12.2°C 45.4°F7.4°C 73% 2.0 mph SSW3.2 kmh SSW -- 30.02 in1016.6 mb 0.00 in0.0 mm 0.00 in0.0 mm 0.00 in0.0 mm
04:16 AM 54.2°F12.3°C 44.9°F7.2°C 71% 4.0 mph SSE6.4 kmh SSE -- 30.02 in1016.6 mb 0.00 in0.0 mm 0.00 in0.0 mm 0.00 in0.0 mm
04:17 AM 54.7°F12.6°C 45.0°F7.2°C 70% 3.0 mph S4.8 kmh S -- 30.01 in1016.3 mb 0.00 in0.0 mm 0.00 in0.0 mm 0.00 in0.0 mm
04:18 AM 54.7°F12.6°C 45.4°F7.4°C 71% 2.0 mph SSW3.2 kmh SSW -- 30.01 in1016.3 mb 0.00 in0.0 mm 0.00 in0.0 mm 0.00 in0.0 mm
04:19 AM 54.4°F12.4°C 45.0°F7.2°C 71% 3.0 mph S4.8 kmh S -- 30.01 in1016.3 mb 0.00 in0.0 mm 0.00 in0.0 mm 0.00 in0.0 mm
04:20 AM 54.0°F12.2°C 45.8°F7.7°C 74% 1.0 mph SSW1.6 kmh SSW -- 30.01 in1016.3 mb 0.00 in0.0 mm 0.00 in0.0 mm 0.00 in0.0 mm
04:21 AM 54.0°F12.2°C 45.8°F7.7°C 74% Calm Calm -- 30.02 in1016.6 mb 0.00 in0.0 mm 0.00 in0.0 mm 0.00 in0.0 mm
04:22 AM 53.8°F12.1°C 46.0°F7.8°C 75% Calm Calm -- 30.02 in1016.6 mb 0.00 in0.0 mm 0.00 in0.0 mm 0.00 in0.0 mm
04:23 AM 53.8°F12.1°C 46.0°F7.8°C 75% 2.0 mph SW3.2 kmh SW -- 30.02 in1016.6 mb 0.00 in0.0 mm 0.00 in0.0 mm 0.00 in0.0 mm
04:24 AM 53.8°F12.1°C 46.0°F7.8°C 75% 1.0 mph SSW1.6 kmh SSW -- 30.02 in1016.6 mb 0.00 in0.0 mm 0.00 in0.0 mm 0.00 in0.0 mm
04:25 AM 53.5°F11.9°C 45.6°F7.6°C 75% Calm Calm -- 30.02 in1016.6 mb 0.00 in0.0 mm 0.00 in0.0 mm 0.00 in0.0 mm
04:26 AM 53.2°F11.8°C 45.8°F7.7°C 76% Calm Calm -- 30.01 in1016.3 mb 0.00 in0.0 mm 0.00 in0.0 mm 0.00 in0.0 mm
04:27 AM 53.1°F11.7°C 45.6°F7.6°C 76% Calm Calm -- 30.01 in1016.3 mb 0.00 in0.0 mm 0.00 in0.0 mm 0.00 in0.0 mm
04:28 AM 52.6°F11.4°C 45.8°F7.7°C 78% Calm Calm -- 30.01 in1016.3 mb 0.00 in0.0 mm 0.00 in0.0 mm 0.00 in0.0 mm
04:29 AM 52.5°F11.4°C 46.1°F7.8°C 79% Calm Calm -- 30.01 in1016.3 mb 0.00 in0.0 mm 0.00 in0.0 mm 0.00 in0.0 mm
04:30 AM 52.5°F11.4°C 46.1°F7.8°C 79% Calm Calm -- 30.01 in1016.3 mb 0.00 in0.0 mm 0.00 in0.0 mm 0.00 in0.0 mm
04:31 AM 52.3°F11.3°C 46.3°F7.9°C 80% Calm Calm -- 30.01 in1016.3 mb 0.00 in0.0 mm 0.00 in0.0 mm 0.00 in0.0 mm
04:32 AM 52.3°F11.3°C 46.3°F7.9°C 80% Calm Calm -- 30.02 in1016.6 mb 0.00 in0.0 mm 0.00 in0.0 mm 0.00 in0.0 mm
04:33 AM 52.2°F11.2°C 46.1°F7.8°C 80% Calm Calm -- 30.02 in1016.6 mb 0.00 in0.0 mm 0.00 in0.0 mm 0.00 in0.0 mm
04:36 AM 52.2°F11.2°C 46.1°F7.8°C 80% Calm Calm -- 30.02 in1016.6 mb 0.00 in0.0 mm 0.00 in0.0 mm 0.00 in0.0 mm
04:37 AM 51.9°F11.1°C 46.3°F7.9°C 81% Calm Calm -- 30.02 in1016.6 mb 0.00 in0.0 mm 0.00 in0.0 mm 0.00 in0.0 mm
04:38 AM 51.9°F11.1°C 46.3°F7.9°C 81% 2.0 mph WNW3.2 kmh WNW -- 30.02 in1016.6 mb 0.00 in0.0 mm 0.00 in0.0 mm 0.00 in0.0 mm
04:44 AM 52.2°F11.2°C 47.1°F8.4°C 83% 2.0 mph WNW3.2 kmh WNW -- 30.02 in1016.6 mb 0.00 in0.0 mm 0.00 in0.0 mm 0.00 in0.0 mm
04:46 AM 52.3°F11.3°C 47.3°F8.5°C 83% 3.0 mph WNW4.8 kmh WNW -- 30.02 in1016.6 mb 0.00 in0.0 mm 0.00 in0.0 mm 0.00 in0.0 mm
04:47 AM 52.3°F11.3°C 46.6°F8.1°C 81% 3.0 mph WNW4.8 kmh WNW -- 30.02 in1016.6 mb 0.00 in0.0 mm 0.00 in0.0 mm 0.00 in0.0 mm
04:48 AM 52.3°F11.3°C 46.6°F8.1°C 81% 2.0 mph NW3.2 kmh NW -- 30.02 in1016.6 mb 0.00 in0.0 mm 0.00 in0.0 mm 0.00 in0.0 mm
04:49 AM 52.3°F11.3°C 46.6°F8.1°C 81% 2.0 mph WNW3.2 kmh WNW -- 30.02 in1016.6 mb 0.00 in0.0 mm 0.00 in0.0 mm 0.00 in0.0 mm
04:50 AM 52.5°F11.4°C 46.5°F8.1°C 80% 1.0 mph WNW1.6 kmh WNW -- 30.02 in1016.6 mb 0.00 in0.0 mm 0.00 in0.0 mm 0.00 in0.0 mm
04:51 AM 52.6°F11.4°C 46.5°F8.1°C 80% 2.0 mph WNW3.2 kmh WNW -- 30.02 in1016.6 mb 0.00 in0.0 mm 0.00 in0.0 mm 0.00 in0.0 mm
04:52 AM 52.6°F11.4°C 46.5°F8.1°C 80% 2.0 mph NW3.2 kmh NW -- 30.02 in1016.6 mb 0.00 in0.0 mm 0.00 in0.0 mm 0.00 in0.0 mm
04:53 AM 52.8°F11.6°C 46.8°F8.2°C 80% 1.0 mph WNW1.6 kmh WNW -- 30.02 in1016.6 mb 0.00 in0.0 mm 0.00 in0.0 mm 0.00 in0.0 mm
04:54 AM 53.1°F11.7°C 47.0°F8.3°C 80% Calm Calm -- 30.02 in1016.6 mb 0.00 in0.0 mm 0.00 in0.0 mm 0.00 in0.0 mm
04:55 AM 53.1°F11.7°C 47.0°F8.3°C 80% Calm Calm -- 30.02 in1016.6 mb 0.00 in0.0 mm 0.00 in0.0 mm 0.00 in0.0 mm
04:57 AM 53.2°F11.8°C 46.8°F8.2°C 79% Calm Calm -- 30.02 in1016.6 mb 0.00 in0.0 mm 0.00 in0.0 mm 0.00 in0.0 mm
04:58 AM 53.2°F11.8°C 46.8°F8.2°C 79% 1.0 mph NNW1.6 kmh NNW -- 30.02 in1016.6 mb 0.00 in0.0 mm 0.00 in0.0 mm 0.00 in0.0 mm
04:59 AM 53.2°F11.8°C 46.8°F8.2°C 79% 2.0 mph 3.2 kmh -- 30.03 in1016.9 mb 0.00 in0.0 mm 0.00 in0.0 mm 0.00 in0.0 mm
05:00 AM 53.2°F11.8°C 46.8°F8.2°C 79% 2.0 mph W3.2 kmh W -- 30.03 in1016.9 mb 0.00 in0.0 mm 0.00 in0.0 mm 0.00 in0.0 mm
05:01 AM 53.2°F11.8°C 46.8°F8.2°C 79% 1.0 mph W1.6 kmh W -- 30.03 in1016.9 mb 0.00 in0.0 mm 0.00 in0.0 mm 0.00 in0.0 mm
05:02 AM 53.2°F11.8°C 46.8°F8.2°C 79% Calm Calm -- 30.03 in1016.9 mb 0.00 in0.0 mm 0.00 in0.0 mm 0.00 in0.0 mm
05:03 AM 53.2°F11.8°C 46.8°F8.2°C 79% Calm Calm -- 30.03 in1016.9 mb 0.00 in0.0 mm 0.00 in0.0 mm 0.00 in0.0 mm
05:04 AM 53.2°F11.8°C 46.8°F8.2°C 79% Calm Calm -- 30.03 in1016.9 mb 0.00 in0.0 mm 0.00 in0.0 mm 0.00 in0.0 mm
05:05 AM 53.1°F11.7°C 46.7°F8.2°C 79% Calm Calm -- 30.03 in1016.9 mb 0.00 in0.0 mm 0.00 in0.0 mm 0.00 in0.0 mm
05:06 AM 53.1°F11.7°C 46.7°F8.2°C 79% Calm Calm -- 30.03 in1016.9 mb 0.00 in0.0 mm 0.00 in0.0 mm 0.00 in0.0 mm
05:07 AM 53.1°F11.7°C 46.7°F8.2°C 79% Calm Calm -- 30.03 in1016.9 mb 0.00 in0.0 mm 0.00 in0.0 mm 0.00 in0.0 mm
05:08 AM 52.8°F11.6°C 46.8°F8.2°C 80% Calm Calm -- 30.03 in1016.9 mb 0.00 in0.0 mm 0.00 in0.0 mm 0.00 in0.0 mm
05:10 AM 52.6°F11.4°C 46.8°F8.2°C 81% Calm Calm -- 30.03 in1016.9 mb 0.00 in0.0 mm 0.00 in0.0 mm 0.00 in0.0 mm
05:11 AM 52.6°F11.4°C 46.8°F8.2°C 81% Calm Calm -- 30.03 in1016.9 mb 0.00 in0.0 mm 0.00 in0.0 mm 0.00 in0.0 mm
05:12 AM 52.5°F11.4°C 46.8°F8.2°C 81% Calm Calm -- 30.03 in1016.9 mb 0.00 in0.0 mm 0.00 in0.0 mm 0.00 in0.0 mm
05:13 AM 52.5°F11.4°C 46.8°F8.2°C 81% Calm Calm -- 30.03 in1016.9 mb 0.00 in0.0 mm 0.00 in0.0 mm 0.00 in0.0 mm
05:14 AM 52.5°F11.4°C 46.8°F8.2°C 81% Calm Calm -- 30.03 in1016.9 mb 0.00 in0.0 mm 0.00 in0.0 mm 0.00 in0.0 mm
05:16 AM 52.3°F11.3°C 46.6°F8.1°C 81% Calm Calm -- 30.03 in1016.9 mb 0.00 in0.0 mm 0.00 in0.0 mm 0.00 in0.0 mm
05:17 AM 52.3°F11.3°C 47.3°F8.5°C 83% Calm Calm -- 30.03 in1016.9 mb 0.00 in0.0 mm 0.00 in0.0 mm 0.00 in0.0 mm
05:18 AM 52.2°F11.2°C 47.1°F8.4°C 83% Calm Calm -- 30.03 in1016.9 mb 0.00 in0.0 mm 0.00 in0.0 mm 0.00 in0.0 mm
05:19 AM 52.2°F11.2°C 47.1°F8.4°C 83% Calm Calm -- 30.03 in1016.9 mb 0.00 in0.0 mm 0.00 in0.0 mm 0.00 in0.0 mm
05:23 AM 52.2°F11.2°C 47.1°F8.4°C 83% Calm Calm -- 30.03 in1016.9 mb 0.00 in0.0 mm 0.00 in0.0 mm 0.00 in0.0 mm
05:25 AM 52.3°F11.3°C 47.3°F8.5°C 83% Calm Calm -- 30.03 in1016.9 mb 0.00 in0.0 mm 0.00 in0.0 mm 0.00 in0.0 mm
05:27 AM 52.3°F11.3°C 47.3°F8.5°C 83% 3.0 mph NW4.8 kmh NW -- 30.03 in1016.9 mb 0.00 in0.0 mm 0.00 in0.0 mm 0.00 in0.0 mm
05:28 AM 52.5°F11.4°C 47.5°F8.6°C 83% 2.0 mph W3.2 kmh W -- 30.03 in1016.9 mb 0.00 in0.0 mm 0.00 in0.0 mm 0.00 in0.0 mm
05:29 AM 52.5°F11.4°C 47.5°F8.6°C 83% 1.0 mph W1.6 kmh W -- 30.03 in1016.9 mb 0.00 in0.0 mm 0.00 in0.0 mm 0.00 in0.0 mm
05:30 AM 52.5°F11.4°C 47.5°F8.6°C 83% Calm Calm -- 30.03 in1016.9 mb 0.00 in0.0 mm 0.00 in0.0 mm 0.00 in0.0 mm
05:31 AM 52.5°F11.4°C 47.5°F8.6°C 83% Calm Calm -- 30.03 in1016.9 mb 0.00 in0.0 mm 0.00 in0.0 mm 0.00 in0.0 mm
05:32 AM 52.5°F11.4°C 47.5°F8.6°C 83% Calm Calm -- 30.03 in1016.9 mb 0.00 in0.0 mm 0.00 in0.0 mm 0.00 in0.0 mm
05:37 AM 52.5°F11.4°C 47.5°F8.6°C 83% 3.0 mph NNW4.8 kmh NNW -- 30.03 in1016.9 mb 0.00 in0.0 mm 0.00 in0.0 mm 0.00 in0.0 mm
05:38 AM 52.6°F11.4°C 47.5°F8.6°C 83% 1.0 mph WNW1.6 kmh WNW -- 30.03 in1016.9 mb 0.00 in0.0 mm 0.00 in0.0 mm 0.00 in0.0 mm
05:39 AM 52.6°F11.4°C 47.5°F8.6°C 83% 1.0 mph NW1.6 kmh NW -- 30.03 in1016.9 mb 0.00 in0.0 mm 0.00 in0.0 mm 0.00 in0.0 mm
05:40 AM 52.6°F11.4°C 47.5°F8.6°C 83% 2.0 mph 3.2 kmh -- 30.03 in1016.9 mb 0.00 in0.0 mm 0.00 in0.0 mm 0.00 in0.0 mm
05:41 AM 52.6°F11.4°C 47.5°F8.6°C 83% 1.0 mph NNW1.6 kmh NNW -- 30.03 in1016.9 mb 0.00 in0.0 mm 0.00 in0.0 mm 0.00 in0.0 mm
05:42 AM 52.6°F11.4°C 47.5°F8.6°C 83% Calm Calm -- 30.02 in1016.6 mb 0.00 in0.0 mm 0.00 in0.0 mm 0.00 in0.0 mm
05:43 AM 52.6°F11.4°C 47.5°F8.6°C 83% Calm Calm -- 30.02 in1016.6 mb 0.00 in0.0 mm 0.00 in0.0 mm 0.00 in0.0 mm
05:44 AM 52.6°F11.4°C 47.5°F8.6°C 83% 2.0 mph WNW3.2 kmh WNW -- 30.03 in1016.9 mb 0.00 in0.0 mm 0.00 in0.0 mm 0.00 in0.0 mm
05:46 AM 52.6°F11.4°C 47.5°F8.6°C 83% 1.0 mph 1.6 kmh -- 30.03 in1016.9 mb 0.00 in0.0 mm 0.00 in0.0 mm 0.00 in0.0 mm
05:47 AM 52.8°F11.6°C 47.8°F8.8°C 83% Calm Calm -- 30.03 in1016.9 mb 0.00 in0.0 mm 0.00 in0.0 mm 0.00 in0.0 mm
05:48 AM 52.8°F11.6°C 47.8°F8.8°C 83% Calm Calm -- 30.03 in1016.9 mb 0.00 in0.0 mm 0.00 in0.0 mm 0.00 in0.0 mm
05:49 AM 52.8°F11.6°C 47.8°F8.8°C 83% Calm Calm -- 30.03 in1016.9 mb 0.00 in0.0 mm 0.00 in0.0 mm 0.00 in0.0 mm
05:50 AM 53.1°F11.7°C 48.0°F8.9°C 83% Calm Calm -- 30.03 in1016.9 mb 0.00 in0.0 mm 0.00 in0.0 mm 0.00 in0.0 mm
05:51 AM 53.1°F11.7°C 48.0°F8.9°C 83% Calm Calm -- 30.03 in1016.9 mb 0.00 in0.0 mm 0.00 in0.0 mm 0.00 in0.0 mm
05:53 AM 53.2°F11.8°C 48.2°F9.0°C 83% Calm Calm -- 30.03 in1016.9 mb 0.00 in0.0 mm 0.00 in0.0 mm 0.00 in0.0 mm
05:54 AM 53.2°F11.8°C 48.2°F9.0°C 83% Calm Calm -- 30.03 in1016.9 mb 0.00 in0.0 mm 0.00 in0.0 mm 0.00 in0.0 mm
05:55 AM 53.2°F11.8°C 48.2°F9.0°C 83% Calm Calm -- 30.03 in1016.9 mb 0.00 in0.0 mm 0.00 in0.0 mm 0.00 in0.0 mm
05:56 AM 53.4°F11.9°C 48.3°F9.1°C 83% Calm Calm -- 30.03 in1016.9 mb 0.00 in0.0 mm 0.00 in0.0 mm 0.00 in0.0 mm
05:57 AM 53.4°F11.9°C 48.3°F9.1°C 83% Calm Calm -- 30.03 in1016.9 mb 0.00 in0.0 mm 0.00 in0.0 mm 0.00 in0.0 mm
05:58 AM 53.5°F11.9°C 48.3°F9.1°C 83% Calm Calm -- 30.03 in1016.9 mb 0.00 in0.0 mm 0.00 in0.0 mm 0.00 in0.0 mm
05:59 AM 53.5°F11.9°C 48.3°F9.1°C 83% Calm Calm -- 30.04 in1017.3 mb 0.00 in0.0 mm 0.00 in0.0 mm 0.00 in0.0 mm
06:00 AM 53.5°F11.9°C 48.3°F9.1°C 83% Calm Calm -- 30.04 in1017.3 mb 0.00 in0.0 mm 0.00 in0.0 mm 0.00 in0.0 mm
06:01 AM 53.5°F11.9°C 48.3°F9.1°C 83% Calm Calm -- 30.03 in1016.9 mb 0.00 in0.0 mm 0.00 in0.0 mm 0.00 in0.0 mm
06:02 AM 53.8°F12.1°C 48.7°F9.3°C 83% Calm Calm -- 30.03 in1016.9 mb 0.00 in0.0 mm 0.00 in0.0 mm 0.00 in0.0 mm
06:03 AM 54.0°F12.2°C 48.2°F9.0°C 81% Calm Calm -- 30.03 in1016.9 mb 0.00 in0.0 mm 0.00 in0.0 mm 0.00 in0.0 mm
06:04 AM 54.0°F12.2°C 48.2°F9.0°C 81% 3.0 mph NW4.8 kmh NW -- 30.03 in1016.9 mb 0.00 in0.0 mm 0.00 in0.0 mm 0.00 in0.0 mm
06:05 AM 54.0°F12.2°C 48.9°F9.4°C 83% 3.0 mph NW4.8 kmh NW -- 30.03 in1016.9 mb 0.00 in0.0 mm 0.00 in0.0 mm 0.00 in0.0 mm
06:06 AM 54.2°F12.3°C 49.0°F9.4°C 83% 2.0 mph NW3.2 kmh NW -- 30.04 in1017.3 mb 0.00 in0.0 mm 0.00 in0.0 mm 0.00 in0.0 mm
06:07 AM 54.2°F12.3°C 48.4°F9.1°C 81% 2.0 mph NW3.2 kmh NW -- 30.04 in1017.3 mb 0.00 in0.0 mm 0.00 in0.0 mm 0.00 in0.0 mm
06:08 AM 54.4°F12.4°C 48.2°F9.0°C 80% 3.0 mph NW4.8 kmh NW -- 30.04 in1017.3 mb 0.00 in0.0 mm 0.00 in0.0 mm 0.00 in0.0 mm
06:09 AM 54.9°F12.7°C 48.4°F9.1°C 79% 3.0 mph NNW4.8 kmh NNW -- 30.04 in1017.3 mb 0.00 in0.0 mm 0.00 in0.0 mm 0.00 in0.0 mm
06:10 AM 55.5°F13.1°C 48.1°F8.9°C 76% Calm Calm -- 30.04 in1017.3 mb 0.00 in0.0 mm 0.00 in0.0 mm 0.00 in0.0 mm
06:11 AM 55.9°F13.3°C 48.1°F8.9°C 75% Calm Calm -- 30.04 in1017.3 mb 0.00 in0.0 mm 0.00 in0.0 mm 0.00 in0.0 mm
06:12 AM 56.5°F13.6°C 48.6°F9.2°C 75% Calm Calm -- 30.04 in1017.3 mb 0.00 in0.0 mm 0.00 in0.0 mm 0.00 in0.0 mm
06:13 AM 56.7°F13.7°C 48.4°F9.1°C 74% Calm Calm -- 30.04 in1017.3 mb 0.00 in0.0 mm 0.00 in0.0 mm 0.00 in0.0 mm
06:14 AM 56.7°F13.7°C 48.4°F9.1°C 74% 3.0 mph WNW4.8 kmh WNW -- 30.04 in1017.3 mb 0.00 in0.0 mm 0.00 in0.0 mm 0.00 in0.0 mm
06:15 AM 56.7°F13.7°C 48.0°F8.9°C 73% 3.0 mph WNW4.8 kmh WNW -- 30.03 in1016.9 mb 0.00 in0.0 mm 0.00 in0.0 mm 0.00 in0.0 mm
06:16 AM 56.9°F13.8°C 48.2°F9.0°C 73% 3.0 mph NW4.8 kmh NW -- 30.04 in1017.3 mb 0.00 in0.0 mm 0.00 in0.0 mm 0.00 in0.0 mm
06:17 AM 56.9°F13.8°C 48.2°F9.0°C 73% 3.0 mph WNW4.8 kmh WNW -- 30.04 in1017.3 mb 0.00 in0.0 mm 0.00 in0.0 mm 0.00 in0.0 mm
06:18 AM 57.3°F14.1°C 48.0°F8.9°C 71% 2.0 mph NW3.2 kmh NW -- 30.04 in1017.3 mb 0.00 in0.0 mm 0.00 in0.0 mm 0.00 in0.0 mm
06:19 AM 57.3°F14.1°C 47.6°F8.7°C 70% 2.0 mph NW3.2 kmh NW -- 30.04 in1017.3 mb 0.00 in0.0 mm 0.00 in0.0 mm 0.00 in0.0 mm
06:20 AM 57.5°F14.2°C 47.8°F8.8°C 70% 1.0 mph WNW1.6 kmh WNW -- 30.03 in1016.9 mb 0.00 in0.0 mm 0.00 in0.0 mm 0.00 in0.0 mm
06:21 AM 57.5°F14.2°C 47.8°F8.8°C 70% Calm Calm -- 30.03 in1016.9 mb 0.00 in0.0 mm 0.00 in0.0 mm 0.00 in0.0 mm
06:22 AM 57.5°F14.2°C 47.8°F8.8°C 70% Calm Calm -- 30.03 in1016.9 mb 0.00 in0.0 mm 0.00 in0.0 mm 0.00 in0.0 mm
06:23 AM 57.7°F14.3°C 47.9°F8.8°C 70% 2.0 mph NW3.2 kmh NW -- 30.04 in1017.3 mb 0.00 in0.0 mm 0.00 in0.0 mm 0.00 in0.0 mm
06:24 AM 57.7°F14.3°C 47.9°F8.8°C 70% 2.0 mph W3.2 kmh W -- 30.04 in1017.3 mb 0.00 in0.0 mm 0.00 in0.0 mm 0.00 in0.0 mm
06:25 AM 57.8°F14.3°C 47.9°F8.8°C 70% 2.0 mph W3.2 kmh W -- 30.04 in1017.3 mb 0.00 in0.0 mm 0.00 in0.0 mm 0.00 in0.0 mm
06:26 AM 57.8°F14.3°C 47.9°F8.8°C 70% 3.0 mph NW4.8 kmh NW -- 30.04 in1017.3 mb 0.00 in0.0 mm 0.00 in0.0 mm 0.00 in0.0 mm
06:28 AM 57.8°F14.3°C 47.9°F8.8°C 70% 1.0 mph NNW1.6 kmh NNW -- 30.04 in1017.3 mb 0.00 in0.0 mm 0.00 in0.0 mm 0.00 in0.0 mm
06:29 AM 58.0°F14.4°C 48.1°F8.9°C 70% 2.0 mph NW3.2 kmh NW -- 30.04 in1017.3 mb 0.00 in0.0 mm 0.00 in0.0 mm 0.00 in0.0 mm
06:30 AM 58.0°F14.4°C 48.1°F8.9°C 70% 2.0 mph WNW3.2 kmh WNW -- 30.04 in1017.3 mb 0.00 in0.0 mm 0.00 in0.0 mm 0.00 in0.0 mm
06:31 AM 58.2°F14.6°C 48.5°F9.2°C 70% 2.0 mph WNW3.2 kmh WNW -- 30.04 in1017.3 mb 0.00 in0.0 mm 0.00 in0.0 mm 0.00 in0.0 mm
06:32 AM 58.2°F14.6°C 48.5°F9.2°C 70% 3.0 mph W4.8 kmh W -- 30.04 in1017.3 mb 0.00 in0.0 mm 0.00 in0.0 mm 0.00 in0.0 mm
06:33 AM 58.4°F14.7°C 48.2°F9.0°C 69% 3.0 mph NW4.8 kmh NW -- 30.04 in1017.3 mb 0.00 in0.0 mm 0.00 in0.0 mm 0.00 in0.0 mm
06:34 AM 58.4°F14.7°C 48.2°F9.0°C 69% 4.0 mph WNW6.4 kmh WNW -- 30.04 in1017.3 mb 0.00 in0.0 mm 0.00 in0.0 mm 0.00 in0.0 mm
06:35 AM 58.5°F14.7°C 48.2°F9.0°C 69% 2.0 mph NW3.2 kmh NW -- 30.04 in1017.3 mb 0.00 in0.0 mm 0.00 in0.0 mm 0.00 in0.0 mm
06:37 AM 58.5°F14.7°C 47.9°F8.8°C 68% 2.0 mph NW3.2 kmh NW -- 30.04 in1017.3 mb 0.00 in0.0 mm 0.00 in0.0 mm 0.00 in0.0 mm
06:38 AM 58.5°F14.7°C 47.9°F8.8°C 68% 3.0 mph WNW4.8 kmh WNW -- 30.04 in1017.3 mb 0.00 in0.0 mm 0.00 in0.0 mm 0.00 in0.0 mm
06:39 AM 58.8°F14.9°C 48.2°F9.0°C 68% 3.0 mph WNW4.8 kmh WNW -- 30.04 in1017.3 mb 0.00 in0.0 mm 0.00 in0.0 mm 0.00 in0.0 mm
06:40 AM 58.8°F14.9°C 48.2°F9.0°C 68% 2.0 mph WNW3.2 kmh WNW -- 30.04 in1017.3 mb 0.00 in0.0 mm 0.00 in0.0 mm 0.00 in0.0 mm
06:41 AM 58.8°F14.9°C 48.2°F9.0°C 68% 2.0 mph NW3.2 kmh NW -- 30.03 in1016.9 mb 0.00 in0.0 mm 0.00 in0.0 mm 0.00 in0.0 mm
06:42 AM 59.0°F15.0°C 48.4°F9.1°C 68% 2.0 mph NW3.2 kmh NW -- 30.03 in1016.9 mb 0.00 in0.0 mm 0.00 in0.0 mm 0.00 in0.0 mm
06:43 AM 59.0°F15.0°C 48.4°F9.1°C 68% 2.0 mph WNW3.2 kmh WNW -- 30.03 in1016.9 mb 0.00 in0.0 mm 0.00 in0.0 mm 0.00 in0.0 mm
06:44 AM 59.0°F15.0°C 48.4°F9.1°C 68% 2.0 mph WNW3.2 kmh WNW -- 30.04 in1017.3 mb 0.00 in0.0 mm 0.00 in0.0 mm 0.00 in0.0 mm
06:45 AM 59.0°F15.0°C 48.4°F9.1°C 68% 1.0 mph NNW1.6 kmh NNW -- 30.04 in1017.3 mb 0.00 in0.0 mm 0.00 in0.0 mm 0.00 in0.0 mm
06:46 AM 59.0°F15.0°C 48.4°F9.1°C 68% Calm Calm -- 30.03 in1016.9 mb 0.00 in0.0 mm 0.00 in0.0 mm 0.00 in0.0 mm
06:48 AM 59.0°F15.0°C 48.4°F9.1°C 68% Calm Calm -- 30.03 in1016.9 mb 0.00 in0.0 mm 0.00 in0.0 mm 0.00 in0.0 mm
06:50 AM 59.0°F15.0°C 47.6°F8.7°C 66% Calm Calm -- 30.03 in1016.9 mb 0.00 in0.0 mm 0.00 in0.0 mm 0.00 in0.0 mm
06:52 AM 59.0°F15.0°C 47.6°F8.7°C 66% Calm Calm -- 30.03 in1016.9 mb 0.00 in0.0 mm 0.00 in0.0 mm 0.00 in0.0 mm
06:53 AM 59.2°F15.1°C 47.3°F8.5°C 65% Calm Calm -- 30.03 in1016.9 mb 0.00 in0.0 mm 0.00 in0.0 mm 0.00 in0.0 mm
06:54 AM 59.2°F15.1°C 47.7°F8.7°C 66% Calm Calm -- 30.03 in1016.9 mb 0.00 in0.0 mm 0.00 in0.0 mm 0.00 in0.0 mm
06:55 AM 59.3°F15.2°C 47.9°F8.8°C 66% Calm Calm -- 30.03 in1016.9 mb 0.00 in0.0 mm 0.00 in0.0 mm 0.00 in0.0 mm
06:56 AM 59.4°F15.2°C 47.5°F8.6°C 65% Calm Calm -- 30.03 in1016.9 mb 0.00 in0.0 mm 0.00 in0.0 mm 0.00 in0.0 mm
06:57 AM 59.7°F15.4°C 47.8°F8.8°C 65% Calm Calm -- 30.03 in1016.9 mb 0.00 in0.0 mm 0.00 in0.0 mm 0.00 in0.0 mm
06:58 AM 60.0°F15.6°C 48.2°F9.0°C 65% Calm Calm -- 30.04 in1017.3 mb 0.00 in0.0 mm 0.00 in0.0 mm 0.00 in0.0 mm
06:59 AM 60.7°F15.9°C 47.9°F8.8°C 63% Calm Calm -- 30.04 in1017.3 mb 0.00 in0.0 mm 0.00 in0.0 mm 0.00 in0.0 mm
07:00 AM 61.1°F16.2°C 49.2°F9.6°C 65% Calm Calm -- 30.04 in1017.3 mb 0.00 in0.0 mm 0.00 in0.0 mm 0.00 in0.0 mm
07:01 AM 61.7°F16.5°C 49.7°F9.8°C 65% Calm Calm -- 30.03 in1016.9 mb 0.00 in0.0 mm 0.00 in0.0 mm 0.00 in0.0 mm
07:02 AM 62.1°F16.7°C 49.2°F9.6°C 63% Calm Calm -- 30.03 in1016.9 mb 0.00 in0.0 mm 0.00 in0.0 mm 0.00 in0.0 mm
07:03 AM 62.2°F16.8°C 49.4°F9.7°C 63% Calm Calm -- 30.03 in1016.9 mb 0.00 in0.0 mm 0.00 in0.0 mm 0.00 in0.0 mm
07:04 AM 62.7°F17.1°C 49.9°F9.9°C 63% 2.0 mph WNW3.2 kmh WNW -- 30.04 in1017.3 mb 0.00 in0.0 mm 0.00 in0.0 mm 0.00 in0.0 mm
07:05 AM 63.0°F17.2°C 50.1°F10.1°C 63% 2.0 mph W3.2 kmh W -- 30.04 in1017.3 mb 0.00 in0.0 mm 0.00 in0.0 mm 0.00 in0.0 mm
07:06 AM 63.2°F17.3°C 50.3°F10.2°C 63% 2.0 mph W3.2 kmh W -- 30.04 in1017.3 mb 0.00 in0.0 mm 0.00 in0.0 mm 0.00 in0.0 mm
07:07 AM 63.6°F17.6°C 49.0°F9.4°C 59% 2.0 mph 3.2 kmh -- 30.03 in1016.9 mb 0.00 in0.0 mm 0.00 in0.0 mm 0.00 in0.0 mm
07:08 AM 63.9°F17.7°C 48.7°F9.3°C 58% 1.0 mph NW1.6 kmh NW -- 30.04 in1017.3 mb 0.00 in0.0 mm 0.00 in0.0 mm 0.00 in0.0 mm
07:09 AM 64.6°F18.1°C 48.4°F9.1°C 56% Calm Calm -- 30.03 in1016.9 mb 0.00 in0.0 mm 0.00 in0.0 mm 0.00 in0.0 mm
07:10 AM 65.5°F18.6°C 49.3°F9.6°C 56% Calm Calm -- 30.03 in1016.9 mb 0.00 in0.0 mm 0.00 in0.0 mm 0.00 in0.0 mm
07:11 AM 65.9°F18.8°C 49.6°F9.8°C 56% Calm Calm -- 30.03 in1016.9 mb 0.00 in0.0 mm 0.00 in0.0 mm 0.00 in0.0 mm
07:12 AM 65.6°F18.7°C 49.0°F9.4°C 55% 3.0 mph NW4.8 kmh NW -- 30.03 in1016.9 mb 0.00 in0.0 mm 0.00 in0.0 mm 0.00 in0.0 mm
07:13 AM 65.8°F18.8°C 49.1°F9.5°C 55% 2.0 mph NW3.2 kmh NW -- 30.03 in1016.9 mb 0.00 in0.0 mm 0.00 in0.0 mm 0.00 in0.0 mm
07:14 AM 65.8°F18.8°C 49.1°F9.5°C 55% 1.0 mph NW1.6 kmh NW -- 30.04 in1017.3 mb 0.00 in0.0 mm 0.00 in0.0 mm 0.00 in0.0 mm
07:15 AM 66.1°F18.9°C 49.3°F9.6°C 55% 1.0 mph W1.6 kmh W -- 30.03 in1016.9 mb 0.00 in0.0 mm 0.00 in0.0 mm 0.00 in0.0 mm
07:16 AM 65.9°F18.8°C 47.1°F8.4°C 51% 2.0 mph W3.2 kmh W -- 30.03 in1016.9 mb 0.00 in0.0 mm 0.00 in0.0 mm 0.00 in0.0 mm
07:17 AM 65.9°F18.8°C 46.6°F8.1°C 50% 3.0 mph W4.8 kmh W -- 30.03 in1016.9 mb 0.00 in0.0 mm 0.00 in0.0 mm 0.00 in0.0 mm
07:18 AM 66.4°F19.1°C 46.0°F7.8°C 48% 2.0 mph WSW3.2 kmh WSW -- 30.04 in1017.3 mb 0.00 in0.0 mm 0.00 in0.0 mm 0.00 in0.0 mm
07:19 AM 66.5°F19.2°C 46.2°F7.9°C 48% 3.0 mph WSW4.8 kmh WSW -- 30.03 in1016.9 mb 0.00 in0.0 mm 0.00 in0.0 mm 0.00 in0.0 mm
07:20 AM 66.5°F19.2°C 45.0°F7.2°C 46% 3.0 mph WSW4.8 kmh WSW -- 30.03 in1016.9 mb 0.00 in0.0 mm 0.00 in0.0 mm 0.00 in0.0 mm
07:21 AM 66.6°F19.2°C 46.2°F7.9°C 48% 2.0 mph WNW3.2 kmh WNW -- 30.03 in1016.9 mb 0.00 in0.0 mm 0.00 in0.0 mm 0.00 in0.0 mm
07:22 AM 66.9°F19.4°C 46.5°F8.1°C 48% 4.0 mph W6.4 kmh W -- 30.03 in1016.9 mb 0.00 in0.0 mm 0.00 in0.0 mm 0.00 in0.0 mm
07:23 AM 67.3°F19.6°C 45.1°F7.3°C 45% 3.0 mph W4.8 kmh W -- 30.03 in1016.9 mb 0.00 in0.0 mm 0.00 in0.0 mm 0.00 in0.0 mm
07:24 AM 67.3°F19.6°C 45.1°F7.3°C 45% 1.0 mph W1.6 kmh W -- 30.03 in1016.9 mb 0.00 in0.0 mm 0.00 in0.0 mm 0.00 in0.0 mm
07:25 AM 67.5°F19.7°C 47.0°F8.3°C 48% Calm Calm -- 30.03 in1016.9 mb 0.00 in0.0 mm 0.00 in0.0 mm 0.00 in0.0 mm
07:26 AM 68.1°F20.1°C 46.5°F8.1°C 46% Calm Calm -- 30.03 in1016.9 mb 0.00 in0.0 mm 0.00 in0.0 mm 0.00 in0.0 mm
07:27 AM 68.4°F20.2°C 46.7°F8.2°C 46% Calm Calm -- 30.03 in1016.9 mb 0.00 in0.0 mm 0.00 in0.0 mm 0.00 in0.0 mm
07:28 AM 68.9°F20.5°C 46.6°F8.1°C 45% Calm Calm -- 30.03 in1016.9 mb 0.00 in0.0 mm 0.00 in0.0 mm 0.00 in0.0 mm
07:29 AM 70.0°F21.1°C 47.0°F8.3°C 44% Calm Calm -- 30.03 in1016.9 mb 0.00 in0.0 mm 0.00 in0.0 mm 0.00 in0.0 mm
07:30 AM 70.0°F21.1°C 47.0°F8.3°C 44% 3.0 mph W4.8 kmh W -- 30.03 in1016.9 mb 0.00 in0.0 mm 0.00 in0.0 mm 0.00 in0.0 mm
07:31 AM 70.0°F21.1°C 45.1°F7.3°C 41% 3.0 mph W4.8 kmh W -- 30.03 in1016.9 mb 0.00 in0.0 mm 0.00 in0.0 mm 0.00 in0.0 mm
07:32 AM 69.8°F21.0°C 44.3°F6.8°C 40% 3.0 mph SW4.8 kmh SW -- 30.03 in1016.9 mb 0.00 in0.0 mm 0.00 in0.0 mm 0.00 in0.0 mm
07:33 AM 69.8°F21.0°C 45.0°F7.2°C 41% 3.0 mph WNW4.8 kmh WNW -- 30.03 in1016.9 mb 0.00 in0.0 mm 0.00 in0.0 mm 0.00 in0.0 mm
07:35 AM 69.3°F20.7°C 43.8°F6.6°C 40% 3.0 mph W4.8 kmh W -- 30.03 in1016.9 mb 0.00 in0.0 mm 0.00 in0.0 mm 0.00 in0.0 mm
07:36 AM 69.4°F20.8°C 43.3°F6.3°C 39% 2.0 mph SW3.2 kmh SW -- 30.03 in1016.9 mb 0.00 in0.0 mm 0.00 in0.0 mm 0.00 in0.0 mm
07:37 AM 69.4°F20.8°C 41.9°F5.5°C 37% 3.0 mph W4.8 kmh W -- 30.03 in1016.9 mb 0.00 in0.0 mm 0.00 in0.0 mm 0.00 in0.0 mm
07:38 AM 69.8°F21.0°C 42.3°F5.7°C 37% 5.0 mph WSW8.0 kmh WSW -- 30.03 in1016.9 mb 0.00 in0.0 mm 0.00 in0.0 mm 0.00 in0.0 mm
07:39 AM 70.0°F21.1°C 43.8°F6.6°C 39% 1.0 mph SSE1.6 kmh SSE -- 30.03 in1016.9 mb 0.00 in0.0 mm 0.00 in0.0 mm 0.00 in0.0 mm
07:40 AM 69.8°F21.0°C 44.3°F6.8°C 40% 2.0 mph W3.2 kmh W -- 30.03 in1016.9 mb 0.00 in0.0 mm 0.00 in0.0 mm 0.00 in0.0 mm
07:41 AM 70.0°F21.1°C 44.5°F6.9°C 40% 2.0 mph W3.2 kmh W -- 30.03 in1016.9 mb 0.00 in0.0 mm 0.00 in0.0 mm 0.00 in0.0 mm
07:42 AM 69.8°F21.0°C 45.0°F7.2°C 41% 2.0 mph WNW3.2 kmh WNW -- 30.04 in1017.3 mb 0.00 in0.0 mm 0.00 in0.0 mm 0.00 in0.0 mm
07:43 AM 70.5°F21.4°C 45.0°F7.2°C 40% 4.0 mph W6.4 kmh W -- 30.03 in1016.9 mb 0.00 in0.0 mm 0.00 in0.0 mm 0.00 in0.0 mm
07:44 AM 71.0°F21.7°C 43.4°F6.3°C 37% 4.0 mph W6.4 kmh W -- 30.03 in1016.9 mb 0.00 in0.0 mm 0.00 in0.0 mm 0.00 in0.0 mm
07:45 AM 70.9°F21.6°C 44.6°F7.0°C 39% 2.0 mph SSW3.2 kmh SSW -- 30.03 in1016.9 mb 0.00 in0.0 mm 0.00 in0.0 mm 0.00 in0.0 mm
07:46 AM 70.6°F21.4°C 42.9°F6.1°C 37% 3.0 mph WSW4.8 kmh WSW -- 30.03 in1016.9 mb 0.00 in0.0 mm 0.00 in0.0 mm 0.00 in0.0 mm
07:47 AM 70.5°F21.4°C 42.9°F6.1°C 37% 2.0 mph WSW3.2 kmh WSW -- 30.03 in1016.9 mb 0.00 in0.0 mm 0.00 in0.0 mm 0.00 in0.0 mm
07:48 AM 70.6°F21.4°C 42.9°F6.1°C 37% 2.0 mph SSW3.2 kmh SSW -- 30.03 in1016.9 mb 0.00 in0.0 mm 0.00 in0.0 mm 0.00 in0.0 mm
07:49 AM 71.0°F21.7°C 44.8°F7.1°C 39% 2.0 mph W3.2 kmh W -- 30.03 in1016.9 mb 0.00 in0.0 mm 0.00 in0.0 mm 0.00 in0.0 mm
07:50 AM 71.1°F21.7°C 43.4°F6.3°C 37% 2.0 mph WSW3.2 kmh WSW -- 30.03 in1016.9 mb 0.00 in0.0 mm 0.00 in0.0 mm 0.00 in0.0 mm
07:51 AM 71.4°F21.9°C 42.3°F5.7°C 35% 2.0 mph W3.2 kmh W -- 30.03 in1016.9 mb 0.00 in0.0 mm 0.00 in0.0 mm 0.00 in0.0 mm
07:52 AM 71.5°F21.9°C 42.3°F5.7°C 35% 3.0 mph W4.8 kmh W -- 30.03 in1016.9 mb 0.00 in0.0 mm 0.00 in0.0 mm 0.00 in0.0 mm
07:53 AM 71.4°F21.9°C 43.7°F6.5°C 37% 2.0 mph S3.2 kmh S -- 30.03 in1016.9 mb 0.00 in0.0 mm 0.00 in0.0 mm 0.00 in0.0 mm
07:54 AM 71.0°F21.7°C 43.4°F6.3°C 37% 2.0 mph SW3.2 kmh SW -- 30.03 in1016.9 mb 0.00 in0.0 mm 0.00 in0.0 mm 0.00 in0.0 mm
07:55 AM 70.9°F21.6°C 43.2°F6.2°C 37% 2.0 mph SW3.2 kmh SW -- 30.03 in1016.9 mb 0.00 in0.0 mm 0.00 in0.0 mm 0.00 in0.0 mm
07:56 AM 71.1°F21.7°C 43.4°F6.3°C 37% 3.0 mph W4.8 kmh W -- 30.03 in1016.9 mb 0.00 in0.0 mm 0.00 in0.0 mm 0.00 in0.0 mm
07:57 AM 71.1°F21.7°C 43.4°F6.3°C 37% 2.0 mph WSW3.2 kmh WSW -- 30.03 in1016.9 mb 0.00 in0.0 mm 0.00 in0.0 mm 0.00 in0.0 mm
07:58 AM 71.1°F21.7°C 43.4°F6.3°C 37% 3.0 mph W4.8 kmh W -- 30.03 in1016.9 mb 0.00 in0.0 mm 0.00 in0.0 mm 0.00 in0.0 mm
07:59 AM 71.4°F21.9°C 43.7°F6.5°C 37% 3.0 mph W4.8 kmh W -- 30.03 in1016.9 mb 0.00 in0.0 mm 0.00 in0.0 mm 0.00 in0.0 mm
08:00 AM 71.5°F21.9°C 42.3°F5.7°C 35% 4.0 mph SW6.4 kmh SW -- 30.03 in1016.9 mb 0.00 in0.0 mm 0.00 in0.0 mm 0.00 in0.0 mm
08:01 AM 71.5°F21.9°C 42.3°F5.7°C 35% 3.0 mph W4.8 kmh W -- 30.03 in1016.9 mb 0.00 in0.0 mm 0.00 in0.0 mm 0.00 in0.0 mm
08:02 AM 71.9°F22.2°C 44.2°F6.8°C 37% 3.0 mph W4.8 kmh W -- 30.03 in1016.9 mb 0.00 in0.0 mm 0.00 in0.0 mm 0.00 in0.0 mm
08:03 AM 71.9°F22.2°C 44.2°F6.8°C 37% 3.0 mph S4.8 kmh S -- 30.03 in1016.9 mb 0.00 in0.0 mm 0.00 in0.0 mm 0.00 in0.0 mm
08:05 AM 71.9°F22.2°C 44.2°F6.8°C 37% 2.0 mph SW3.2 kmh SW -- 30.03 in1016.9 mb 0.00 in0.0 mm 0.00 in0.0 mm 0.00 in0.0 mm
08:06 AM 72.1°F22.3°C 42.9°F6.1°C 35% 2.0 mph W3.2 kmh W -- 30.03 in1016.9 mb 0.00 in0.0 mm 0.00 in0.0 mm 0.00 in0.0 mm
08:07 AM 71.9°F22.2°C 42.7°F5.9°C 35% Calm Calm -- 30.03 in1016.9 mb 0.00 in0.0 mm 0.00 in0.0 mm 0.00 in0.0 mm
08:08 AM 72.5°F22.5°C 43.2°F6.2°C 35% 3.0 mph SSW4.8 kmh SSW -- 30.03 in1016.9 mb 0.00 in0.0 mm 0.00 in0.0 mm 0.00 in0.0 mm
08:09 AM 72.5°F22.5°C 43.2°F6.2°C 35% 4.0 mph W6.4 kmh W -- 30.03 in1016.9 mb 0.00 in0.0 mm 0.00 in0.0 mm 0.00 in0.0 mm
08:10 AM 72.8°F22.7°C 43.5°F6.4°C 35% 3.0 mph SSW4.8 kmh SSW -- 30.03 in1016.9 mb 0.00 in0.0 mm 0.00 in0.0 mm 0.00 in0.0 mm
08:11 AM 72.5°F22.5°C 43.2°F6.2°C 35% 2.0 mph SSE3.2 kmh SSE -- 30.03 in1016.9 mb 0.00 in0.0 mm 0.00 in0.0 mm 0.00 in0.0 mm
08:12 AM 72.3°F22.4°C 43.1°F6.2°C 35% 2.0 mph S3.2 kmh S -- 30.03 in1016.9 mb 0.00 in0.0 mm 0.00 in0.0 mm 0.00 in0.0 mm
08:13 AM 71.9°F22.2°C 42.7°F5.9°C 35% 2.0 mph WSW3.2 kmh WSW -- 30.03 in1016.9 mb 0.00 in0.0 mm 0.00 in0.0 mm 0.00 in0.0 mm
08:14 AM 71.9°F22.2°C 42.7°F5.9°C 35% 2.0 mph SW3.2 kmh SW -- 30.03 in1016.9 mb 0.00 in0.0 mm 0.00 in0.0 mm 0.00 in0.0 mm
08:15 AM 73.0°F22.8°C 43.7°F6.5°C 35% 5.0 mph W8.0 kmh W -- 30.02 in1016.6 mb 0.00 in0.0 mm 0.00 in0.0 mm 0.00 in0.0 mm
08:16 AM 72.5°F22.5°C 43.2°F6.2°C 35% 3.0 mph SE4.8 kmh SE -- 30.02 in1016.6 mb 0.00 in0.0 mm 0.00 in0.0 mm 0.00 in0.0 mm
08:17 AM 72.6°F22.6°C 43.4°F6.3°C 35% 4.0 mph S6.4 kmh S -- 30.02 in1016.6 mb 0.00 in0.0 mm 0.00 in0.0 mm 0.00 in0.0 mm
08:18 AM 72.8°F22.7°C 43.5°F6.4°C 35% 5.0 mph S8.0 kmh S -- 30.03 in1016.9 mb 0.00 in0.0 mm 0.00 in0.0 mm 0.00 in0.0 mm
08:19 AM 72.6°F22.6°C 43.4°F6.3°C 35% 5.0 mph W8.0 kmh W -- 30.03 in1016.9 mb 0.00 in0.0 mm 0.00 in0.0 mm 0.00 in0.0 mm
08:20 AM 72.6°F22.6°C 43.4°F6.3°C 35% 2.0 mph SSW3.2 kmh SSW -- 30.03 in1016.9 mb 0.00 in0.0 mm 0.00 in0.0 mm 0.00 in0.0 mm
08:21 AM 73.0°F22.8°C 42.9°F6.1°C 34% 4.0 mph SSW6.4 kmh SSW -- 30.03 in1016.9 mb 0.00 in0.0 mm 0.00 in0.0 mm 0.00 in0.0 mm
08:22 AM 73.1°F22.8°C 42.9°F6.1°C 34% 3.0 mph NNW4.8 kmh NNW -- 30.03 in1016.9 mb 0.00 in0.0 mm 0.00 in0.0 mm 0.00 in0.0 mm
08:23 AM 73.1°F22.8°C 42.9°F6.1°C 34% 3.0 mph SSW4.8 kmh SSW -- 30.03 in1016.9 mb 0.00 in0.0 mm 0.00 in0.0 mm 0.00 in0.0 mm
08:24 AM 73.0°F22.8°C 43.7°F6.5°C 35% 2.0 mph SE3.2 kmh SE -- 30.03 in1016.9 mb 0.00 in0.0 mm 0.00 in0.0 mm 0.00 in0.0 mm
08:25 AM 72.8°F22.7°C 43.5°F6.4°C 35% 3.0 mph SSW4.8 kmh SSW -- 30.03 in1016.9 mb 0.00 in0.0 mm 0.00 in0.0 mm 0.00 in0.0 mm
08:26 AM 72.8°F22.7°C 43.5°F6.4°C 35% 4.0 mph S6.4 kmh S -- 30.03 in1016.9 mb 0.00 in0.0 mm 0.00 in0.0 mm 0.00 in0.0 mm
08:27 AM 72.8°F22.7°C 42.8°F6.0°C 34% 4.0 mph SSW6.4 kmh SSW -- 30.03 in1016.9 mb 0.00 in0.0 mm 0.00 in0.0 mm 0.00 in0.0 mm
08:28 AM 72.6°F22.6°C 42.6°F5.9°C 34% 2.0 mph S3.2 kmh S -- 30.03 in1016.9 mb 0.00 in0.0 mm 0.00 in0.0 mm 0.00 in0.0 mm
08:29 AM 72.8°F22.7°C 43.5°F6.4°C 35% 3.0 mph S4.8 kmh S -- 30.03 in1016.9 mb 0.00 in0.0 mm 0.00 in0.0 mm 0.00 in0.0 mm
08:31 AM 72.8°F22.7°C 43.5°F6.4°C 35% 3.0 mph SSE4.8 kmh SSE -- 30.03 in1016.9 mb 0.00 in0.0 mm 0.00 in0.0 mm 0.00 in0.0 mm
08:32 AM 73.0°F22.8°C 43.7°F6.5°C 35% 4.0 mph S6.4 kmh S -- 30.02 in1016.6 mb 0.00 in0.0 mm 0.00 in0.0 mm 0.00 in0.0 mm
08:33 AM 73.1°F22.8°C 42.9°F6.1°C 34% 2.0 mph W3.2 kmh W -- 30.02 in1016.6 mb 0.00 in0.0 mm 0.00 in0.0 mm 0.00 in0.0 mm
08:34 AM 73.1°F22.8°C 43.7°F6.5°C 35% 2.0 mph SSE3.2 kmh SSE -- 30.03 in1016.9 mb 0.00 in0.0 mm 0.00 in0.0 mm 0.00 in0.0 mm
08:35 AM 73.1°F22.8°C 41.4°F5.2°C 32% 2.0 mph W3.2 kmh W -- 30.02 in1016.6 mb 0.00 in0.0 mm 0.00 in0.0 mm 0.00 in0.0 mm
08:36 AM 72.8°F22.7°C 42.8°F6.0°C 34% 2.0 mph WSW3.2 kmh WSW -- 30.03 in1016.9 mb 0.00 in0.0 mm 0.00 in0.0 mm 0.00 in0.0 mm
08:37 AM 72.8°F22.7°C 42.8°F6.0°C 34% 2.0 mph SSW3.2 kmh SSW -- 30.03 in1016.9 mb 0.00 in0.0 mm 0.00 in0.0 mm 0.00 in0.0 mm
08:38 AM 73.1°F22.8°C 43.7°F6.5°C 35% 3.0 mph SW4.8 kmh SW -- 30.03 in1016.9 mb 0.00 in0.0 mm 0.00 in0.0 mm 0.00 in0.0 mm
08:39 AM 73.4°F23.0°C 44.0°F6.7°C 35% 2.0 mph WSW3.2 kmh WSW -- 30.03 in1016.9 mb 0.00 in0.0 mm 0.00 in0.0 mm 0.00 in0.0 mm
08:40 AM 73.5°F23.1°C 44.2°F6.8°C 35% 3.0 mph SSW4.8 kmh SSW -- 30.03 in1016.9 mb 0.00 in0.0 mm 0.00 in0.0 mm 0.00 in0.0 mm
08:41 AM 73.8°F23.2°C 44.3°F6.8°C 35% 5.0 mph WSW8.0 kmh WSW -- 30.03 in1016.9 mb 0.00 in0.0 mm 0.00 in0.0 mm 0.00 in0.0 mm
08:42 AM 73.5°F23.1°C 44.2°F6.8°C 35% 3.0 mph W4.8 kmh W -- 30.03 in1016.9 mb 0.00 in0.0 mm 0.00 in0.0 mm 0.00 in0.0 mm
08:43 AM 73.4°F23.0°C 43.3°F6.3°C 34% 5.0 mph 8.0 kmh -- 30.02 in1016.6 mb 0.00 in0.0 mm 0.00 in0.0 mm 0.00 in0.0 mm
08:44 AM 73.5°F23.1°C 41.8°F5.4°C 32% 5.0 mph SSW8.0 kmh SSW -- 30.02 in1016.6 mb 0.00 in0.0 mm 0.00 in0.0 mm 0.00 in0.0 mm
08:45 AM 73.5°F23.1°C 41.8°F5.4°C 32% 6.0 mph SSW9.7 kmh SSW -- 30.02 in1016.6 mb 0.00 in0.0 mm 0.00 in0.0 mm 0.00 in0.0 mm
08:46 AM 73.5°F23.1°C 41.8°F5.4°C 32% 4.0 mph S6.4 kmh S -- 30.02 in1016.6 mb 0.00 in0.0 mm 0.00 in0.0 mm 0.00 in0.0 mm
08:47 AM 73.5°F23.1°C 44.2°F6.8°C 35% 4.0 mph S6.4 kmh S -- 30.02 in1016.6 mb 0.00 in0.0 mm 0.00 in0.0 mm 0.00 in0.0 mm
08:48 AM 73.5°F23.1°C 43.4°F6.3°C 34% 3.0 mph SSE4.8 kmh SSE -- 30.02 in1016.6 mb 0.00 in0.0 mm 0.00 in0.0 mm 0.00 in0.0 mm
08:49 AM 73.5°F23.1°C 43.4°F6.3°C 34% 4.0 mph W6.4 kmh W -- 30.02 in1016.6 mb 0.00 in0.0 mm 0.00 in0.0 mm 0.00 in0.0 mm
08:50 AM 73.4°F23.0°C 43.3°F6.3°C 34% 3.0 mph S4.8 kmh S -- 30.02 in1016.6 mb 0.00 in0.0 mm 0.00 in0.0 mm 0.00 in0.0 mm
08:51 AM 73.5°F23.1°C 44.2°F6.8°C 35% 3.0 mph W4.8 kmh W -- 30.02 in1016.6 mb 0.00 in0.0 mm 0.00 in0.0 mm 0.00 in0.0 mm
08:52 AM 74.6°F23.7°C 44.4°F6.9°C 34% 4.0 mph WSW6.4 kmh WSW -- 30.02 in1016.6 mb 0.00 in0.0 mm 0.00 in0.0 mm 0.00 in0.0 mm
08:53 AM 75.5°F24.2°C 43.6°F6.4°C 32% 6.0 mph W9.7 kmh W -- 30.02 in1016.6 mb 0.00 in0.0 mm 0.00 in0.0 mm 0.00 in0.0 mm
08:54 AM 75.3°F24.1°C 45.0°F7.2°C 34% 4.0 mph W6.4 kmh W -- 30.02 in1016.6 mb 0.00 in0.0 mm 0.00 in0.0 mm 0.00 in0.0 mm
08:55 AM 74.8°F23.8°C 44.5°F6.9°C 34% 6.0 mph WSW9.7 kmh WSW -- 30.02 in1016.6 mb 0.00 in0.0 mm 0.00 in0.0 mm 0.00 in0.0 mm
08:56 AM 75.0°F23.9°C 44.7°F7.1°C 34% 6.0 mph W9.7 kmh W -- 30.02 in1016.6 mb 0.00 in0.0 mm 0.00 in0.0 mm 0.00 in0.0 mm
08:57 AM 75.6°F24.2°C 43.6°F6.4°C 32% 4.0 mph SW6.4 kmh SW -- 30.02 in1016.6 mb 0.00 in0.0 mm 0.00 in0.0 mm 0.00 in0.0 mm
08:58 AM 75.5°F24.2°C 43.6°F6.4°C 32% 4.0 mph NNE6.4 kmh NNE -- 30.02 in1016.6 mb 0.00 in0.0 mm 0.00 in0.0 mm 0.00 in0.0 mm
08:59 AM 75.0°F23.9°C 45.5°F7.5°C 35% 4.0 mph SSW6.4 kmh SSW -- 30.02 in1016.6 mb 0.00 in0.0 mm 0.00 in0.0 mm 0.00 in0.0 mm
09:00 AM 74.4°F23.6°C 45.0°F7.2°C 35% 4.0 mph W6.4 kmh W -- 30.02 in1016.6 mb 0.00 in0.0 mm 0.00 in0.0 mm 0.00 in0.0 mm
09:01 AM 74.6°F23.7°C 44.4°F6.9°C 34% 5.0 mph WSW8.0 kmh WSW -- 30.02 in1016.6 mb 0.00 in0.0 mm 0.00 in0.0 mm 0.00 in0.0 mm
09:02 AM 74.3°F23.5°C 42.5°F5.8°C 32% Calm Calm -- 30.02 in1016.6 mb 0.00 in0.0 mm 0.00 in0.0 mm 0.00 in0.0 mm
09:03 AM 74.3°F23.5°C 44.1°F6.7°C 34% 2.0 mph S3.2 kmh S -- 30.02 in1016.6 mb 0.00 in0.0 mm 0.00 in0.0 mm 0.00 in0.0 mm
09:04 AM 73.5°F23.1°C 45.6°F7.6°C 37% 2.0 mph SE3.2 kmh SE -- 30.02 in1016.6 mb 0.00 in0.0 mm 0.00 in0.0 mm 0.00 in0.0 mm
09:05 AM 73.8°F23.2°C 45.8°F7.7°C 37% 3.0 mph ESE4.8 kmh ESE -- 30.02 in1016.6 mb 0.00 in0.0 mm 0.00 in0.0 mm 0.00 in0.0 mm
09:06 AM 73.9°F23.3°C 46.0°F7.8°C 37% 3.0 mph SSE4.8 kmh SSE -- 30.02 in1016.6 mb 0.00 in0.0 mm 0.00 in0.0 mm 0.00 in0.0 mm
09:07 AM 74.0°F23.3°C 46.0°F7.8°C 37% 3.0 mph SSW4.8 kmh SSW -- 30.03 in1016.9 mb 0.00 in0.0 mm 0.00 in0.0 mm 0.00 in0.0 mm
09:08 AM 74.0°F23.3°C 46.0°F7.8°C 37% 3.0 mph S4.8 kmh S -- 30.03 in1016.9 mb 0.00 in0.0 mm 0.00 in0.0 mm 0.00 in0.0 mm
09:09 AM 74.4°F23.6°C 46.5°F8.1°C 37% 5.0 mph S8.0 kmh S -- 30.02 in1016.6 mb 0.00 in0.0 mm 0.00 in0.0 mm 0.00 in0.0 mm
09:10 AM 74.6°F23.7°C 45.1°F7.3°C 35% 5.0 mph SSE8.0 kmh SSE -- 30.02 in1016.6 mb 0.00 in0.0 mm 0.00 in0.0 mm 0.00 in0.0 mm
09:11 AM 74.6°F23.7°C 44.4°F6.9°C 34% 6.0 mph S9.7 kmh S -- 30.02 in1016.6 mb 0.00 in0.0 mm 0.00 in0.0 mm 0.00 in0.0 mm
09:12 AM 74.6°F23.7°C 44.4°F6.9°C 34% 5.0 mph S8.0 kmh S -- 30.02 in1016.6 mb 0.00 in0.0 mm 0.00 in0.0 mm 0.00 in0.0 mm
09:13 AM 74.4°F23.6°C 44.2°F6.8°C 34% 8.0 mph S12.9 kmh S -- 30.02 in1016.6 mb 0.00 in0.0 mm 0.00 in0.0 mm 0.00 in0.0 mm
09:14 AM 74.3°F23.5°C 44.1°F6.7°C 34% 8.0 mph S12.9 kmh S -- 30.02 in1016.6 mb 0.00 in0.0 mm 0.00 in0.0 mm 0.00 in0.0 mm
09:15 AM 74.3°F23.5°C 44.1°F6.7°C 34% 4.0 mph SE6.4 kmh SE -- 30.02 in1016.6 mb 0.00 in0.0 mm 0.00 in0.0 mm 0.00 in0.0 mm
09:16 AM 74.0°F23.3°C 43.7°F6.5°C 34% 6.0 mph S9.7 kmh S -- 30.02 in1016.6 mb 0.00 in0.0 mm 0.00 in0.0 mm 0.00 in0.0 mm
09:17 AM 73.9°F23.3°C 43.7°F6.5°C 34% 7.0 mph S11.3 kmh S -- 30.02 in1016.6 mb 0.00 in0.0 mm 0.00 in0.0 mm 0.00 in0.0 mm
09:18 AM 73.5°F23.1°C 44.2°F6.8°C 35% 5.0 mph SSE8.0 kmh SSE -- 30.03 in1016.9 mb 0.00 in0.0 mm 0.00 in0.0 mm 0.00 in0.0 mm
09:19 AM 73.5°F23.1°C 43.4°F6.3°C 34% 4.0 mph SSE6.4 kmh SSE -- 30.02 in1016.6 mb 0.00 in0.0 mm 0.00 in0.0 mm 0.00 in0.0 mm
09:20 AM 73.8°F23.2°C 44.3°F6.8°C 35% 5.0 mph S8.0 kmh S -- 30.02 in1016.6 mb 0.00 in0.0 mm 0.00 in0.0 mm 0.00 in0.0 mm
09:21 AM 73.9°F23.3°C 42.2°F5.7°C 32% 6.0 mph SSW9.7 kmh SSW -- 30.02 in1016.6 mb 0.00 in0.0 mm 0.00 in0.0 mm 0.00 in0.0 mm
09:22 AM 74.0°F23.3°C 43.7°F6.5°C 34% 4.0 mph SSW6.4 kmh SSW -- 30.02 in1016.6 mb 0.00 in0.0 mm 0.00 in0.0 mm 0.00 in0.0 mm
09:23 AM 73.8°F23.2°C 42.0°F5.6°C 32% 2.0 mph SSE3.2 kmh SSE -- 30.02 in1016.6 mb 0.00 in0.0 mm 0.00 in0.0 mm 0.00 in0.0 mm
09:24 AM 74.0°F23.3°C 43.7°F6.5°C 34% 6.0 mph SSE9.7 kmh SSE -- 30.02 in1016.6 mb 0.00 in0.0 mm 0.00 in0.0 mm 0.00 in0.0 mm
09:25 AM 74.4°F23.6°C 45.0°F7.2°C 35% 4.0 mph SSW6.4 kmh SSW -- 30.02 in1016.6 mb 0.00 in0.0 mm 0.00 in0.0 mm 0.00 in0.0 mm
09:26 AM 74.8°F23.8°C 45.3°F7.4°C 35% 6.0 mph SSE9.7 kmh SSE -- 30.02 in1016.6 mb 0.00 in0.0 mm 0.00 in0.0 mm 0.00 in0.0 mm
09:27 AM 75.0°F23.9°C 44.7°F7.1°C 34% 4.0 mph SW6.4 kmh SW -- 30.02 in1016.6 mb 0.00 in0.0 mm 0.00 in0.0 mm 0.00 in0.0 mm
09:28 AM 75.0°F23.9°C 43.1°F6.2°C 32% 3.0 mph S4.8 kmh S -- 30.02 in1016.6 mb 0.00 in0.0 mm 0.00 in0.0 mm 0.00 in0.0 mm
09:29 AM 75.3°F24.1°C 42.6°F5.9°C 31% 4.0 mph WSW6.4 kmh WSW -- 30.02 in1016.6 mb 0.00 in0.0 mm 0.00 in0.0 mm 0.00 in0.0 mm
09:30 AM 75.1°F23.9°C 42.3°F5.7°C 31% 3.0 mph SSE4.8 kmh SSE -- 30.02 in1016.6 mb 0.00 in0.0 mm 0.00 in0.0 mm 0.00 in0.0 mm
09:31 AM 75.0°F23.9°C 42.3°F5.7°C 31% 5.0 mph S8.0 kmh S -- 30.02 in1016.6 mb 0.00 in0.0 mm 0.00 in0.0 mm 0.00 in0.0 mm
09:32 AM 74.6°F23.7°C 41.1°F5.1°C 30% 6.0 mph SSW9.7 kmh SSW -- 30.03 in1016.9 mb 0.00 in0.0 mm 0.00 in0.0 mm 0.00 in0.0 mm
09:33 AM 74.6°F23.7°C 42.0°F5.6°C 31% 7.0 mph SSE11.3 kmh SSE -- 30.02 in1016.6 mb 0.00 in0.0 mm 0.00 in0.0 mm 0.00 in0.0 mm
09:34 AM 74.4°F23.6°C 41.8°F5.4°C 31% 5.0 mph S8.0 kmh S -- 30.02 in1016.6 mb 0.00 in0.0 mm 0.00 in0.0 mm 0.00 in0.0 mm
09:35 AM 74.4°F23.6°C 44.2°F6.8°C 34% 6.0 mph SW9.7 kmh SW -- 30.02 in1016.6 mb 0.00 in0.0 mm 0.00 in0.0 mm 0.00 in0.0 mm
09:36 AM 74.6°F23.7°C 44.4°F6.9°C 34% 4.0 mph SSE6.4 kmh SSE -- 30.02 in1016.6 mb 0.00 in0.0 mm 0.00 in0.0 mm 0.00 in0.0 mm
09:37 AM 75.0°F23.9°C 45.5°F7.5°C 35% 8.0 mph SE12.9 kmh SE -- 30.02 in1016.6 mb 0.00 in0.0 mm 0.00 in0.0 mm 0.00 in0.0 mm
09:38 AM 74.6°F23.7°C 45.1°F7.3°C 35% 7.0 mph SSE11.3 kmh SSE -- 30.02 in1016.6 mb 0.00 in0.0 mm 0.00 in0.0 mm 0.00 in0.0 mm
09:39 AM 74.0°F23.3°C 44.5°F6.9°C 35% 6.0 mph S9.7 kmh S -- 30.02 in1016.6 mb 0.00 in0.0 mm 0.00 in0.0 mm 0.00 in0.0 mm
09:40 AM 74.6°F23.7°C 45.1°F7.3°C 35% 3.0 mph S4.8 kmh S -- 30.02 in1016.6 mb 0.00 in0.0 mm 0.00 in0.0 mm 0.00 in0.0 mm
09:41 AM 74.8°F23.8°C 45.3°F7.4°C 35% 4.0 mph W6.4 kmh W -- 30.02 in1016.6 mb 0.00 in0.0 mm 0.00 in0.0 mm 0.00 in0.0 mm
09:42 AM 74.8°F23.8°C 44.5°F6.9°C 34% 2.0 mph W3.2 kmh W -- 30.02 in1016.6 mb 0.00 in0.0 mm 0.00 in0.0 mm 0.00 in0.0 mm
09:43 AM 75.3°F24.1°C 45.8°F7.7°C 35% 2.0 mph S3.2 kmh S -- 30.02 in1016.6 mb 0.00 in0.0 mm 0.00 in0.0 mm 0.00 in0.0 mm
09:44 AM 75.5°F24.2°C 45.9°F7.7°C 35% 3.0 mph SSW4.8 kmh SSW -- 30.02 in1016.6 mb 0.00 in0.0 mm 0.00 in0.0 mm 0.00 in0.0 mm
09:45 AM 75.6°F24.2°C 45.9°F7.7°C 35% 6.0 mph SSE9.7 kmh SSE -- 30.02 in1016.6 mb 0.00 in0.0 mm 0.00 in0.0 mm 0.00 in0.0 mm
09:46 AM 75.3°F24.1°C 42.6°F5.9°C 31% 7.0 mph SE11.3 kmh SE -- 30.02 in1016.6 mb 0.00 in0.0 mm 0.00 in0.0 mm 0.00 in0.0 mm
09:47 AM 75.3°F24.1°C 42.6°F5.9°C 31% 6.0 mph SSE9.7 kmh SSE -- 30.02 in1016.6 mb 0.00 in0.0 mm 0.00 in0.0 mm 0.00 in0.0 mm
09:48 AM 75.1°F23.9°C 41.4°F5.2°C 30% 4.0 mph NW6.4 kmh NW -- 30.02 in1016.6 mb 0.00 in0.0 mm 0.00 in0.0 mm 0.00 in0.0 mm
09:49 AM 75.1°F23.9°C 41.4°F5.2°C 30% 3.0 mph S4.8 kmh S -- 30.02 in1016.6 mb 0.00 in0.0 mm 0.00 in0.0 mm 0.00 in0.0 mm
09:50 AM 75.1°F23.9°C 42.3°F5.7°C 31% 3.0 mph SSW4.8 kmh SSW -- 30.03 in1016.9 mb 0.00 in0.0 mm 0.00 in0.0 mm 0.00 in0.0 mm
09:51 AM 75.3°F24.1°C 43.4°F6.3°C 32% 7.0 mph SSW11.3 kmh SSW -- 30.02 in1016.6 mb 0.00 in0.0 mm 0.00 in0.0 mm 0.00 in0.0 mm
09:52 AM 75.9°F24.4°C 42.2°F5.7°C 30% 5.0 mph NW8.0 kmh NW -- 30.02 in1016.6 mb 0.00 in0.0 mm 0.00 in0.0 mm 0.00 in0.0 mm
09:53 AM 76.5°F24.7°C 42.7°F5.9°C 30% 4.0 mph W6.4 kmh W -- 30.02 in1016.6 mb 0.00 in0.0 mm 0.00 in0.0 mm 0.00 in0.0 mm
09:54 AM 76.5°F24.7°C 43.6°F6.4°C 31% 8.0 mph SSE12.9 kmh SSE -- 30.02 in1016.6 mb 0.00 in0.0 mm 0.00 in0.0 mm 0.00 in0.0 mm
09:55 AM 75.6°F24.2°C 42.8°F6.0°C 31% 9.0 mph SSE14.5 kmh SSE -- 30.02 in1016.6 mb 0.00 in0.0 mm 0.00 in0.0 mm 0.00 in0.0 mm
09:56 AM 75.1°F23.9°C 42.3°F5.7°C 31% 7.0 mph SSE11.3 kmh SSE -- 30.02 in1016.6 mb 0.00 in0.0 mm 0.00 in0.0 mm 0.00 in0.0 mm
09:57 AM 75.0°F23.9°C 42.3°F5.7°C 31% 7.0 mph SSE11.3 kmh SSE -- 30.02 in1016.6 mb 0.00 in0.0 mm 0.00 in0.0 mm 0.00 in0.0 mm
09:58 AM 75.5°F24.2°C 43.6°F6.4°C 32% 7.0 mph SW11.3 kmh SW -- 30.02 in1016.6 mb 0.00 in0.0 mm 0.00 in0.0 mm 0.00 in0.0 mm
09:59 AM 75.1°F23.9°C 41.4°F5.2°C 30% 6.0 mph SSE9.7 kmh SSE -- 30.03 in1016.9 mb 0.00 in0.0 mm 0.00 in0.0 mm 0.00 in0.0 mm
10:00 AM 75.3°F24.1°C 42.6°F5.9°C 31% 7.0 mph SSW11.3 kmh SSW -- 30.03 in1016.9 mb 0.00 in0.0 mm 0.00 in0.0 mm 0.00 in0.0 mm
10:01 AM 75.6°F24.2°C 41.9°F5.5°C 30% 4.0 mph W6.4 kmh W -- 30.02 in1016.6 mb 0.00 in0.0 mm 0.00 in0.0 mm 0.00 in0.0 mm
10:02 AM 75.5°F24.2°C 41.9°F5.5°C 30% 3.0 mph SSW4.8 kmh SSW -- 30.02 in1016.6 mb 0.00 in0.0 mm 0.00 in0.0 mm 0.00 in0.0 mm
10:03 AM 75.6°F24.2°C 41.0°F5.0°C 29% 3.0 mph SW4.8 kmh SW -- 30.02 in1016.6 mb 0.00 in0.0 mm 0.00 in0.0 mm 0.00 in0.0 mm
10:04 AM 76.3°F24.6°C 42.5°F5.8°C 30% 4.0 mph SSW6.4 kmh SSW -- 30.03 in1016.9 mb 0.00 in0.0 mm 0.00 in0.0 mm 0.00 in0.0 mm
10:05 AM 76.3°F24.6°C 42.5°F5.8°C 30% 6.0 mph SW9.7 kmh SW -- 30.02 in1016.6 mb 0.00 in0.0 mm 0.00 in0.0 mm 0.00 in0.0 mm
10:06 AM 76.4°F24.7°C 42.7°F5.9°C 30% 6.0 mph SSW9.7 kmh SSW -- 30.02 in1016.6 mb 0.00 in0.0 mm 0.00 in0.0 mm 0.00 in0.0 mm
10:07 AM 76.5°F24.7°C 42.7°F5.9°C 30% 4.0 mph SSW6.4 kmh SSW -- 30.02 in1016.6 mb 0.00 in0.0 mm 0.00 in0.0 mm 0.00 in0.0 mm
10:08 AM 76.4°F24.7°C 42.7°F5.9°C 30% 4.0 mph S6.4 kmh S -- 30.02 in1016.6 mb 0.00 in0.0 mm 0.00 in0.0 mm 0.00 in0.0 mm
10:09 AM 76.0°F24.4°C 42.2°F5.7°C 30% 4.0 mph SW6.4 kmh SW -- 30.02 in1016.6 mb 0.00 in0.0 mm 0.00 in0.0 mm 0.00 in0.0 mm
10:10 AM 76.9°F24.9°C 44.7°F7.1°C 32% 4.0 mph SSE6.4 kmh SSE -- 30.02 in1016.6 mb 0.00 in0.0 mm 0.00 in0.0 mm 0.00 in0.0 mm
10:11 AM 76.9°F24.9°C 44.7°F7.1°C 32% 10.0 mph SSE16.1 kmh SSE -- 30.02 in1016.6 mb 0.00 in0.0 mm 0.00 in0.0 mm 0.00 in0.0 mm
10:12 AM 76.0°F24.4°C 43.1°F6.2°C 31% 8.0 mph S12.9 kmh S -- 30.02 in1016.6 mb 0.00 in0.0 mm 0.00 in0.0 mm 0.00 in0.0 mm
10:13 AM 75.9°F24.4°C 42.2°F5.7°C 30% 4.0 mph SE6.4 kmh SE -- 30.02 in1016.6 mb 0.00 in0.0 mm 0.00 in0.0 mm 0.00 in0.0 mm
10:14 AM 75.5°F24.2°C 41.9°F5.5°C 30% 5.0 mph SSE8.0 kmh SSE -- 30.02 in1016.6 mb 0.00 in0.0 mm 0.00 in0.0 mm 0.00 in0.0 mm
10:15 AM 75.6°F24.2°C 42.8°F6.0°C 31% 7.0 mph S11.3 kmh S -- 30.02 in1016.6 mb 0.00 in0.0 mm 0.00 in0.0 mm 0.00 in0.0 mm
10:16 AM 75.6°F24.2°C 41.9°F5.5°C 30% 6.0 mph E9.7 kmh E -- 30.02 in1016.6 mb 0.00 in0.0 mm 0.00 in0.0 mm 0.00 in0.0 mm
10:17 AM 75.5°F24.2°C 41.0°F5.0°C 29% 2.0 mph SW3.2 kmh SW -- 30.02 in1016.6 mb 0.00 in0.0 mm 0.00 in0.0 mm 0.00 in0.0 mm
10:18 AM 75.5°F24.2°C 41.0°F5.0°C 29% 5.0 mph W8.0 kmh W -- 30.02 in1016.6 mb 0.00 in0.0 mm 0.00 in0.0 mm 0.00 in0.0 mm
10:19 AM 76.4°F24.7°C 42.7°F5.9°C 30% 4.0 mph W6.4 kmh W -- 30.02 in1016.6 mb 0.00 in0.0 mm 0.00 in0.0 mm 0.00 in0.0 mm
10:20 AM 76.9°F24.9°C 43.0°F6.1°C 30% 4.0 mph SSW6.4 kmh SSW -- 30.02 in1016.6 mb 0.00 in0.0 mm 0.00 in0.0 mm 0.00 in0.0 mm
10:21 AM 76.8°F24.9°C 43.0°F6.1°C 30% 5.0 mph SSE8.0 kmh SSE -- 30.02 in1016.6 mb 0.00 in0.0 mm 0.00 in0.0 mm 0.00 in0.0 mm
10:22 AM 76.8°F24.9°C 43.0°F6.1°C 30% 7.0 mph S11.3 kmh S -- 30.02 in1016.6 mb 0.00 in0.0 mm 0.00 in0.0 mm 0.00 in0.0 mm
10:23 AM 76.8°F24.9°C 43.0°F6.1°C 30% 5.0 mph S8.0 kmh S -- 30.02 in1016.6 mb 0.00 in0.0 mm 0.00 in0.0 mm 0.00 in0.0 mm
10:24 AM 76.5°F24.7°C 42.7°F5.9°C 30% 2.0 mph W3.2 kmh W -- 30.02 in1016.6 mb 0.00 in0.0 mm 0.00 in0.0 mm 0.00 in0.0 mm
10:25 AM 76.8°F24.9°C 43.0°F6.1°C 30% 5.0 mph SW8.0 kmh SW -- 30.02 in1016.6 mb 0.00 in0.0 mm 0.00 in0.0 mm 0.00 in0.0 mm
10:26 AM 76.9°F24.9°C 42.1°F5.6°C 29% 2.0 mph W3.2 kmh W -- 30.02 in1016.6 mb 0.00 in0.0 mm 0.00 in0.0 mm 0.00 in0.0 mm
10:27 AM 76.9°F24.9°C 43.0°F6.1°C 30% 7.0 mph SSW11.3 kmh SSW -- 30.02 in1016.6 mb 0.00 in0.0 mm 0.00 in0.0 mm 0.00 in0.0 mm
10:28 AM 76.8°F24.9°C 43.0°F6.1°C 30% 4.0 mph SSW6.4 kmh SSW -- 30.02 in1016.6 mb 0.00 in0.0 mm 0.00 in0.0 mm 0.00 in0.0 mm
10:29 AM 76.9°F24.9°C 43.0°F6.1°C 30% 9.0 mph S14.5 kmh S -- 30.02 in1016.6 mb 0.00 in0.0 mm 0.00 in0.0 mm 0.00 in0.0 mm
10:30 AM 77.1°F25.1°C 45.0°F7.2°C 32% 4.0 mph S6.4 kmh S -- 30.02 in1016.6 mb 0.00 in0.0 mm 0.00 in0.0 mm 0.00 in0.0 mm
10:31 AM 76.5°F24.7°C 43.6°F6.4°C 31% 7.0 mph SSE11.3 kmh SSE -- 30.02 in1016.6 mb 0.00 in0.0 mm 0.00 in0.0 mm 0.00 in0.0 mm
10:32 AM 76.5°F24.7°C 44.4°F6.9°C 32% 8.0 mph SSE12.9 kmh SSE -- 30.02 in1016.6 mb 0.00 in0.0 mm 0.00 in0.0 mm 0.00 in0.0 mm
10:33 AM 76.4°F24.7°C 44.4°F6.9°C 32% 6.0 mph SSE9.7 kmh SSE -- 30.02 in1016.6 mb 0.00 in0.0 mm 0.00 in0.0 mm 0.00 in0.0 mm
10:34 AM 75.6°F24.2°C 41.9°F5.5°C 30% 3.0 mph SE4.8 kmh SE -- 30.02 in1016.6 mb 0.00 in0.0 mm 0.00 in0.0 mm 0.00 in0.0 mm
10:35 AM 75.6°F24.2°C 41.9°F5.5°C 30% 2.0 mph E3.2 kmh E -- 30.02 in1016.6 mb 0.00 in0.0 mm 0.00 in0.0 mm 0.00 in0.0 mm
10:36 AM 76.5°F24.7°C 42.7°F5.9°C 30% 3.0 mph ESE4.8 kmh ESE -- 30.03 in1016.9 mb 0.00 in0.0 mm 0.00 in0.0 mm 0.00 in0.0 mm
10:37 AM 76.5°F24.7°C 42.7°F5.9°C 30% 5.0 mph S8.0 kmh S -- 30.02 in1016.6 mb 0.00 in0.0 mm 0.00 in0.0 mm 0.00 in0.0 mm
10:38 AM 76.9°F24.9°C 43.0°F6.1°C 30% 9.0 mph S14.5 kmh S -- 30.02 in1016.6 mb 0.00 in0.0 mm 0.00 in0.0 mm 0.00 in0.0 mm
10:39 AM 76.9°F24.9°C 43.0°F6.1°C 30% 7.0 mph SW11.3 kmh SW -- 30.02 in1016.6 mb 0.00 in0.0 mm 0.00 in0.0 mm 0.00 in0.0 mm
10:40 AM 76.8°F24.9°C 43.0°F6.1°C 30% 4.0 mph SW6.4 kmh SW -- 30.02 in1016.6 mb 0.00 in0.0 mm 0.00 in0.0 mm 0.00 in0.0 mm
10:41 AM 76.8°F24.9°C 43.0°F6.1°C 30% 5.0 mph SW8.0 kmh SW -- 30.02 in1016.6 mb 0.00 in0.0 mm 0.00 in0.0 mm 0.00 in0.0 mm
10:42 AM 78.1°F25.6°C 41.4°F5.2°C 27% 5.0 mph WSW8.0 kmh WSW -- 30.02 in1016.6 mb 0.00 in0.0 mm 0.00 in0.0 mm 0.00 in0.0 mm
10:43 AM 78.5°F25.8°C 41.7°F5.4°C 27% 7.0 mph W11.3 kmh W -- 30.02 in1016.6 mb 0.00 in0.0 mm 0.00 in0.0 mm 0.00 in0.0 mm
10:44 AM 78.5°F25.8°C 39.7°F4.3°C 25% 3.0 mph WSW4.8 kmh WSW -- 30.02 in1016.6 mb 0.00 in0.0 mm 0.00 in0.0 mm 0.00 in0.0 mm
10:45 AM 77.8°F25.4°C 41.1°F5.1°C 27% 5.0 mph WSW8.0 kmh WSW -- 30.02 in1016.6 mb 0.00 in0.0 mm 0.00 in0.0 mm 0.00 in0.0 mm
10:46 AM 77.4°F25.2°C 40.8°F4.9°C 27% 2.0 mph W3.2 kmh W -- 30.02 in1016.6 mb 0.00 in0.0 mm 0.00 in0.0 mm 0.00 in0.0 mm
10:47 AM 78.3°F25.7°C 41.5°F5.3°C 27% 6.0 mph NNW9.7 kmh NNW -- 30.02 in1016.6 mb 0.00 in0.0 mm 0.00 in0.0 mm 0.00 in0.0 mm
10:48 AM 78.1°F25.6°C 41.4°F5.2°C 27% 6.0 mph SSE9.7 kmh SSE -- 30.02 in1016.6 mb 0.00 in0.0 mm 0.00 in0.0 mm 0.00 in0.0 mm
10:49 AM 78.1°F25.6°C 41.4°F5.2°C 27% 9.0 mph SSE14.5 kmh SSE -- 30.02 in1016.6 mb 0.00 in0.0 mm 0.00 in0.0 mm 0.00 in0.0 mm
10:50 AM 77.4°F25.2°C 43.5°F6.4°C 30% 8.0 mph SSE12.9 kmh SSE -- 30.02 in1016.6 mb 0.00 in0.0 mm 0.00 in0.0 mm 0.00 in0.0 mm
10:51 AM 77.4°F25.2°C 43.5°F6.4°C 30% 6.0 mph SSW9.7 kmh SSW -- 30.02 in1016.6 mb 0.00 in0.0 mm 0.00 in0.0 mm 0.00 in0.0 mm
10:52 AM 77.4°F25.2°C 43.5°F6.4°C 30% 6.0 mph SSE9.7 kmh SSE -- 30.02 in1016.6 mb 0.00 in0.0 mm 0.00 in0.0 mm 0.00 in0.0 mm
10:53 AM 77.5°F25.3°C 42.8°F6.0°C 29% 4.0 mph S6.4 kmh S -- 30.02 in1016.6 mb 0.00 in0.0 mm 0.00 in0.0 mm 0.00 in0.0 mm
10:54 AM 77.5°F25.3°C 40.9°F4.9°C 27% 5.0 mph NW8.0 kmh NW -- 30.02 in1016.6 mb 0.00 in0.0 mm 0.00 in0.0 mm 0.00 in0.0 mm
10:55 AM 77.5°F25.3°C 40.9°F4.9°C 27% 6.0 mph S9.7 kmh S -- 30.02 in1016.6 mb 0.00 in0.0 mm 0.00 in0.0 mm 0.00 in0.0 mm
10:56 AM 77.6°F25.3°C 40.9°F4.9°C 27% 4.0 mph WSW6.4 kmh WSW -- 30.02 in1016.6 mb 0.00 in0.0 mm 0.00 in0.0 mm 0.00 in0.0 mm
10:57 AM 78.1°F25.6°C 39.4°F4.1°C 25% 4.0 mph NNW6.4 kmh NNW -- 30.02 in1016.6 mb 0.00 in0.0 mm 0.00 in0.0 mm 0.00 in0.0 mm
10:58 AM 78.3°F25.7°C 39.6°F4.2°C 25% 2.0 mph SSW3.2 kmh SSW -- 30.02 in1016.6 mb 0.00 in0.0 mm 0.00 in0.0 mm 0.00 in0.0 mm
10:59 AM 78.5°F25.8°C 39.7°F4.3°C 25% 4.0 mph W6.4 kmh W -- 30.02 in1016.6 mb 0.00 in0.0 mm 0.00 in0.0 mm 0.00 in0.0 mm
11:00 AM 79.0°F26.1°C 40.2°F4.6°C 25% 4.0 mph SW6.4 kmh SW -- 30.02 in1016.6 mb 0.00 in0.0 mm 0.00 in0.0 mm 0.00 in0.0 mm
11:01 AM 78.4°F25.8°C 41.7°F5.4°C 27% 4.0 mph S6.4 kmh S -- 30.02 in1016.6 mb 0.00 in0.0 mm 0.00 in0.0 mm 0.00 in0.0 mm
11:02 AM 78.1°F25.6°C 43.2°F6.2°C 29% 6.0 mph S9.7 kmh S -- 30.02 in1016.6 mb 0.00 in0.0 mm 0.00 in0.0 mm 0.00 in0.0 mm
11:03 AM 78.1°F25.6°C 43.2°F6.2°C 29% 6.0 mph SE9.7 kmh SE -- 30.02 in1016.6 mb 0.00 in0.0 mm 0.00 in0.0 mm 0.00 in0.0 mm
11:04 AM 77.8°F25.4°C 42.9°F6.1°C 29% 5.0 mph SSW8.0 kmh SSW -- 30.02 in1016.6 mb 0.00 in0.0 mm 0.00 in0.0 mm 0.00 in0.0 mm
11:05 AM 77.5°F25.3°C 40.9°F4.9°C 27% 10.0 mph S16.1 kmh S -- 30.02 in1016.6 mb 0.00 in0.0 mm 0.00 in0.0 mm 0.00 in0.0 mm
11:06 AM 77.1°F25.1°C 42.4°F5.8°C 29% 11.0 mph SSE17.7 kmh SSE -- 30.02 in1016.6 mb 0.00 in0.0 mm 0.00 in0.0 mm 0.00 in0.0 mm
11:07 AM 76.8°F24.9°C 40.3°F4.6°C 27% 11.0 mph S17.7 kmh S -- 30.02 in1016.6 mb 0.00 in0.0 mm 0.00 in0.0 mm 0.00 in0.0 mm
11:08 AM 76.5°F24.7°C 40.0°F4.4°C 27% 7.0 mph SE11.3 kmh SE -- 30.03 in1016.9 mb 0.00 in0.0 mm 0.00 in0.0 mm 0.00 in0.0 mm
11:09 AM 76.4°F24.7°C 41.8°F5.4°C 29% 4.0 mph S6.4 kmh S -- 30.02 in1016.6 mb 0.00 in0.0 mm 0.00 in0.0 mm 0.00 in0.0 mm
11:10 AM 77.1°F25.1°C 43.3°F6.3°C 30% 3.0 mph SW4.8 kmh SW -- 30.02 in1016.6 mb 0.00 in0.0 mm 0.00 in0.0 mm 0.00 in0.0 mm
11:11 AM 77.4°F25.2°C 42.6°F5.9°C 29% 6.0 mph WNW9.7 kmh WNW -- 30.02 in1016.6 mb 0.00 in0.0 mm 0.00 in0.0 mm 0.00 in0.0 mm
11:12 AM 77.4°F25.2°C 40.8°F4.9°C 27% 4.0 mph WSW6.4 kmh WSW -- 30.02 in1016.6 mb 0.00 in0.0 mm 0.00 in0.0 mm 0.00 in0.0 mm
11:13 AM 77.8°F25.4°C 41.1°F5.1°C 27% 6.0 mph SSW9.7 kmh SSW -- 30.02 in1016.6 mb 0.00 in0.0 mm 0.00 in0.0 mm 0.00 in0.0 mm
11:14 AM 78.1°F25.6°C 41.4°F5.2°C 27% 7.0 mph S11.3 kmh S -- 30.02 in1016.6 mb 0.00 in0.0 mm 0.00 in0.0 mm 0.00 in0.0 mm
11:15 AM 77.8°F25.4°C 41.1°F5.1°C 27% 3.0 mph SSW4.8 kmh SSW -- 30.02 in1016.6 mb 0.00 in0.0 mm 0.00 in0.0 mm 0.00 in0.0 mm
11:16 AM 78.5°F25.8°C 39.7°F4.3°C 25% 9.0 mph SE14.5 kmh SE -- 30.02 in1016.6 mb 0.00 in0.0 mm 0.00 in0.0 mm 0.00 in0.0 mm
11:17 AM 78.8°F26.0°C 40.0°F4.4°C 25% 6.0 mph SSE9.7 kmh SSE -- 30.02 in1016.6 mb 0.00 in0.0 mm 0.00 in0.0 mm 0.00 in0.0 mm
11:18 AM 77.5°F25.3°C 40.9°F4.9°C 27% 7.0 mph SSE11.3 kmh SSE -- 30.02 in1016.6 mb 0.00 in0.0 mm 0.00 in0.0 mm 0.00 in0.0 mm
11:19 AM 77.8°F25.4°C 41.1°F5.1°C 27% 6.0 mph ESE9.7 kmh ESE -- 30.02 in1016.6 mb 0.00 in0.0 mm 0.00 in0.0 mm 0.00 in0.0 mm
11:20 AM 78.4°F25.8°C 38.7°F3.7°C 24% 6.0 mph ESE9.7 kmh ESE -- 30.02 in1016.6 mb 0.00 in0.0 mm 0.00 in0.0 mm 0.00 in0.0 mm
11:21 AM 79.0°F26.1°C 39.1°F3.9°C 24% 10.0 mph ESE16.1 kmh ESE -- 30.02 in1016.6 mb 0.00 in0.0 mm 0.00 in0.0 mm 0.00 in0.0 mm
11:22 AM 79.3°F26.3°C 39.4°F4.1°C 24% 6.0 mph SE9.7 kmh SE -- 30.02 in1016.6 mb 0.00 in0.0 mm 0.00 in0.0 mm 0.00 in0.0 mm
11:23 AM 78.8°F26.0°C 40.0°F4.4°C 25% 10.0 mph ESE16.1 kmh ESE -- 30.02 in1016.6 mb 0.00 in0.0 mm 0.00 in0.0 mm 0.00 in0.0 mm
11:24 AM 78.3°F25.7°C 39.6°F4.2°C 25% 10.0 mph SE16.1 kmh SE -- 30.02 in1016.6 mb 0.00 in0.0 mm 0.00 in0.0 mm 0.00 in0.0 mm
11:25 AM 78.3°F25.7°C 39.6°F4.2°C 25% 9.0 mph SSE14.5 kmh SSE -- 30.02 in1016.6 mb 0.00 in0.0 mm 0.00 in0.0 mm 0.00 in0.0 mm
11:26 AM 77.5°F25.3°C 38.9°F3.8°C 25% 8.0 mph SSE12.9 kmh SSE -- 30.02 in1016.6 mb 0.00 in0.0 mm 0.00 in0.0 mm 0.00 in0.0 mm
11:27 AM 77.1°F25.1°C 38.6°F3.7°C 25% 8.0 mph SE12.9 kmh SE -- 30.02 in1016.6 mb 0.00 in0.0 mm 0.00 in0.0 mm 0.00 in0.0 mm
11:28 AM 76.9°F24.9°C 40.3°F4.6°C 27% 6.0 mph SSE9.7 kmh SSE -- 30.02 in1016.6 mb 0.00 in0.0 mm 0.00 in0.0 mm 0.00 in0.0 mm
11:29 AM 77.1°F25.1°C 40.6°F4.8°C 27% 8.0 mph SSW12.9 kmh SSW -- 30.02 in1016.6 mb 0.00 in0.0 mm 0.00 in0.0 mm 0.00 in0.0 mm
11:30 AM 77.1°F25.1°C 42.4°F5.8°C 29% 4.0 mph SSE6.4 kmh SSE -- 30.02 in1016.6 mb 0.00 in0.0 mm 0.00 in0.0 mm 0.00 in0.0 mm
11:31 AM 77.6°F25.3°C 40.9°F4.9°C 27% 6.0 mph S9.7 kmh S -- 30.02 in1016.6 mb 0.00 in0.0 mm 0.00 in0.0 mm 0.00 in0.0 mm
11:32 AM 77.6°F25.3°C 38.9°F3.8°C 25% 4.0 mph SSE6.4 kmh SSE -- 30.02 in1016.6 mb 0.00 in0.0 mm 0.00 in0.0 mm 0.00 in0.0 mm
11:33 AM 77.8°F25.4°C 39.1°F3.9°C 25% 6.0 mph SW9.7 kmh SW -- 30.01 in1016.3 mb 0.00 in0.0 mm 0.00 in0.0 mm 0.00 in0.0 mm
11:34 AM 77.5°F25.3°C 38.9°F3.8°C 25% 4.0 mph ESE6.4 kmh ESE -- 30.02 in1016.6 mb 0.00 in0.0 mm 0.00 in0.0 mm 0.00 in0.0 mm
11:35 AM 77.1°F25.1°C 42.4°F5.8°C 29% 2.0 mph SSE3.2 kmh SSE -- 30.02 in1016.6 mb 0.00 in0.0 mm 0.00 in0.0 mm 0.00 in0.0 mm
11:36 AM 77.6°F25.3°C 40.9°F4.9°C 27% 12.0 mph SSE19.3 kmh SSE -- 30.02 in1016.6 mb 0.00 in0.0 mm 0.00 in0.0 mm 0.00 in0.0 mm
11:37 AM 78.3°F25.7°C 39.6°F4.2°C 25% 11.0 mph SSE17.7 kmh SSE -- 30.02 in1016.6 mb 0.00 in0.0 mm 0.00 in0.0 mm 0.00 in0.0 mm
11:38 AM 79.1°F26.2°C 40.3°F4.6°C 25% 9.0 mph ESE14.5 kmh ESE -- 30.02 in1016.6 mb 0.00 in0.0 mm 0.00 in0.0 mm 0.00 in0.0 mm
11:39 AM 79.0°F26.1°C 40.2°F4.6°C 25% 8.0 mph SSE12.9 kmh SSE -- 30.02 in1016.6 mb 0.00 in0.0 mm 0.00 in0.0 mm 0.00 in0.0 mm
11:40 AM 77.5°F25.3°C 40.9°F4.9°C 27% 8.0 mph S12.9 kmh S -- 30.02 in1016.6 mb 0.00 in0.0 mm 0.00 in0.0 mm 0.00 in0.0 mm
11:41 AM 77.4°F25.2°C 38.8°F3.8°C 25% 4.0 mph SE6.4 kmh SE -- 30.02 in1016.6 mb 0.00 in0.0 mm 0.00 in0.0 mm 0.00 in0.0 mm
11:42 AM 77.4°F25.2°C 38.8°F3.8°C 25% 5.0 mph ESE8.0 kmh ESE -- 30.02 in1016.6 mb 0.00 in0.0 mm 0.00 in0.0 mm 0.00 in0.0 mm
11:43 AM 77.5°F25.3°C 38.9°F3.8°C 25% 4.0 mph ESE6.4 kmh ESE -- 30.01 in1016.3 mb 0.00 in0.0 mm 0.00 in0.0 mm 0.00 in0.0 mm
11:44 AM 78.5°F25.8°C 41.7°F5.4°C 27% 7.0 mph ESE11.3 kmh ESE -- 30.02 in1016.6 mb 0.00 in0.0 mm 0.00 in0.0 mm 0.00 in0.0 mm
11:45 AM 79.0°F26.1°C 42.2°F5.7°C 27% 8.0 mph ESE12.9 kmh ESE -- 30.01 in1016.3 mb 0.00 in0.0 mm 0.00 in0.0 mm 0.00 in0.0 mm
11:46 AM 78.4°F25.8°C 39.7°F4.3°C 25% 8.0 mph S12.9 kmh S -- 30.01 in1016.3 mb 0.00 in0.0 mm 0.00 in0.0 mm 0.00 in0.0 mm
11:47 AM 76.8°F24.9°C 38.3°F3.5°C 25% 7.0 mph SSE11.3 kmh SSE -- 30.02 in1016.6 mb 0.00 in0.0 mm 0.00 in0.0 mm 0.00 in0.0 mm
11:48 AM 76.3°F24.6°C 37.9°F3.3°C 25% 5.0 mph S8.0 kmh S -- 30.02 in1016.6 mb 0.00 in0.0 mm 0.00 in0.0 mm 0.00 in0.0 mm
11:49 AM 76.0°F24.4°C 39.5°F4.2°C 27% 5.0 mph S8.0 kmh S -- 30.02 in1016.6 mb 0.00 in0.0 mm 0.00 in0.0 mm 0.00 in0.0 mm
11:50 AM 75.9°F24.4°C 39.5°F4.2°C 27% 3.0 mph S4.8 kmh S -- 30.02 in1016.6 mb 0.00 in0.0 mm 0.00 in0.0 mm 0.00 in0.0 mm
11:51 AM 75.9°F24.4°C 39.5°F4.2°C 27% 4.0 mph ESE6.4 kmh ESE -- 30.02 in1016.6 mb 0.00 in0.0 mm 0.00 in0.0 mm 0.00 in0.0 mm
11:52 AM 76.5°F24.7°C 38.0°F3.3°C 25% 10.0 mph SE16.1 kmh SE -- 30.02 in1016.6 mb 0.00 in0.0 mm 0.00 in0.0 mm 0.00 in0.0 mm
11:53 AM 76.5°F24.7°C 40.0°F4.4°C 27% 9.0 mph SE14.5 kmh SE -- 30.01 in1016.3 mb 0.00 in0.0 mm 0.00 in0.0 mm 0.00 in0.0 mm
11:54 AM 76.3°F24.6°C 41.7°F5.4°C 29% 4.0 mph ESE6.4 kmh ESE -- 30.02 in1016.6 mb 0.00 in0.0 mm 0.00 in0.0 mm 0.00 in0.0 mm
11:55 AM 76.9°F24.9°C 42.1°F5.6°C 29% 9.0 mph SE14.5 kmh SE -- 30.01 in1016.3 mb 0.00 in0.0 mm 0.00 in0.0 mm 0.00 in0.0 mm
11:56 AM 77.5°F25.3°C 42.8°F6.0°C 29% 9.0 mph SE14.5 kmh SE -- 30.01 in1016.3 mb 0.00 in0.0 mm 0.00 in0.0 mm 0.00 in0.0 mm
11:57 AM 77.4°F25.2°C 40.8°F4.9°C 27% 8.0 mph ESE12.9 kmh ESE -- 30.02 in1016.6 mb 0.00 in0.0 mm 0.00 in0.0 mm 0.00 in0.0 mm
11:58 AM 77.8°F25.4°C 42.9°F6.1°C 29% 9.0 mph SE14.5 kmh SE -- 30.02 in1016.6 mb 0.00 in0.0 mm 0.00 in0.0 mm 0.00 in0.0 mm
11:59 AM 78.1°F25.6°C 41.4°F5.2°C 27% 6.0 mph SE9.7 kmh SE -- 30.02 in1016.6 mb 0.00 in0.0 mm 0.00 in0.0 mm 0.00 in0.0 mm
12:00 PM 78.4°F25.8°C 41.7°F5.4°C 27% 13.0 mph ESE20.9 kmh ESE -- 30.02 in1016.6 mb 0.00 in0.0 mm 0.00 in0.0 mm 0.00 in0.0 mm
12:01 PM 78.4°F25.8°C 39.7°F4.3°C 25% 10.0 mph SSE16.1 kmh SSE -- 30.01 in1016.3 mb 0.00 in0.0 mm 0.00 in0.0 mm 0.00 in0.0 mm
12:02 PM 77.8°F25.4°C 41.1°F5.1°C 27% 12.0 mph SE19.3 kmh SE -- 30.01 in1016.3 mb 0.00 in0.0 mm 0.00 in0.0 mm 0.00 in0.0 mm
12:03 PM 77.4°F25.2°C 40.8°F4.9°C 27% 9.0 mph SSE14.5 kmh SSE -- 30.02 in1016.6 mb 0.00 in0.0 mm 0.00 in0.0 mm 0.00 in0.0 mm
12:04 PM 76.8°F24.9°C 38.3°F3.5°C 25% 7.0 mph SSE11.3 kmh SSE -- 30.02 in1016.6 mb 0.00 in0.0 mm 0.00 in0.0 mm 0.00 in0.0 mm
12:05 PM 76.5°F24.7°C 38.0°F3.3°C 25% 5.0 mph ESE8.0 kmh ESE -- 30.02 in1016.6 mb 0.00 in0.0 mm 0.00 in0.0 mm 0.00 in0.0 mm
12:06 PM 77.8°F25.4°C 39.1°F3.9°C 25% 10.0 mph ESE16.1 kmh ESE -- 30.02 in1016.6 mb 0.00 in0.0 mm 0.00 in0.0 mm 0.00 in0.0 mm
12:07 PM 78.4°F25.8°C 39.7°F4.3°C 25% 10.0 mph ESE16.1 kmh ESE -- 30.02 in1016.6 mb 0.00 in0.0 mm 0.00 in0.0 mm 0.00 in0.0 mm
12:08 PM 79.0°F26.1°C 40.2°F4.6°C 25% 10.0 mph ESE16.1 kmh ESE -- 30.02 in1016.6 mb 0.00 in0.0 mm 0.00 in0.0 mm 0.00 in0.0 mm
12:09 PM 79.0°F26.1°C 40.2°F4.6°C 25% 8.0 mph ESE12.9 kmh ESE -- 30.02 in1016.6 mb 0.00 in0.0 mm 0.00 in0.0 mm 0.00 in0.0 mm
12:10 PM 79.0°F26.1°C 40.2°F4.6°C 25% 7.0 mph ESE11.3 kmh ESE -- 30.01 in1016.3 mb 0.00 in0.0 mm 0.00 in0.0 mm 0.00 in0.0 mm
12:11 PM 79.3°F26.3°C 39.4°F4.1°C 24% 10.0 mph ENE16.1 kmh ENE -- 30.01 in1016.3 mb 0.00 in0.0 mm 0.00 in0.0 mm 0.00 in0.0 mm
12:12 PM 79.0°F26.1°C 40.2°F4.6°C 25% 6.0 mph ESE9.7 kmh ESE -- 30.01 in1016.3 mb 0.00 in0.0 mm 0.00 in0.0 mm 0.00 in0.0 mm
12:13 PM 79.0°F26.1°C 42.2°F5.7°C 27% 8.0 mph ESE12.9 kmh ESE -- 30.01 in1016.3 mb 0.00 in0.0 mm 0.00 in0.0 mm 0.00 in0.0 mm
12:14 PM 78.4°F25.8°C 41.7°F5.4°C 27% 7.0 mph SSE11.3 kmh SSE -- 30.02 in1016.6 mb 0.00 in0.0 mm 0.00 in0.0 mm 0.00 in0.0 mm
12:15 PM 79.0°F26.1°C 42.2°F5.7°C 27% 9.0 mph SE14.5 kmh SE -- 30.01 in1016.3 mb 0.00 in0.0 mm 0.00 in0.0 mm 0.00 in0.0 mm
12:16 PM 79.0°F26.1°C 42.2°F5.7°C 27% 9.0 mph S14.5 kmh S -- 30.02 in1016.6 mb 0.00 in0.0 mm 0.00 in0.0 mm 0.00 in0.0 mm
12:17 PM 78.5°F25.8°C 41.7°F5.4°C 27% 11.0 mph SSE17.7 kmh SSE -- 30.01 in1016.3 mb 0.00 in0.0 mm 0.00 in0.0 mm 0.00 in0.0 mm
12:18 PM 78.3°F25.7°C 41.5°F5.3°C 27% 7.0 mph ESE11.3 kmh ESE -- 30.02 in1016.6 mb 0.00 in0.0 mm 0.00 in0.0 mm 0.00 in0.0 mm
12:19 PM 77.8°F25.4°C 41.1°F5.1°C 27% 10.0 mph SE16.1 kmh SE -- 30.01 in1016.3 mb 0.00 in0.0 mm 0.00 in0.0 mm 0.00 in0.0 mm
12:20 PM 77.8°F25.4°C 41.1°F5.1°C 27% 5.0 mph SSW8.0 kmh SSW -- 30.01 in1016.3 mb 0.00 in0.0 mm 0.00 in0.0 mm 0.00 in0.0 mm
12:21 PM 78.1°F25.6°C 41.4°F5.2°C 27% 2.0 mph E3.2 kmh E -- 30.01 in1016.3 mb 0.00 in0.0 mm 0.00 in0.0 mm 0.00 in0.0 mm
12:22 PM 78.3°F25.7°C 39.6°F4.2°C 25% 5.0 mph SW8.0 kmh SW -- 30.01 in1016.3 mb 0.00 in0.0 mm 0.00 in0.0 mm 0.00 in0.0 mm
12:23 PM 78.8°F26.0°C 40.0°F4.4°C 25% 4.0 mph WSW6.4 kmh WSW -- 30.01 in1016.3 mb 0.00 in0.0 mm 0.00 in0.0 mm 0.00 in0.0 mm
12:24 PM 79.1°F26.2°C 40.3°F4.6°C 25% 5.0 mph S8.0 kmh S -- 30.01 in1016.3 mb 0.00 in0.0 mm 0.00 in0.0 mm 0.00 in0.0 mm
12:25 PM 79.0°F26.1°C 40.2°F4.6°C 25% 6.0 mph SSE9.7 kmh SSE -- 30.01 in1016.3 mb 0.00 in0.0 mm 0.00 in0.0 mm 0.00 in0.0 mm
12:26 PM 78.8°F26.0°C 40.0°F4.4°C 25% 5.0 mph SE8.0 kmh SE -- 30.01 in1016.3 mb 0.00 in0.0 mm 0.00 in0.0 mm 0.00 in0.0 mm
12:27 PM 78.8°F26.0°C 40.0°F4.4°C 25% 2.0 mph ESE3.2 kmh ESE -- 30.01 in1016.3 mb 0.00 in0.0 mm 0.00 in0.0 mm 0.00 in0.0 mm
12:28 PM 79.0°F26.1°C 40.2°F4.6°C 25% 6.0 mph SSE9.7 kmh SSE -- 30.01 in1016.3 mb 0.00 in0.0 mm 0.00 in0.0 mm 0.00 in0.0 mm
12:29 PM 79.4°F26.3°C 42.5°F5.8°C 27% 6.0 mph SSE9.7 kmh SSE -- 30.01 in1016.3 mb 0.00 in0.0 mm 0.00 in0.0 mm 0.00 in0.0 mm
12:30 PM 79.9°F26.6°C 42.9°F6.1°C 27% 15.0 mph S24.1 kmh S -- 30.01 in1016.3 mb 0.00 in0.0 mm 0.00 in0.0 mm 0.00 in0.0 mm
12:31 PM 78.8°F26.0°C 40.0°F4.4°C 25% 7.0 mph ESE11.3 kmh ESE -- 30.01 in1016.3 mb 0.00 in0.0 mm 0.00 in0.0 mm 0.00 in0.0 mm
12:32 PM 79.0°F26.1°C 40.2°F4.6°C 25% 5.0 mph ESE8.0 kmh ESE -- 30.01 in1016.3 mb 0.00 in0.0 mm 0.00 in0.0 mm 0.00 in0.0 mm
12:33 PM 79.0°F26.1°C 40.2°F4.6°C 25% 8.0 mph SSE12.9 kmh SSE -- 30.01 in1016.3 mb 0.00 in0.0 mm 0.00 in0.0 mm 0.00 in0.0 mm
12:34 PM 79.3°F26.3°C 40.5°F4.7°C 25% 6.0 mph SSW9.7 kmh SSW -- 30.01 in1016.3 mb 0.00 in0.0 mm 0.00 in0.0 mm 0.00 in0.0 mm
12:35 PM 79.0°F26.1°C 40.2°F4.6°C 25% 6.0 mph SSW9.7 kmh SSW -- 30.01 in1016.3 mb 0.00 in0.0 mm 0.00 in0.0 mm 0.00 in0.0 mm
12:36 PM 78.5°F25.8°C 39.7°F4.3°C 25% 4.0 mph SSW6.4 kmh SSW -- 30.01 in1016.3 mb 0.00 in0.0 mm 0.00 in0.0 mm 0.00 in0.0 mm
12:37 PM 78.8°F26.0°C 39.0°F3.9°C 24% 6.0 mph SSW9.7 kmh SSW -- 30.01 in1016.3 mb 0.00 in0.0 mm 0.00 in0.0 mm 0.00 in0.0 mm
12:38 PM 78.5°F25.8°C 38.7°F3.7°C 24% 5.0 mph S8.0 kmh S -- 30.01 in1016.3 mb 0.00 in0.0 mm 0.00 in0.0 mm 0.00 in0.0 mm
12:39 PM 78.8°F26.0°C 40.0°F4.4°C 25% 5.0 mph SSE8.0 kmh SSE -- 30.01 in1016.3 mb 0.00 in0.0 mm 0.00 in0.0 mm 0.00 in0.0 mm
12:40 PM 78.5°F25.8°C 39.7°F4.3°C 25% 8.0 mph S12.9 kmh S -- 30.01 in1016.3 mb 0.00 in0.0 mm 0.00 in0.0 mm 0.00 in0.0 mm
12:41 PM 78.4°F25.8°C 39.7°F4.3°C 25% 4.0 mph S6.4 kmh S -- 30.01 in1016.3 mb 0.00 in0.0 mm 0.00 in0.0 mm 0.00 in0.0 mm
12:42 PM 78.1°F25.6°C 39.4°F4.1°C 25% 2.0 mph SSE3.2 kmh SSE -- 30.01 in1016.3 mb 0.00 in0.0 mm 0.00 in0.0 mm 0.00 in0.0 mm
12:43 PM 78.5°F25.8°C 41.7°F5.4°C 27% 6.0 mph S9.7 kmh S -- 30.01 in1016.3 mb 0.00 in0.0 mm 0.00 in0.0 mm 0.00 in0.0 mm
12:44 PM 79.3°F26.3°C 44.3°F6.8°C 29% 4.0 mph S6.4 kmh S -- 30.01 in1016.3 mb 0.00 in0.0 mm 0.00 in0.0 mm 0.00 in0.0 mm
12:45 PM 79.3°F26.3°C 42.5°F5.8°C 27% 9.0 mph S14.5 kmh S -- 30.00 in1015.9 mb 0.00 in0.0 mm 0.00 in0.0 mm 0.00 in0.0 mm
12:46 PM 79.3°F26.3°C 40.5°F4.7°C 25% 9.0 mph S14.5 kmh S -- 30.01 in1016.3 mb 0.00 in0.0 mm 0.00 in0.0 mm 0.00 in0.0 mm
12:47 PM 79.1°F26.2°C 40.3°F4.6°C 25% 12.0 mph SSE19.3 kmh SSE -- 30.00 in1015.9 mb 0.00 in0.0 mm 0.00 in0.0 mm 0.00 in0.0 mm
12:48 PM 79.1°F26.2°C 40.3°F4.6°C 25% 11.0 mph SE17.7 kmh SE -- 30.00 in1015.9 mb 0.00 in0.0 mm 0.00 in0.0 mm 0.00 in0.0 mm
12:49 PM 79.1°F26.2°C 40.3°F4.6°C 25% 11.0 mph S17.7 kmh S -- 30.01 in1016.3 mb 0.00 in0.0 mm 0.00 in0.0 mm 0.00 in0.0 mm
12:50 PM 79.0°F26.1°C 40.2°F4.6°C 25% 7.0 mph SE11.3 kmh SE -- 30.01 in1016.3 mb 0.00 in0.0 mm 0.00 in0.0 mm 0.00 in0.0 mm
12:51 PM 79.0°F26.1°C 40.2°F4.6°C 25% 9.0 mph ESE14.5 kmh ESE -- 30.01 in1016.3 mb 0.00 in0.0 mm 0.00 in0.0 mm 0.00 in0.0 mm
12:52 PM 79.0°F26.1°C 39.1°F3.9°C 24% 7.0 mph S11.3 kmh S -- 30.01 in1016.3 mb 0.00 in0.0 mm 0.00 in0.0 mm 0.00 in0.0 mm
12:53 PM 78.5°F25.8°C 38.7°F3.7°C 24% 5.0 mph SSE8.0 kmh SSE -- 30.01 in1016.3 mb 0.00 in0.0 mm 0.00 in0.0 mm 0.00 in0.0 mm
12:54 PM 78.4°F25.8°C 38.7°F3.7°C 24% 6.0 mph S9.7 kmh S -- 30.01 in1016.3 mb 0.00 in0.0 mm 0.00 in0.0 mm 0.00 in0.0 mm
12:55 PM 78.3°F25.7°C 36.3°F2.4°C 22% 4.0 mph SSE6.4 kmh SSE -- 30.01 in1016.3 mb 0.00 in0.0 mm 0.00 in0.0 mm 0.00 in0.0 mm
12:56 PM 78.3°F25.7°C 36.3°F2.4°C 22% 5.0 mph SE8.0 kmh SE -- 30.01 in1016.3 mb 0.00 in0.0 mm 0.00 in0.0 mm 0.00 in0.0 mm
12:57 PM 79.1°F26.2°C 40.3°F4.6°C 25% 12.0 mph SSE19.3 kmh SSE -- 30.00 in1015.9 mb 0.00 in0.0 mm 0.00 in0.0 mm 0.00 in0.0 mm
12:58 PM 79.0°F26.1°C 39.1°F3.9°C 24% 8.0 mph SSE12.9 kmh SSE -- 30.01 in1016.3 mb 0.00 in0.0 mm 0.00 in0.0 mm 0.00 in0.0 mm
12:59 PM 79.0°F26.1°C 39.1°F3.9°C 24% 4.0 mph SSW6.4 kmh SSW -- 30.00 in1015.9 mb 0.00 in0.0 mm 0.00 in0.0 mm 0.00 in0.0 mm
01:00 PM 79.1°F26.2°C 37.1°F2.8°C 22% 6.0 mph SSW9.7 kmh SSW -- 30.00 in1015.9 mb 0.00 in0.0 mm 0.00 in0.0 mm 0.00 in0.0 mm
01:01 PM 79.3°F26.3°C 39.4°F4.1°C 24% 11.0 mph SSE17.7 kmh SSE -- 30.00 in1015.9 mb 0.00 in0.0 mm 0.00 in0.0 mm 0.00 in0.0 mm
01:02 PM 79.1°F26.2°C 39.3°F4.1°C 24% 9.0 mph S14.5 kmh S -- 30.00 in1015.9 mb 0.00 in0.0 mm 0.00 in0.0 mm 0.00 in0.0 mm
01:03 PM 78.4°F25.8°C 39.7°F4.3°C 25% 9.0 mph S14.5 kmh S -- 30.00 in1015.9 mb 0.00 in0.0 mm 0.00 in0.0 mm 0.00 in0.0 mm
01:04 PM 78.3°F25.7°C 39.6°F4.2°C 25% 8.0 mph SSE12.9 kmh SSE -- 30.01 in1016.3 mb 0.00 in0.0 mm 0.00 in0.0 mm 0.00 in0.0 mm
01:05 PM 78.5°F25.8°C 38.7°F3.7°C 24% 6.0 mph SE9.7 kmh SE -- 30.01 in1016.3 mb 0.00 in0.0 mm 0.00 in0.0 mm 0.00 in0.0 mm
01:06 PM 78.8°F26.0°C 39.0°F3.9°C 24% 10.0 mph S16.1 kmh S -- 30.01 in1016.3 mb 0.00 in0.0 mm 0.00 in0.0 mm 0.00 in0.0 mm
01:07 PM 78.4°F25.8°C 38.7°F3.7°C 24% 8.0 mph SSE12.9 kmh SSE -- 30.01 in1016.3 mb 0.00 in0.0 mm 0.00 in0.0 mm 0.00 in0.0 mm
01:08 PM 78.1°F25.6°C 38.4°F3.6°C 24% 4.0 mph SSE6.4 kmh SSE -- 30.01 in1016.3 mb 0.00 in0.0 mm 0.00 in0.0 mm 0.00 in0.0 mm
01:09 PM 78.1°F25.6°C 39.4°F4.1°C 25% 5.0 mph SSE8.0 kmh SSE -- 30.01 in1016.3 mb 0.00 in0.0 mm 0.00 in0.0 mm 0.00 in0.0 mm
01:10 PM 77.8°F25.4°C 39.1°F3.9°C 25% 8.0 mph S12.9 kmh S -- 30.01 in1016.3 mb 0.00 in0.0 mm 0.00 in0.0 mm 0.00 in0.0 mm
01:11 PM 78.5°F25.8°C 39.7°F4.3°C 25% 11.0 mph SSE17.7 kmh SSE -- 30.00 in1015.9 mb 0.00 in0.0 mm 0.00 in0.0 mm 0.00 in0.0 mm
01:12 PM 79.0°F26.1°C 40.2°F4.6°C 25% 11.0 mph SE17.7 kmh SE -- 30.00 in1015.9 mb 0.00 in0.0 mm 0.00 in0.0 mm 0.00 in0.0 mm
01:13 PM 79.0°F26.1°C 39.1°F3.9°C 24% 9.0 mph SSE14.5 kmh SSE -- 30.00 in1015.9 mb 0.00 in0.0 mm 0.00 in0.0 mm 0.00 in0.0 mm
01:14 PM 79.0°F26.1°C 39.1°F3.9°C 24% 11.0 mph SE17.7 kmh SE -- 30.00 in1015.9 mb 0.00 in0.0 mm 0.00 in0.0 mm 0.00 in0.0 mm
01:15 PM 79.4°F26.3°C 40.5°F4.7°C 25% 9.0 mph SE14.5 kmh SE -- 30.01 in1016.3 mb 0.00 in0.0 mm 0.00 in0.0 mm 0.00 in0.0 mm
01:16 PM 80.1°F26.7°C 41.1°F5.1°C 25% 8.0 mph SE12.9 kmh SE -- 30.01 in1016.3 mb 0.00 in0.0 mm 0.00 in0.0 mm 0.00 in0.0 mm
01:17 PM 79.9°F26.6°C 40.9°F4.9°C 25% 8.0 mph ESE12.9 kmh ESE -- 30.00 in1015.9 mb 0.00 in0.0 mm 0.00 in0.0 mm 0.00 in0.0 mm
01:18 PM 79.9°F26.6°C 40.9°F4.9°C 25% 6.0 mph SSE9.7 kmh SSE -- 30.00 in1015.9 mb 0.00 in0.0 mm 0.00 in0.0 mm 0.00 in0.0 mm
01:19 PM 80.7°F27.1°C 40.7°F4.8°C 24% 11.0 mph ESE17.7 kmh ESE -- 30.00 in1015.9 mb 0.00 in0.0 mm 0.00 in0.0 mm 0.00 in0.0 mm
01:20 PM 80.5°F26.9°C 38.1°F3.4°C 22% 7.0 mph SE11.3 kmh SE -- 30.00 in1015.9 mb 0.00 in0.0 mm 0.00 in0.0 mm 0.00 in0.0 mm
01:21 PM 80.3°F26.8°C 40.2°F4.6°C 24% 5.0 mph SE8.0 kmh SE -- 30.00 in1015.9 mb 0.00 in0.0 mm 0.00 in0.0 mm 0.00 in0.0 mm
01:22 PM 81.0°F27.2°C 38.6°F3.7°C 22% 7.0 mph ESE11.3 kmh ESE -- 30.00 in1015.9 mb 0.00 in0.0 mm 0.00 in0.0 mm 0.00 in0.0 mm
01:23 PM 81.4°F27.4°C 38.9°F3.8°C 22% 4.0 mph ESE6.4 kmh ESE -- 30.00 in1015.9 mb 0.00 in0.0 mm 0.00 in0.0 mm 0.00 in0.0 mm
01:24 PM 81.7°F27.6°C 36.8°F2.7°C 20% 9.0 mph E14.5 kmh E -- 30.00 in1015.9 mb 0.00 in0.0 mm 0.00 in0.0 mm 0.00 in0.0 mm
01:25 PM 80.5°F26.9°C 38.1°F3.4°C 22% 3.0 mph ESE4.8 kmh ESE -- 30.00 in1015.9 mb 0.00 in0.0 mm 0.00 in0.0 mm 0.00 in0.0 mm
01:26 PM 81.0°F27.2°C 38.6°F3.7°C 22% 8.0 mph ESE12.9 kmh ESE -- 30.00 in1015.9 mb 0.00 in0.0 mm 0.00 in0.0 mm 0.00 in0.0 mm
01:27 PM 81.4°F27.4°C 42.2°F5.7°C 25% 6.0 mph ESE9.7 kmh ESE -- 30.00 in1015.9 mb 0.00 in0.0 mm 0.00 in0.0 mm 0.00 in0.0 mm
01:28 PM 80.7°F27.1°C 40.7°F4.8°C 24% 7.0 mph S11.3 kmh S -- 30.00 in1015.9 mb 0.00 in0.0 mm 0.00 in0.0 mm 0.00 in0.0 mm
01:29 PM 80.1°F26.7°C 41.1°F5.1°C 25% 7.0 mph E11.3 kmh E -- 30.00 in1015.9 mb 0.00 in0.0 mm 0.00 in0.0 mm 0.00 in0.0 mm
01:30 PM 81.0°F27.2°C 41.9°F5.5°C 25% 8.0 mph ESE12.9 kmh ESE -- 30.00 in1015.9 mb 0.00 in0.0 mm 0.00 in0.0 mm 0.00 in0.0 mm
01:31 PM 81.3°F27.4°C 42.2°F5.7°C 25% 8.0 mph S12.9 kmh S -- 30.01 in1016.3 mb 0.00 in0.0 mm 0.00 in0.0 mm 0.00 in0.0 mm
01:32 PM 80.1°F26.7°C 40.1°F4.5°C 24% 8.0 mph SSE12.9 kmh SSE -- 30.01 in1016.3 mb 0.00 in0.0 mm 0.00 in0.0 mm 0.00 in0.0 mm
01:33 PM 79.1°F26.2°C 39.3°F4.1°C 24% 8.0 mph SSW12.9 kmh SSW -- 30.00 in1015.9 mb 0.00 in0.0 mm 0.00 in0.0 mm 0.00 in0.0 mm
01:34 PM 79.0°F26.1°C 39.1°F3.9°C 24% 7.0 mph SSE11.3 kmh SSE -- 30.00 in1015.9 mb 0.00 in0.0 mm 0.00 in0.0 mm 0.00 in0.0 mm
01:35 PM 79.0°F26.1°C 39.1°F3.9°C 24% 5.0 mph S8.0 kmh S -- 30.00 in1015.9 mb 0.00 in0.0 mm 0.00 in0.0 mm 0.00 in0.0 mm
01:36 PM 79.1°F26.2°C 40.3°F4.6°C 25% 6.0 mph SSE9.7 kmh SSE -- 30.01 in1016.3 mb 0.00 in0.0 mm 0.00 in0.0 mm 0.00 in0.0 mm
01:37 PM 79.1°F26.2°C 40.3°F4.6°C 25% 4.0 mph ESE6.4 kmh ESE -- 30.00 in1015.9 mb 0.00 in0.0 mm 0.00 in0.0 mm 0.00 in0.0 mm
01:38 PM 79.1°F26.2°C 40.3°F4.6°C 25% 7.0 mph ESE11.3 kmh ESE -- 30.01 in1016.3 mb 0.00 in0.0 mm 0.00 in0.0 mm 0.00 in0.0 mm
01:39 PM 78.8°F26.0°C 40.0°F4.4°C 25% 6.0 mph S9.7 kmh S -- 30.00 in1015.9 mb 0.00 in0.0 mm 0.00 in0.0 mm 0.00 in0.0 mm
01:40 PM 78.8°F26.0°C 40.0°F4.4°C 25% 8.0 mph SSE12.9 kmh SSE -- 30.00 in1015.9 mb 0.00 in0.0 mm 0.00 in0.0 mm 0.00 in0.0 mm
01:41 PM 77.6°F25.3°C 38.9°F3.8°C 25% 11.0 mph S17.7 kmh S -- 30.00 in1015.9 mb 0.00 in0.0 mm 0.00 in0.0 mm 0.00 in0.0 mm
01:42 PM 77.8°F25.4°C 39.1°F3.9°C 25% 5.0 mph SE8.0 kmh SE -- 30.00 in1015.9 mb 0.00 in0.0 mm 0.00 in0.0 mm 0.00 in0.0 mm
01:43 PM 79.1°F26.2°C 40.3°F4.6°C 25% 6.0 mph SSE9.7 kmh SSE -- 30.00 in1015.9 mb 0.00 in0.0 mm 0.00 in0.0 mm 0.00 in0.0 mm
01:44 PM 79.6°F26.4°C 40.6°F4.8°C 25% 8.0 mph S12.9 kmh S -- 30.00 in1015.9 mb 0.00 in0.0 mm 0.00 in0.0 mm 0.00 in0.0 mm
01:45 PM 79.6°F26.4°C 40.6°F4.8°C 25% 9.0 mph SW14.5 kmh SW -- 30.00 in1015.9 mb 0.00 in0.0 mm 0.00 in0.0 mm 0.00 in0.0 mm
01:46 PM 79.3°F26.3°C 39.4°F4.1°C 24% 6.0 mph SSW9.7 kmh SSW -- 30.00 in1015.9 mb 0.00 in0.0 mm 0.00 in0.0 mm 0.00 in0.0 mm
01:47 PM 79.9°F26.6°C 40.9°F4.9°C 25% 5.0 mph SW8.0 kmh SW -- 30.00 in1015.9 mb 0.00 in0.0 mm 0.00 in0.0 mm 0.00 in0.0 mm
01:48 PM 80.1°F26.7°C 41.1°F5.1°C 25% 4.0 mph SSW6.4 kmh SSW -- 30.00 in1015.9 mb 0.00 in0.0 mm 0.00 in0.0 mm 0.00 in0.0 mm
01:49 PM 80.5°F26.9°C 40.4°F4.7°C 24% 5.0 mph S8.0 kmh S -- 30.00 in1015.9 mb 0.00 in0.0 mm 0.00 in0.0 mm 0.00 in0.0 mm
01:50 PM 80.3°F26.8°C 38.0°F3.3°C 22% 6.0 mph SSE9.7 kmh SSE -- 30.00 in1015.9 mb 0.00 in0.0 mm 0.00 in0.0 mm 0.00 in0.0 mm
01:51 PM 80.3°F26.8°C 38.0°F3.3°C 22% 5.0 mph SW8.0 kmh SW -- 30.00 in1015.9 mb 0.00 in0.0 mm 0.00 in0.0 mm 0.00 in0.0 mm
01:52 PM 80.3°F26.8°C 38.0°F3.3°C 22% 10.0 mph S16.1 kmh S -- 30.00 in1015.9 mb 0.00 in0.0 mm 0.00 in0.0 mm 0.00 in0.0 mm
01:53 PM 80.5°F26.9°C 41.4°F5.2°C 25% 9.0 mph S14.5 kmh S -- 30.00 in1015.9 mb 0.00 in0.0 mm 0.00 in0.0 mm 0.00 in0.0 mm
01:54 PM 80.7°F27.1°C 41.7°F5.4°C 25% 11.0 mph SSE17.7 kmh SSE -- 30.00 in1015.9 mb 0.00 in0.0 mm 0.00 in0.0 mm 0.00 in0.0 mm
01:55 PM 80.7°F27.1°C 41.7°F5.4°C 25% 12.0 mph S19.3 kmh S -- 30.00 in1015.9 mb 0.00 in0.0 mm 0.00 in0.0 mm 0.00 in0.0 mm
01:56 PM 80.3°F26.8°C 41.3°F5.2°C 25% 11.0 mph S17.7 kmh S -- 30.00 in1015.9 mb 0.00 in0.0 mm 0.00 in0.0 mm 0.00 in0.0 mm
01:57 PM 79.9°F26.6°C 39.9°F4.4°C 24% 10.0 mph S16.1 kmh S -- 30.00 in1015.9 mb 0.00 in0.0 mm 0.00 in0.0 mm 0.00 in0.0 mm
01:58 PM 80.1°F26.7°C 41.1°F5.1°C 25% 10.0 mph SSE16.1 kmh SSE -- 30.00 in1015.9 mb 0.00 in0.0 mm 0.00 in0.0 mm 0.00 in0.0 mm
01:59 PM 80.5°F26.9°C 40.4°F4.7°C 24% 14.0 mph SE22.5 kmh SE -- 30.00 in1015.9 mb 0.00 in0.0 mm 0.00 in0.0 mm 0.00 in0.0 mm
02:00 PM 79.9°F26.6°C 37.7°F3.2°C 22% 6.0 mph SSE9.7 kmh SSE -- 30.00 in1015.9 mb 0.00 in0.0 mm 0.00 in0.0 mm 0.00 in0.0 mm
02:01 PM 79.1°F26.2°C 37.1°F2.8°C 22% 10.0 mph SSE16.1 kmh SSE -- 30.00 in1015.9 mb 0.00 in0.0 mm 0.00 in0.0 mm 0.00 in0.0 mm
02:02 PM 79.4°F26.3°C 39.4°F4.1°C 24% 9.0 mph SSE14.5 kmh SSE -- 30.00 in1015.9 mb 0.00 in0.0 mm 0.00 in0.0 mm 0.00 in0.0 mm
02:03 PM 79.0°F26.1°C 39.1°F3.9°C 24% 5.0 mph SSW8.0 kmh SSW -- 30.00 in1015.9 mb 0.00 in0.0 mm 0.00 in0.0 mm 0.00 in0.0 mm
02:04 PM 79.4°F26.3°C 40.5°F4.7°C 25% 12.0 mph SE19.3 kmh SE -- 30.00 in1015.9 mb 0.00 in0.0 mm 0.00 in0.0 mm 0.00 in0.0 mm
02:05 PM 80.1°F26.7°C 41.1°F5.1°C 25% 8.0 mph S12.9 kmh S -- 30.00 in1015.9 mb 0.00 in0.0 mm 0.00 in0.0 mm 0.00 in0.0 mm
02:06 PM 80.1°F26.7°C 40.1°F4.5°C 24% 13.0 mph SSE20.9 kmh SSE -- 30.00 in1015.9 mb 0.00 in0.0 mm 0.00 in0.0 mm 0.00 in0.0 mm
02:07 PM 79.3°F26.3°C 40.5°F4.7°C 25% 8.0 mph SSE12.9 kmh SSE -- 30.00 in1015.9 mb 0.00 in0.0 mm 0.00 in0.0 mm 0.00 in0.0 mm
02:08 PM 78.5°F25.8°C 39.7°F4.3°C 25% 11.0 mph SE17.7 kmh SE -- 30.00 in1015.9 mb 0.00 in0.0 mm 0.00 in0.0 mm 0.00 in0.0 mm
02:09 PM 78.3°F25.7°C 39.6°F4.2°C 25% 15.0 mph SE24.1 kmh SE -- 30.00 in1015.9 mb 0.00 in0.0 mm 0.00 in0.0 mm 0.00 in0.0 mm
02:10 PM 78.5°F25.8°C 38.7°F3.7°C 24% 12.0 mph ESE19.3 kmh ESE -- 30.00 in1015.9 mb 0.00 in0.0 mm 0.00 in0.0 mm 0.00 in0.0 mm
02:11 PM 78.3°F25.7°C 39.6°F4.2°C 25% 11.0 mph SSE17.7 kmh SSE -- 30.00 in1015.9 mb 0.00 in0.0 mm 0.00 in0.0 mm 0.00 in0.0 mm
02:12 PM 77.4°F25.2°C 38.8°F3.8°C 25% 9.0 mph SSE14.5 kmh SSE -- 30.00 in1015.9 mb 0.00 in0.0 mm 0.00 in0.0 mm 0.00 in0.0 mm
02:13 PM 76.8°F24.9°C 38.3°F3.5°C 25% 11.0 mph S17.7 kmh S -- 30.00 in1015.9 mb 0.00 in0.0 mm 0.00 in0.0 mm 0.00 in0.0 mm
02:14 PM 76.4°F24.7°C 40.0°F4.4°C 27% 10.0 mph SSE16.1 kmh SSE -- 30.00 in1015.9 mb 0.00 in0.0 mm 0.00 in0.0 mm 0.00 in0.0 mm
02:15 PM 76.9°F24.9°C 38.3°F3.5°C 25% 8.0 mph SE12.9 kmh SE -- 30.00 in1015.9 mb 0.00 in0.0 mm 0.00 in0.0 mm 0.00 in0.0 mm
02:16 PM 77.4°F25.2°C 38.8°F3.8°C 25% 7.0 mph ESE11.3 kmh ESE -- 30.00 in1015.9 mb 0.00 in0.0 mm 0.00 in0.0 mm 0.00 in0.0 mm
02:17 PM 77.8°F25.4°C 39.1°F3.9°C 25% 8.0 mph ESE12.9 kmh ESE -- 30.00 in1015.9 mb 0.00 in0.0 mm 0.00 in0.0 mm 0.00 in0.0 mm
02:18 PM 78.3°F25.7°C 39.6°F4.2°C 25% 7.0 mph ESE11.3 kmh ESE -- 29.99 in1015.6 mb 0.00 in0.0 mm 0.00 in0.0 mm 0.00 in0.0 mm
02:19 PM 78.1°F25.6°C 39.4°F4.1°C 25% 8.0 mph SE12.9 kmh SE -- 30.00 in1015.9 mb 0.00 in0.0 mm 0.00 in0.0 mm 0.00 in0.0 mm
02:20 PM 77.8°F25.4°C 39.1°F3.9°C 25% 11.0 mph ESE17.7 kmh ESE -- 30.00 in1015.9 mb 0.00 in0.0 mm 0.00 in0.0 mm 0.00 in0.0 mm
02:21 PM 78.1°F25.6°C 39.4°F4.1°C 25% 10.0 mph SSE16.1 kmh SSE -- 30.00 in1015.9 mb 0.00 in0.0 mm 0.00 in0.0 mm 0.00 in0.0 mm
02:22 PM 78.3°F25.7°C 39.6°F4.2°C 25% 9.0 mph ESE14.5 kmh ESE -- 29.99 in1015.6 mb 0.00 in0.0 mm 0.00 in0.0 mm 0.00 in0.0 mm
02:23 PM 78.5°F25.8°C 38.7°F3.7°C 24% 8.0 mph SSE12.9 kmh SSE -- 30.00 in1015.9 mb 0.00 in0.0 mm 0.00 in0.0 mm 0.00 in0.0 mm
02:24 PM 78.5°F25.8°C 39.7°F4.3°C 25% 13.0 mph SE20.9 kmh SE -- 30.00 in1015.9 mb 0.00 in0.0 mm 0.00 in0.0 mm 0.00 in0.0 mm
02:25 PM 78.8°F26.0°C 40.0°F4.4°C 25% 8.0 mph ESE12.9 kmh ESE -- 30.00 in1015.9 mb 0.00 in0.0 mm 0.00 in0.0 mm 0.00 in0.0 mm
02:26 PM 78.5°F25.8°C 38.7°F3.7°C 24% 10.0 mph ESE16.1 kmh ESE -- 30.00 in1015.9 mb 0.00 in0.0 mm 0.00 in0.0 mm 0.00 in0.0 mm
02:27 PM 78.5°F25.8°C 38.7°F3.7°C 24% 13.0 mph ESE20.9 kmh ESE -- 30.00 in1015.9 mb 0.00 in0.0 mm 0.00 in0.0 mm 0.00 in0.0 mm
02:28 PM 78.5°F25.8°C 39.7°F4.3°C 25% 9.0 mph SE14.5 kmh SE -- 30.00 in1015.9 mb 0.00 in0.0 mm 0.00 in0.0 mm 0.00 in0.0 mm
02:29 PM 78.1°F25.6°C 39.4°F4.1°C 25% 12.0 mph ESE19.3 kmh ESE -- 30.00 in1015.9 mb 0.00 in0.0 mm 0.00 in0.0 mm 0.00 in0.0 mm
02:30 PM 77.6°F25.3°C 38.9°F3.8°C 25% 14.0 mph S22.5 kmh S -- 30.00 in1015.9 mb 0.00 in0.0 mm 0.00 in0.0 mm 0.00 in0.0 mm
02:31 PM 76.9°F24.9°C 38.3°F3.5°C 25% 16.0 mph SSE25.7 kmh SSE -- 30.00 in1015.9 mb 0.00 in0.0 mm 0.00 in0.0 mm 0.00 in0.0 mm
02:32 PM 76.4°F24.7°C 40.0°F4.4°C 27% 11.0 mph SSE17.7 kmh SSE -- 30.00 in1015.9 mb 0.00 in0.0 mm 0.00 in0.0 mm 0.00 in0.0 mm
02:33 PM 76.3°F24.6°C 39.8°F4.3°C 27% 13.0 mph ESE20.9 kmh ESE -- 30.00 in1015.9 mb 0.00 in0.0 mm 0.00 in0.0 mm 0.00 in0.0 mm
02:34 PM 76.3°F24.6°C 37.9°F3.3°C 25% 11.0 mph SE17.7 kmh SE -- 30.00 in1015.9 mb 0.00 in0.0 mm 0.00 in0.0 mm 0.00 in0.0 mm
02:35 PM 75.9°F24.4°C 39.5°F4.2°C 27% 10.0 mph SSE16.1 kmh SSE -- 30.00 in1015.9 mb 0.00 in0.0 mm 0.00 in0.0 mm 0.00 in0.0 mm
02:36 PM 75.9°F24.4°C 39.5°F4.2°C 27% 9.0 mph ESE14.5 kmh ESE -- 30.00 in1015.9 mb 0.00 in0.0 mm 0.00 in0.0 mm 0.00 in0.0 mm
02:37 PM 75.9°F24.4°C 39.5°F4.2°C 27% 8.0 mph SSE12.9 kmh SSE -- 30.00 in1015.9 mb 0.00 in0.0 mm 0.00 in0.0 mm 0.00 in0.0 mm
02:38 PM 75.6°F24.2°C 39.2°F4.0°C 27% 7.0 mph SE11.3 kmh SE -- 30.00 in1015.9 mb 0.00 in0.0 mm 0.00 in0.0 mm 0.00 in0.0 mm
02:39 PM 75.5°F24.2°C 39.2°F4.0°C 27% 10.0 mph ESE16.1 kmh ESE -- 30.00 in1015.9 mb 0.00 in0.0 mm 0.00 in0.0 mm 0.00 in0.0 mm
02:40 PM 75.9°F24.4°C 37.6°F3.1°C 25% 10.0 mph SE16.1 kmh SE -- 30.00 in1015.9 mb 0.00 in0.0 mm 0.00 in0.0 mm 0.00 in0.0 mm
02:41 PM 75.9°F24.4°C 37.6°F3.1°C 25% 11.0 mph SE17.7 kmh SE -- 30.00 in1015.9 mb 0.00 in0.0 mm 0.00 in0.0 mm 0.00 in0.0 mm
02:42 PM 75.9°F24.4°C 37.6°F3.1°C 25% 9.0 mph ESE14.5 kmh ESE -- 30.00 in1015.9 mb 0.00 in0.0 mm 0.00 in0.0 mm 0.00 in0.0 mm
02:43 PM 75.6°F24.2°C 39.2°F4.0°C 27% 9.0 mph ESE14.5 kmh ESE -- 30.00 in1015.9 mb 0.00 in0.0 mm 0.00 in0.0 mm 0.00 in0.0 mm
02:44 PM 75.6°F24.2°C 37.2°F2.9°C 25% 11.0 mph SE17.7 kmh SE -- 30.00 in1015.9 mb 0.00 in0.0 mm 0.00 in0.0 mm 0.00 in0.0 mm
02:45 PM 75.5°F24.2°C 39.2°F4.0°C 27% 12.0 mph S19.3 kmh S -- 30.00 in1015.9 mb 0.00 in0.0 mm 0.00 in0.0 mm 0.00 in0.0 mm
02:46 PM 75.3°F24.1°C 39.0°F3.9°C 27% 9.0 mph SSE14.5 kmh SSE -- 29.99 in1015.6 mb 0.00 in0.0 mm 0.00 in0.0 mm 0.00 in0.0 mm
02:47 PM 75.3°F24.1°C 39.0°F3.9°C 27% 9.0 mph SE14.5 kmh SE -- 30.00 in1015.9 mb 0.00 in0.0 mm 0.00 in0.0 mm 0.00 in0.0 mm
02:48 PM 75.3°F24.1°C 39.0°F3.9°C 27% 10.0 mph SE16.1 kmh SE -- 30.00 in1015.9 mb 0.00 in0.0 mm 0.00 in0.0 mm 0.00 in0.0 mm
02:49 PM 75.3°F24.1°C 39.0°F3.9°C 27% 7.0 mph ESE11.3 kmh ESE -- 30.00 in1015.9 mb 0.00 in0.0 mm 0.00 in0.0 mm 0.00 in0.0 mm
02:50 PM 75.3°F24.1°C 37.1°F2.8°C 25% 7.0 mph ESE11.3 kmh ESE -- 30.00 in1015.9 mb 0.00 in0.0 mm 0.00 in0.0 mm 0.00 in0.0 mm
02:51 PM 75.3°F24.1°C 39.0°F3.9°C 27% 9.0 mph SE14.5 kmh SE -- 30.00 in1015.9 mb 0.00 in0.0 mm 0.00 in0.0 mm 0.00 in0.0 mm
02:52 PM 75.3°F24.1°C 37.1°F2.8°C 25% 7.0 mph SE11.3 kmh SE -- 30.00 in1015.9 mb 0.00 in0.0 mm 0.00 in0.0 mm 0.00 in0.0 mm
02:53 PM 75.3°F24.1°C 39.0°F3.9°C 27% 7.0 mph ESE11.3 kmh ESE -- 30.00 in1015.9 mb 0.00 in0.0 mm 0.00 in0.0 mm 0.00 in0.0 mm
02:54 PM 75.3°F24.1°C 37.1°F2.8°C 25% 9.0 mph SE14.5 kmh SE -- 30.00 in1015.9 mb 0.00 in0.0 mm 0.00 in0.0 mm 0.00 in0.0 mm
02:55 PM 75.3°F24.1°C 37.1°F2.8°C 25% 6.0 mph SE9.7 kmh SE -- 30.00 in1015.9 mb 0.00 in0.0 mm 0.00 in0.0 mm 0.00 in0.0 mm
02:56 PM 75.3°F24.1°C 39.0°F3.9°C 27% 9.0 mph ESE14.5 kmh ESE -- 29.99 in1015.6 mb 0.00 in0.0 mm 0.00 in0.0 mm 0.00 in0.0 mm
02:57 PM 75.3°F24.1°C 39.0°F3.9°C 27% 7.0 mph SE11.3 kmh SE -- 29.99 in1015.6 mb 0.00 in0.0 mm 0.00 in0.0 mm 0.00 in0.0 mm
02:58 PM 75.5°F24.2°C 39.2°F4.0°C 27% 7.0 mph ESE11.3 kmh ESE -- 29.99 in1015.6 mb 0.00 in0.0 mm 0.00 in0.0 mm 0.00 in0.0 mm
02:59 PM 75.9°F24.4°C 39.5°F4.2°C 27% 9.0 mph ESE14.5 kmh ESE -- 29.99 in1015.6 mb 0.00 in0.0 mm 0.00 in0.0 mm 0.00 in0.0 mm
03:00 PM 75.6°F24.2°C 39.2°F4.0°C 27% 11.0 mph ESE17.7 kmh ESE -- 29.99 in1015.6 mb 0.00 in0.0 mm 0.00 in0.0 mm 0.00 in0.0 mm
03:01 PM 75.6°F24.2°C 39.2°F4.0°C 27% 8.0 mph SSE12.9 kmh SSE -- 30.00 in1015.9 mb 0.00 in0.0 mm 0.00 in0.0 mm 0.00 in0.0 mm
03:02 PM 75.3°F24.1°C 37.1°F2.8°C 25% 9.0 mph SE14.5 kmh SE -- 29.99 in1015.6 mb 0.00 in0.0 mm 0.00 in0.0 mm 0.00 in0.0 mm
03:03 PM 75.3°F24.1°C 39.0°F3.9°C 27% 9.0 mph ESE14.5 kmh ESE -- 29.99 in1015.6 mb 0.00 in0.0 mm 0.00 in0.0 mm 0.00 in0.0 mm
03:04 PM 75.3°F24.1°C 39.0°F3.9°C 27% 10.0 mph ESE16.1 kmh ESE -- 29.99 in1015.6 mb 0.00 in0.0 mm 0.00 in0.0 mm 0.00 in0.0 mm
03:05 PM 75.3°F24.1°C 37.1°F2.8°C 25% 8.0 mph SSE12.9 kmh SSE -- 29.99 in1015.6 mb 0.00 in0.0 mm 0.00 in0.0 mm 0.00 in0.0 mm
03:06 PM 75.3°F24.1°C 39.0°F3.9°C 27% 12.0 mph E19.3 kmh E -- 29.99 in1015.6 mb 0.00 in0.0 mm 0.00 in0.0 mm 0.00 in0.0 mm
03:07 PM 75.5°F24.2°C 39.2°F4.0°C 27% 8.0 mph ESE12.9 kmh ESE -- 29.99 in1015.6 mb 0.00 in0.0 mm 0.00 in0.0 mm 0.00 in0.0 mm
03:08 PM 75.5°F24.2°C 39.2°F4.0°C 27% 11.0 mph ESE17.7 kmh ESE -- 29.99 in1015.6 mb 0.00 in0.0 mm 0.00 in0.0 mm 0.00 in0.0 mm
03:09 PM 75.5°F24.2°C 39.2°F4.0°C 27% 9.0 mph ESE14.5 kmh ESE -- 29.99 in1015.6 mb 0.00 in0.0 mm 0.00 in0.0 mm 0.00 in0.0 mm
03:10 PM 75.5°F24.2°C 39.2°F4.0°C 27% 12.0 mph ESE19.3 kmh ESE -- 29.99 in1015.6 mb 0.00 in0.0 mm 0.00 in0.0 mm 0.00 in0.0 mm
03:11 PM 75.5°F24.2°C 39.2°F4.0°C 27% 9.0 mph SSE14.5 kmh SSE -- 29.99 in1015.6 mb 0.00 in0.0 mm 0.00 in0.0 mm 0.00 in0.0 mm
03:12 PM 75.5°F24.2°C 39.2°F4.0°C 27% 8.0 mph SE12.9 kmh SE -- 29.99 in1015.6 mb 0.00 in0.0 mm 0.00 in0.0 mm 0.00 in0.0 mm
03:13 PM 75.5°F24.2°C 39.2°F4.0°C 27% 8.0 mph SSE12.9 kmh SSE -- 29.99 in1015.6 mb 0.00 in0.0 mm 0.00 in0.0 mm 0.00 in0.0 mm
03:14 PM 76.0°F24.4°C 39.5°F4.2°C 27% 9.0 mph SSE14.5 kmh SSE -- 29.99 in1015.6 mb 0.00 in0.0 mm 0.00 in0.0 mm 0.00 in0.0 mm
03:15 PM 76.8°F24.9°C 38.3°F3.5°C 25% 10.0 mph SSE16.1 kmh SSE -- 30.00 in1015.9 mb 0.00 in0.0 mm 0.00 in0.0 mm 0.00 in0.0 mm
03:16 PM 77.1°F25.1°C 40.6°F4.8°C 27% 6.0 mph ESE9.7 kmh ESE -- 29.99 in1015.6 mb 0.00 in0.0 mm 0.00 in0.0 mm 0.00 in0.0 mm
03:17 PM 77.8°F25.4°C 41.1°F5.1°C 27% 9.0 mph ESE14.5 kmh ESE -- 29.99 in1015.6 mb 0.00 in0.0 mm 0.00 in0.0 mm 0.00 in0.0 mm
03:18 PM 77.8°F25.4°C 41.1°F5.1°C 27% 9.0 mph SE14.5 kmh SE -- 29.99 in1015.6 mb 0.00 in0.0 mm 0.00 in0.0 mm 0.00 in0.0 mm
03:19 PM 77.8°F25.4°C 41.1°F5.1°C 27% 8.0 mph SSE12.9 kmh SSE -- 29.99 in1015.6 mb 0.00 in0.0 mm 0.00 in0.0 mm 0.00 in0.0 mm
03:20 PM 77.6°F25.3°C 40.9°F4.9°C 27% 11.0 mph S17.7 kmh S -- 29.99 in1015.6 mb 0.00 in0.0 mm 0.00 in0.0 mm 0.00 in0.0 mm
03:21 PM 77.6°F25.3°C 40.9°F4.9°C 27% 9.0 mph SSE14.5 kmh SSE -- 29.99 in1015.6 mb 0.00 in0.0 mm 0.00 in0.0 mm 0.00 in0.0 mm
03:22 PM 77.6°F25.3°C 40.9°F4.9°C 27% 12.0 mph ESE19.3 kmh ESE -- 29.99 in1015.6 mb 0.00 in0.0 mm 0.00 in0.0 mm 0.00 in0.0 mm
03:23 PM 77.8°F25.4°C 41.1°F5.1°C 27% 13.0 mph S20.9 kmh S -- 29.99 in1015.6 mb 0.00 in0.0 mm 0.00 in0.0 mm 0.00 in0.0 mm
03:24 PM 77.5°F25.3°C 40.9°F4.9°C 27% 13.0 mph ESE20.9 kmh ESE -- 29.99 in1015.6 mb 0.00 in0.0 mm 0.00 in0.0 mm 0.00 in0.0 mm
03:25 PM 76.9°F24.9°C 40.3°F4.6°C 27% 11.0 mph SE17.7 kmh SE -- 29.99 in1015.6 mb 0.00 in0.0 mm 0.00 in0.0 mm 0.00 in0.0 mm
03:26 PM 76.5°F24.7°C 40.0°F4.4°C 27% 9.0 mph ESE14.5 kmh ESE -- 29.99 in1015.6 mb 0.00 in0.0 mm 0.00 in0.0 mm 0.00 in0.0 mm
03:27 PM 76.3°F24.6°C 39.8°F4.3°C 27% 9.0 mph ESE14.5 kmh ESE -- 29.99 in1015.6 mb 0.00 in0.0 mm 0.00 in0.0 mm 0.00 in0.0 mm
03:28 PM 76.4°F24.7°C 40.0°F4.4°C 27% 10.0 mph SE16.1 kmh SE -- 29.99 in1015.6 mb 0.00 in0.0 mm 0.00 in0.0 mm 0.00 in0.0 mm
03:29 PM 76.3°F24.6°C 39.8°F4.3°C 27% 9.0 mph ESE14.5 kmh ESE -- 29.99 in1015.6 mb 0.00 in0.0 mm 0.00 in0.0 mm 0.00 in0.0 mm
03:30 PM 76.4°F24.7°C 40.0°F4.4°C 27% 11.0 mph ESE17.7 kmh ESE -- 29.99 in1015.6 mb 0.00 in0.0 mm 0.00 in0.0 mm 0.00 in0.0 mm
03:31 PM 76.3°F24.6°C 39.8°F4.3°C 27% 10.0 mph ESE16.1 kmh ESE -- 29.99 in1015.6 mb 0.00 in0.0 mm 0.00 in0.0 mm 0.00 in0.0 mm
03:32 PM 76.3°F24.6°C 39.8°F4.3°C 27% 11.0 mph SE17.7 kmh SE -- 29.99 in1015.6 mb 0.00 in0.0 mm 0.00 in0.0 mm 0.00 in0.0 mm
03:33 PM 75.9°F24.4°C 39.5°F4.2°C 27% 9.0 mph SE14.5 kmh SE -- 29.99 in1015.6 mb 0.00 in0.0 mm 0.00 in0.0 mm 0.00 in0.0 mm
03:34 PM 75.6°F24.2°C 39.2°F4.0°C 27% 10.0 mph SSE16.1 kmh SSE -- 29.99 in1015.6 mb 0.00 in0.0 mm 0.00 in0.0 mm 0.00 in0.0 mm
03:35 PM 75.5°F24.2°C 39.2°F4.0°C 27% 9.0 mph SE14.5 kmh SE -- 29.99 in1015.6 mb 0.00 in0.0 mm 0.00 in0.0 mm 0.00 in0.0 mm
03:36 PM 75.3°F24.1°C 41.8°F5.4°C 30% 10.0 mph ESE16.1 kmh ESE -- 29.99 in1015.6 mb 0.00 in0.0 mm 0.00 in0.0 mm 0.00 in0.0 mm
03:37 PM 75.3°F24.1°C 40.9°F4.9°C 29% 11.0 mph SE17.7 kmh SE -- 29.99 in1015.6 mb 0.00 in0.0 mm 0.00 in0.0 mm 0.00 in0.0 mm
03:38 PM 75.3°F24.1°C 40.9°F4.9°C 29% 9.0 mph SE14.5 kmh SE -- 29.99 in1015.6 mb 0.00 in0.0 mm 0.00 in0.0 mm 0.00 in0.0 mm
03:39 PM 75.1°F23.9°C 41.4°F5.2°C 30% 10.0 mph SE16.1 kmh SE -- 29.99 in1015.6 mb 0.00 in0.0 mm 0.00 in0.0 mm 0.00 in0.0 mm
03:42 PM 75.0°F23.9°C 41.4°F5.2°C 30% 10.0 mph S16.1 kmh S -- 29.99 in1015.6 mb 0.00 in0.0 mm 0.00 in0.0 mm 0.00 in0.0 mm
03:43 PM 75.0°F23.9°C 40.6°F4.8°C 29% 12.0 mph SE19.3 kmh SE -- 29.99 in1015.6 mb 0.00 in0.0 mm 0.00 in0.0 mm 0.00 in0.0 mm
03:44 PM 75.0°F23.9°C 40.6°F4.8°C 29% 10.0 mph SE16.1 kmh SE -- 29.99 in1015.6 mb 0.00 in0.0 mm 0.00 in0.0 mm 0.00 in0.0 mm
03:45 PM 75.1°F23.9°C 40.6°F4.8°C 29% 12.0 mph SE19.3 kmh SE -- 29.99 in1015.6 mb 0.00 in0.0 mm 0.00 in0.0 mm 0.00 in0.0 mm
03:46 PM 75.1°F23.9°C 40.6°F4.8°C 29% 11.0 mph SE17.7 kmh SE -- 29.99 in1015.6 mb 0.00 in0.0 mm 0.00 in0.0 mm 0.00 in0.0 mm
03:47 PM 75.0°F23.9°C 40.6°F4.8°C 29% 9.0 mph SE14.5 kmh SE -- 29.99 in1015.6 mb 0.00 in0.0 mm 0.00 in0.0 mm 0.00 in0.0 mm
03:48 PM 75.0°F23.9°C 41.4°F5.2°C 30% 10.0 mph ESE16.1 kmh ESE -- 29.99 in1015.6 mb 0.00 in0.0 mm 0.00 in0.0 mm 0.00 in0.0 mm
03:49 PM 75.0°F23.9°C 41.4°F5.2°C 30% 9.0 mph ESE14.5 kmh ESE -- 29.99 in1015.6 mb 0.00 in0.0 mm 0.00 in0.0 mm 0.00 in0.0 mm
03:50 PM 74.8°F23.8°C 41.3°F5.2°C 30% 8.0 mph SSE12.9 kmh SSE -- 29.99 in1015.6 mb 0.00 in0.0 mm 0.00 in0.0 mm 0.00 in0.0 mm
03:51 PM 74.6°F23.7°C 41.1°F5.1°C 30% 8.0 mph SE12.9 kmh SE -- 29.99 in1015.6 mb 0.00 in0.0 mm 0.00 in0.0 mm 0.00 in0.0 mm
03:52 PM 74.6°F23.7°C 41.1°F5.1°C 30% 11.0 mph SE17.7 kmh SE -- 30.00 in1015.9 mb 0.00 in0.0 mm 0.00 in0.0 mm 0.00 in0.0 mm
03:53 PM 74.6°F23.7°C 41.1°F5.1°C 30% 12.0 mph SSE19.3 kmh SSE -- 29.99 in1015.6 mb 0.00 in0.0 mm 0.00 in0.0 mm 0.00 in0.0 mm
03:54 PM 74.6°F23.7°C 40.3°F4.6°C 29% 9.0 mph SE14.5 kmh SE -- 29.99 in1015.6 mb 0.00 in0.0 mm 0.00 in0.0 mm 0.00 in0.0 mm
03:55 PM 74.4°F23.6°C 41.0°F5.0°C 30% 6.0 mph SSE9.7 kmh SSE -- 29.99 in1015.6 mb 0.00 in0.0 mm 0.00 in0.0 mm 0.00 in0.0 mm
03:56 PM 74.4°F23.6°C 41.8°F5.4°C 31% 11.0 mph ESE17.7 kmh ESE -- 29.99 in1015.6 mb 0.00 in0.0 mm 0.00 in0.0 mm 0.00 in0.0 mm
03:57 PM 74.4°F23.6°C 41.8°F5.4°C 31% 8.0 mph SE12.9 kmh SE -- 29.99 in1015.6 mb 0.00 in0.0 mm 0.00 in0.0 mm 0.00 in0.0 mm
03:58 PM 74.4°F23.6°C 41.0°F5.0°C 30% 10.0 mph ESE16.1 kmh ESE -- 29.99 in1015.6 mb 0.00 in0.0 mm 0.00 in0.0 mm 0.00 in0.0 mm
03:59 PM 74.4°F23.6°C 41.0°F5.0°C 30% 11.0 mph ESE17.7 kmh ESE -- 29.99 in1015.6 mb 0.00 in0.0 mm 0.00 in0.0 mm 0.00 in0.0 mm
04:00 PM 74.6°F23.7°C 40.3°F4.6°C 29% 12.0 mph SSE19.3 kmh SSE -- 29.99 in1015.6 mb 0.00 in0.0 mm 0.00 in0.0 mm 0.00 in0.0 mm
04:01 PM 74.6°F23.7°C 40.3°F4.6°C 29% 14.0 mph S22.5 kmh S -- 29.99 in1015.6 mb 0.00 in0.0 mm 0.00 in0.0 mm 0.00 in0.0 mm
04:02 PM 74.4°F23.6°C 41.0°F5.0°C 30% 12.0 mph SSE19.3 kmh SSE -- 29.99 in1015.6 mb 0.00 in0.0 mm 0.00 in0.0 mm 0.00 in0.0 mm
04:03 PM 74.4°F23.6°C 40.1°F4.5°C 29% 10.0 mph ESE16.1 kmh ESE -- 29.99 in1015.6 mb 0.00 in0.0 mm 0.00 in0.0 mm 0.00 in0.0 mm
04:04 PM 74.6°F23.7°C 41.1°F5.1°C 30% 9.0 mph ESE14.5 kmh ESE -- 29.99 in1015.6 mb 0.00 in0.0 mm 0.00 in0.0 mm 0.00 in0.0 mm
04:05 PM 75.0°F23.9°C 41.4°F5.2°C 30% 9.0 mph SSE14.5 kmh SSE -- 29.99 in1015.6 mb 0.00 in0.0 mm 0.00 in0.0 mm 0.00 in0.0 mm
04:06 PM 75.3°F24.1°C 41.8°F5.4°C 30% 10.0 mph ESE16.1 kmh ESE -- 29.99 in1015.6 mb 0.00 in0.0 mm 0.00 in0.0 mm 0.00 in0.0 mm
04:07 PM 75.3°F24.1°C 42.6°F5.9°C 31% 11.0 mph ESE17.7 kmh ESE -- 29.99 in1015.6 mb 0.00 in0.0 mm 0.00 in0.0 mm 0.00 in0.0 mm
04:08 PM 75.3°F24.1°C 41.8°F5.4°C 30% 8.0 mph ESE12.9 kmh ESE -- 29.99 in1015.6 mb 0.00 in0.0 mm 0.00 in0.0 mm 0.00 in0.0 mm
04:09 PM 75.1°F23.9°C 41.4°F5.2°C 30% 11.0 mph SE17.7 kmh SE -- 29.99 in1015.6 mb 0.00 in0.0 mm 0.00 in0.0 mm 0.00 in0.0 mm
04:10 PM 75.0°F23.9°C 41.4°F5.2°C 30% 12.0 mph ESE19.3 kmh ESE -- 29.99 in1015.6 mb 0.00 in0.0 mm 0.00 in0.0 mm 0.00 in0.0 mm
04:11 PM 75.0°F23.9°C 41.4°F5.2°C 30% 11.0 mph ESE17.7 kmh ESE -- 29.99 in1015.6 mb 0.00 in0.0 mm 0.00 in0.0 mm 0.00 in0.0 mm
04:12 PM 74.8°F23.8°C 41.3°F5.2°C 30% 10.0 mph ESE16.1 kmh ESE -- 29.99 in1015.6 mb 0.00 in0.0 mm 0.00 in0.0 mm 0.00 in0.0 mm
04:13 PM 75.0°F23.9°C 41.4°F5.2°C 30% 9.0 mph ESE14.5 kmh ESE -- 29.99 in1015.6 mb 0.00 in0.0 mm 0.00 in0.0 mm 0.00 in0.0 mm
04:14 PM 75.0°F23.9°C 41.4°F5.2°C 30% 12.0 mph SE19.3 kmh SE -- 29.99 in1015.6 mb 0.00 in0.0 mm 0.00 in0.0 mm 0.00 in0.0 mm
04:15 PM 75.1°F23.9°C 41.4°F5.2°C 30% 11.0 mph SSE17.7 kmh SSE -- 29.99 in1015.6 mb 0.00 in0.0 mm 0.00 in0.0 mm 0.00 in0.0 mm
04:16 PM 75.3°F24.1°C 39.0°F3.9°C 27% 10.0 mph SE16.1 kmh SE -- 29.99 in1015.6 mb 0.00 in0.0 mm 0.00 in0.0 mm 0.00 in0.0 mm
04:17 PM 75.3°F24.1°C 39.0°F3.9°C 27% 11.0 mph SSE17.7 kmh SSE -- 29.99 in1015.6 mb 0.00 in0.0 mm 0.00 in0.0 mm 0.00 in0.0 mm
04:18 PM 75.1°F23.9°C 38.7°F3.7°C 27% 10.0 mph SE16.1 kmh SE -- 29.99 in1015.6 mb 0.00 in0.0 mm 0.00 in0.0 mm 0.00 in0.0 mm
04:19 PM 75.0°F23.9°C 41.4°F5.2°C 30% 7.0 mph ESE11.3 kmh ESE -- 29.99 in1015.6 mb 0.00 in0.0 mm 0.00 in0.0 mm 0.00 in0.0 mm
04:20 PM 74.8°F23.8°C 41.3°F5.2°C 30% 9.0 mph ESE14.5 kmh ESE -- 29.99 in1015.6 mb 0.00 in0.0 mm 0.00 in0.0 mm 0.00 in0.0 mm
04:21 PM 74.8°F23.8°C 41.3°F5.2°C 30% 12.0 mph SE19.3 kmh SE -- 29.98 in1015.2 mb 0.00 in0.0 mm 0.00 in0.0 mm 0.00 in0.0 mm
04:22 PM 74.8°F23.8°C 41.3°F5.2°C 30% 13.0 mph SE20.9 kmh SE -- 29.98 in1015.2 mb 0.00 in0.0 mm 0.00 in0.0 mm 0.00 in0.0 mm
04:23 PM 74.8°F23.8°C 41.3°F5.2°C 30% 11.0 mph ESE17.7 kmh ESE -- 29.98 in1015.2 mb 0.00 in0.0 mm 0.00 in0.0 mm 0.00 in0.0 mm
04:24 PM 74.8°F23.8°C 41.3°F5.2°C 30% 9.0 mph SE14.5 kmh SE -- 29.98 in1015.2 mb 0.00 in0.0 mm 0.00 in0.0 mm 0.00 in0.0 mm
04:25 PM 74.8°F23.8°C 41.3°F5.2°C 30% 12.0 mph ESE19.3 kmh ESE -- 29.99 in1015.6 mb 0.00 in0.0 mm 0.00 in0.0 mm 0.00 in0.0 mm
04:26 PM 74.8°F23.8°C 41.3°F5.2°C 30% 13.0 mph ESE20.9 kmh ESE -- 29.99 in1015.6 mb 0.00 in0.0 mm 0.00 in0.0 mm 0.00 in0.0 mm
04:27 PM 75.0°F23.9°C 41.4°F5.2°C 30% 9.0 mph SSE14.5 kmh SSE -- 29.99 in1015.6 mb 0.00 in0.0 mm 0.00 in0.0 mm 0.00 in0.0 mm
04:28 PM 74.8°F23.8°C 40.4°F4.7°C 29% 13.0 mph SSE20.9 kmh SSE -- 29.99 in1015.6 mb 0.00 in0.0 mm 0.00 in0.0 mm 0.00 in0.0 mm
04:29 PM 74.8°F23.8°C 40.4°F4.7°C 29% 8.0 mph SSE12.9 kmh SSE -- 29.99 in1015.6 mb 0.00 in0.0 mm 0.00 in0.0 mm 0.00 in0.0 mm
04:30 PM 74.6°F23.7°C 41.1°F5.1°C 30% 9.0 mph SSE14.5 kmh SSE -- 29.99 in1015.6 mb 0.00 in0.0 mm 0.00 in0.0 mm 0.00 in0.0 mm
04:31 PM 74.4°F23.6°C 41.0°F5.0°C 30% 9.0 mph SSE14.5 kmh SSE -- 29.99 in1015.6 mb 0.00 in0.0 mm 0.00 in0.0 mm 0.00 in0.0 mm
04:32 PM 74.3°F23.5°C 40.8°F4.9°C 30% 11.0 mph SSE17.7 kmh SSE -- 29.99 in1015.6 mb 0.00 in0.0 mm 0.00 in0.0 mm 0.00 in0.0 mm
04:33 PM 74.3°F23.5°C 40.8°F4.9°C 30% 11.0 mph S17.7 kmh S -- 29.98 in1015.2 mb 0.00 in0.0 mm 0.00 in0.0 mm 0.00 in0.0 mm
04:34 PM 74.3°F23.5°C 40.8°F4.9°C 30% 10.0 mph SSE16.1 kmh SSE -- 29.98 in1015.2 mb 0.00 in0.0 mm 0.00 in0.0 mm 0.00 in0.0 mm
04:35 PM 74.3°F23.5°C 40.8°F4.9°C 30% 11.0 mph SSE17.7 kmh SSE -- 29.98 in1015.2 mb 0.00 in0.0 mm 0.00 in0.0 mm 0.00 in0.0 mm
04:36 PM 74.4°F23.6°C 41.0°F5.0°C 30% 14.0 mph SE22.5 kmh SE -- 29.98 in1015.2 mb 0.00 in0.0 mm 0.00 in0.0 mm 0.00 in0.0 mm
04:37 PM 74.6°F23.7°C 41.1°F5.1°C 30% 9.0 mph SSE14.5 kmh SSE -- 29.98 in1015.2 mb 0.00 in0.0 mm 0.00 in0.0 mm 0.00 in0.0 mm
04:38 PM 74.6°F23.7°C 41.1°F5.1°C 30% 9.0 mph ESE14.5 kmh ESE -- 29.98 in1015.2 mb 0.00 in0.0 mm 0.00 in0.0 mm 0.00 in0.0 mm
04:39 PM 74.6°F23.7°C 41.1°F5.1°C 30% 10.0 mph SE16.1 kmh SE -- 29.98 in1015.2 mb 0.00 in0.0 mm 0.00 in0.0 mm 0.00 in0.0 mm
04:40 PM 74.6°F23.7°C 41.1°F5.1°C 30% 7.0 mph ESE11.3 kmh ESE -- 29.98 in1015.2 mb 0.00 in0.0 mm 0.00 in0.0 mm 0.00 in0.0 mm
04:41 PM 74.6°F23.7°C 41.1°F5.1°C 30% 8.0 mph ESE12.9 kmh ESE -- 29.98 in1015.2 mb 0.00 in0.0 mm 0.00 in0.0 mm 0.00 in0.0 mm
04:42 PM 74.4°F23.6°C 41.0°F5.0°C 30% 10.0 mph SE16.1 kmh SE -- 29.98 in1015.2 mb 0.00 in0.0 mm 0.00 in0.0 mm 0.00 in0.0 mm
04:43 PM 74.4°F23.6°C 41.0°F5.0°C 30% 8.0 mph SSE12.9 kmh SSE -- 29.98 in1015.2 mb 0.00 in0.0 mm 0.00 in0.0 mm 0.00 in0.0 mm
04:44 PM 74.4°F23.6°C 41.0°F5.0°C 30% 10.0 mph ESE16.1 kmh ESE -- 29.98 in1015.2 mb 0.00 in0.0 mm 0.00 in0.0 mm 0.00 in0.0 mm
04:45 PM 74.3°F23.5°C 40.8°F4.9°C 30% 8.0 mph SE12.9 kmh SE -- 29.98 in1015.2 mb 0.00 in0.0 mm 0.00 in0.0 mm 0.00 in0.0 mm
04:46 PM 74.0°F23.3°C 40.5°F4.7°C 30% 8.0 mph SE12.9 kmh SE -- 29.98 in1015.2 mb 0.00 in0.0 mm 0.00 in0.0 mm 0.00 in0.0 mm
04:47 PM 74.0°F23.3°C 40.5°F4.7°C 30% 7.0 mph SE11.3 kmh SE -- 29.98 in1015.2 mb 0.00 in0.0 mm 0.00 in0.0 mm 0.00 in0.0 mm
04:48 PM 73.9°F23.3°C 40.5°F4.7°C 30% 8.0 mph SE12.9 kmh SE -- 29.98 in1015.2 mb 0.00 in0.0 mm 0.00 in0.0 mm 0.00 in0.0 mm
04:49 PM 73.9°F23.3°C 40.5°F4.7°C 30% 9.0 mph S14.5 kmh S -- 29.97 in1014.9 mb 0.00 in0.0 mm 0.00 in0.0 mm 0.00 in0.0 mm
04:50 PM 74.0°F23.3°C 40.5°F4.7°C 30% 6.0 mph ESE9.7 kmh ESE -- 29.97 in1014.9 mb 0.00 in0.0 mm 0.00 in0.0 mm 0.00 in0.0 mm
04:51 PM 74.4°F23.6°C 41.0°F5.0°C 30% 6.0 mph SE9.7 kmh SE -- 29.97 in1014.9 mb 0.00 in0.0 mm 0.00 in0.0 mm 0.00 in0.0 mm
04:52 PM 74.6°F23.7°C 41.1°F5.1°C 30% 8.0 mph SE12.9 kmh SE -- 29.97 in1014.9 mb 0.00 in0.0 mm 0.00 in0.0 mm 0.00 in0.0 mm
04:53 PM 75.1°F23.9°C 41.4°F5.2°C 30% 7.0 mph SSE11.3 kmh SSE -- 29.98 in1015.2 mb 0.00 in0.0 mm 0.00 in0.0 mm 0.00 in0.0 mm
04:54 PM 75.3°F24.1°C 41.8°F5.4°C 30% 9.0 mph SSE14.5 kmh SSE -- 29.98 in1015.2 mb 0.00 in0.0 mm 0.00 in0.0 mm 0.00 in0.0 mm
04:55 PM 75.5°F24.2°C 41.0°F5.0°C 29% 7.0 mph SSE11.3 kmh SSE -- 29.98 in1015.2 mb 0.00 in0.0 mm 0.00 in0.0 mm 0.00 in0.0 mm
04:56 PM 75.6°F24.2°C 41.9°F5.5°C 30% 7.0 mph SSE11.3 kmh SSE -- 29.98 in1015.2 mb 0.00 in0.0 mm 0.00 in0.0 mm 0.00 in0.0 mm
04:57 PM 75.5°F24.2°C 41.9°F5.5°C 30% 6.0 mph SSE9.7 kmh SSE -- 29.98 in1015.2 mb 0.00 in0.0 mm 0.00 in0.0 mm 0.00 in0.0 mm
04:58 PM 75.0°F23.9°C 41.4°F5.2°C 30% 10.0 mph SSE16.1 kmh SSE -- 29.98 in1015.2 mb 0.00 in0.0 mm 0.00 in0.0 mm 0.00 in0.0 mm
04:59 PM 74.6°F23.7°C 41.1°F5.1°C 30% 11.0 mph ESE17.7 kmh ESE -- 29.98 in1015.2 mb 0.00 in0.0 mm 0.00 in0.0 mm 0.00 in0.0 mm
05:00 PM 74.4°F23.6°C 41.0°F5.0°C 30% 9.0 mph SSE14.5 kmh SSE -- 29.98 in1015.2 mb 0.00 in0.0 mm 0.00 in0.0 mm 0.00 in0.0 mm
05:01 PM 74.3°F23.5°C 40.8°F4.9°C 30% 6.0 mph SSE9.7 kmh SSE -- 29.97 in1014.9 mb 0.00 in0.0 mm 0.00 in0.0 mm 0.00 in0.0 mm
05:02 PM 74.3°F23.5°C 40.8°F4.9°C 30% 8.0 mph SSE12.9 kmh SSE -- 29.97 in1014.9 mb 0.00 in0.0 mm 0.00 in0.0 mm 0.00 in0.0 mm
05:03 PM 74.3°F23.5°C 40.8°F4.9°C 30% 7.0 mph SSE11.3 kmh SSE -- 29.98 in1015.2 mb 0.00 in0.0 mm 0.00 in0.0 mm 0.00 in0.0 mm
05:04 PM 74.4°F23.6°C 41.0°F5.0°C 30% 8.0 mph SSE12.9 kmh SSE -- 29.98 in1015.2 mb 0.00 in0.0 mm 0.00 in0.0 mm 0.00 in0.0 mm
05:05 PM 75.0°F23.9°C 41.4°F5.2°C 30% 9.0 mph S14.5 kmh S -- 29.97 in1014.9 mb 0.00 in0.0 mm 0.00 in0.0 mm 0.00 in0.0 mm
05:06 PM 75.1°F23.9°C 40.6°F4.8°C 29% 9.0 mph SE14.5 kmh SE -- 29.98 in1015.2 mb 0.00 in0.0 mm 0.00 in0.0 mm 0.00 in0.0 mm
05:07 PM 75.5°F24.2°C 41.9°F5.5°C 30% 7.0 mph SSW11.3 kmh SSW -- 29.98 in1015.2 mb 0.00 in0.0 mm 0.00 in0.0 mm 0.00 in0.0 mm
05:08 PM 75.6°F24.2°C 41.0°F5.0°C 29% 7.0 mph S11.3 kmh S -- 29.98 in1015.2 mb 0.00 in0.0 mm 0.00 in0.0 mm 0.00 in0.0 mm
05:09 PM 75.9°F24.4°C 39.5°F4.2°C 27% 11.0 mph SE17.7 kmh SE -- 29.98 in1015.2 mb 0.00 in0.0 mm 0.00 in0.0 mm 0.00 in0.0 mm
05:10 PM 76.3°F24.6°C 41.7°F5.4°C 29% 7.0 mph SSE11.3 kmh SSE -- 29.98 in1015.2 mb 0.00 in0.0 mm 0.00 in0.0 mm 0.00 in0.0 mm
05:11 PM 76.4°F24.7°C 41.8°F5.4°C 29% 7.0 mph S11.3 kmh S -- 29.98 in1015.2 mb 0.00 in0.0 mm 0.00 in0.0 mm 0.00 in0.0 mm
05:12 PM 76.4°F24.7°C 41.8°F5.4°C 29% 6.0 mph SSE9.7 kmh SSE -- 29.98 in1015.2 mb 0.00 in0.0 mm 0.00 in0.0 mm 0.00 in0.0 mm
05:13 PM 76.8°F24.9°C 42.1°F5.6°C 29% 8.0 mph SE12.9 kmh SE -- 29.98 in1015.2 mb 0.00 in0.0 mm 0.00 in0.0 mm 0.00 in0.0 mm
05:14 PM 76.8°F24.9°C 42.1°F5.6°C 29% 8.0 mph S12.9 kmh S -- 29.98 in1015.2 mb 0.00 in0.0 mm 0.00 in0.0 mm 0.00 in0.0 mm
05:15 PM 76.9°F24.9°C 40.3°F4.6°C 27% 7.0 mph SSE11.3 kmh SSE -- 29.98 in1015.2 mb 0.00 in0.0 mm 0.00 in0.0 mm 0.00 in0.0 mm
05:16 PM 76.9°F24.9°C 42.1°F5.6°C 29% 8.0 mph S12.9 kmh S -- 29.98 in1015.2 mb 0.00 in0.0 mm 0.00 in0.0 mm 0.00 in0.0 mm
05:17 PM 76.9°F24.9°C 42.1°F5.6°C 29% 10.0 mph S16.1 kmh S -- 29.98 in1015.2 mb 0.00 in0.0 mm 0.00 in0.0 mm 0.00 in0.0 mm
05:18 PM 76.8°F24.9°C 40.3°F4.6°C 27% 7.0 mph SSE11.3 kmh SSE -- 29.98 in1015.2 mb 0.00 in0.0 mm 0.00 in0.0 mm 0.00 in0.0 mm
05:19 PM 76.5°F24.7°C 40.0°F4.4°C 27% 10.0 mph S16.1 kmh S -- 29.98 in1015.2 mb 0.00 in0.0 mm 0.00 in0.0 mm 0.00 in0.0 mm
05:20 PM 76.4°F24.7°C 40.0°F4.4°C 27% 10.0 mph SSE16.1 kmh SSE -- 29.98 in1015.2 mb 0.00 in0.0 mm 0.00 in0.0 mm 0.00 in0.0 mm
05:21 PM 76.4°F24.7°C 40.0°F4.4°C 27% 10.0 mph S16.1 kmh S -- 29.99 in1015.6 mb 0.00 in0.0 mm 0.00 in0.0 mm 0.00 in0.0 mm
05:22 PM 76.4°F24.7°C 40.0°F4.4°C 27% 9.0 mph SE14.5 kmh SE -- 29.99 in1015.6 mb 0.00 in0.0 mm 0.00 in0.0 mm 0.00 in0.0 mm
05:23 PM 76.4°F24.7°C 40.0°F4.4°C 27% 10.0 mph SSE16.1 kmh SSE -- 29.98 in1015.2 mb 0.00 in0.0 mm 0.00 in0.0 mm 0.00 in0.0 mm
05:24 PM 76.4°F24.7°C 38.0°F3.3°C 25% 9.0 mph SSE14.5 kmh SSE -- 29.99 in1015.6 mb 0.00 in0.0 mm 0.00 in0.0 mm 0.00 in0.0 mm
05:25 PM 76.3°F24.6°C 39.8°F4.3°C 27% 6.0 mph S9.7 kmh S -- 29.99 in1015.6 mb 0.00 in0.0 mm 0.00 in0.0 mm 0.00 in0.0 mm
05:26 PM 76.4°F24.7°C 40.0°F4.4°C 27% 9.0 mph ESE14.5 kmh ESE -- 29.99 in1015.6 mb 0.00 in0.0 mm 0.00 in0.0 mm 0.00 in0.0 mm
05:27 PM 76.8°F24.9°C 40.3°F4.6°C 27% 9.0 mph ESE14.5 kmh ESE -- 29.99 in1015.6 mb 0.00 in0.0 mm 0.00 in0.0 mm 0.00 in0.0 mm
05:28 PM 76.8°F24.9°C 40.3°F4.6°C 27% 6.0 mph SSE9.7 kmh SSE -- 29.99 in1015.6 mb 0.00 in0.0 mm 0.00 in0.0 mm 0.00 in0.0 mm
05:29 PM 76.8°F24.9°C 40.3°F4.6°C 27% 9.0 mph S14.5 kmh S -- 29.99 in1015.6 mb 0.00 in0.0 mm 0.00 in0.0 mm 0.00 in0.0 mm
05:30 PM 76.8°F24.9°C 40.3°F4.6°C 27% 7.0 mph SSE11.3 kmh SSE -- 29.99 in1015.6 mb 0.00 in0.0 mm 0.00 in0.0 mm 0.00 in0.0 mm
05:31 PM 76.8°F24.9°C 40.3°F4.6°C 27% 8.0 mph S12.9 kmh S -- 29.99 in1015.6 mb 0.00 in0.0 mm 0.00 in0.0 mm 0.00 in0.0 mm
05:32 PM 76.5°F24.7°C 40.0°F4.4°C 27% 10.0 mph S16.1 kmh S -- 29.99 in1015.6 mb 0.00 in0.0 mm 0.00 in0.0 mm 0.00 in0.0 mm
05:33 PM 76.4°F24.7°C 40.0°F4.4°C 27% 7.0 mph SSE11.3 kmh SSE -- 29.98 in1015.2 mb 0.00 in0.0 mm 0.00 in0.0 mm 0.00 in0.0 mm
05:34 PM 76.4°F24.7°C 40.0°F4.4°C 27% 10.0 mph ESE16.1 kmh ESE -- 29.99 in1015.6 mb 0.00 in0.0 mm 0.00 in0.0 mm 0.00 in0.0 mm
05:35 PM 76.5°F24.7°C 40.0°F4.4°C 27% 8.0 mph SSE12.9 kmh SSE -- 29.98 in1015.2 mb 0.00 in0.0 mm 0.00 in0.0 mm 0.00 in0.0 mm
05:36 PM 76.5°F24.7°C 40.0°F4.4°C 27% 10.0 mph ESE16.1 kmh ESE -- 29.98 in1015.2 mb 0.00 in0.0 mm 0.00 in0.0 mm 0.00 in0.0 mm
05:37 PM 76.4°F24.7°C 40.0°F4.4°C 27% 6.0 mph S9.7 kmh S -- 29.98 in1015.2 mb 0.00 in0.0 mm 0.00 in0.0 mm 0.00 in0.0 mm
05:38 PM 76.3°F24.6°C 41.7°F5.4°C 29% 6.0 mph SSE9.7 kmh SSE -- 29.98 in1015.2 mb 0.00 in0.0 mm 0.00 in0.0 mm 0.00 in0.0 mm
05:39 PM 76.4°F24.7°C 41.8°F5.4°C 29% 9.0 mph SSE14.5 kmh SSE -- 29.98 in1015.2 mb 0.00 in0.0 mm 0.00 in0.0 mm 0.00 in0.0 mm
05:40 PM 76.3°F24.6°C 41.7°F5.4°C 29% 7.0 mph S11.3 kmh S -- 29.98 in1015.2 mb 0.00 in0.0 mm 0.00 in0.0 mm 0.00 in0.0 mm
05:41 PM 76.4°F24.7°C 41.8°F5.4°C 29% 9.0 mph ESE14.5 kmh ESE -- 29.98 in1015.2 mb 0.00 in0.0 mm 0.00 in0.0 mm 0.00 in0.0 mm
05:42 PM 76.5°F24.7°C 41.8°F5.4°C 29% 9.0 mph SSE14.5 kmh SSE -- 29.98 in1015.2 mb 0.00 in0.0 mm 0.00 in0.0 mm 0.00 in0.0 mm
05:43 PM 76.3°F24.6°C 41.7°F5.4°C 29% 6.0 mph SE9.7 kmh SE -- 29.98 in1015.2 mb 0.00 in0.0 mm 0.00 in0.0 mm 0.00 in0.0 mm
05:44 PM 76.3°F24.6°C 41.7°F5.4°C 29% 7.0 mph SSE11.3 kmh SSE -- 29.99 in1015.6 mb 0.00 in0.0 mm 0.00 in0.0 mm 0.00 in0.0 mm
05:45 PM 76.0°F24.4°C 41.4°F5.2°C 29% 9.0 mph SSE14.5 kmh SSE -- 29.99 in1015.6 mb 0.00 in0.0 mm 0.00 in0.0 mm 0.00 in0.0 mm
05:46 PM 76.3°F24.6°C 39.8°F4.3°C 27% 11.0 mph SSE17.7 kmh SSE -- 29.99 in1015.6 mb 0.00 in0.0 mm 0.00 in0.0 mm 0.00 in0.0 mm
05:47 PM 76.3°F24.6°C 39.8°F4.3°C 27% 8.0 mph SE12.9 kmh SE -- 29.99 in1015.6 mb 0.00 in0.0 mm 0.00 in0.0 mm 0.00 in0.0 mm
05:48 PM 76.4°F24.7°C 41.8°F5.4°C 29% 14.0 mph NW22.5 kmh NW -- 29.99 in1015.6 mb 0.00 in0.0 mm 0.00 in0.0 mm 0.00 in0.0 mm
05:49 PM 76.3°F24.6°C 50.1°F10.1°C 40% 17.0 mph NW27.4 kmh NW -- 30.00 in1015.9 mb 0.00 in0.0 mm 0.00 in0.0 mm 0.00 in0.0 mm
05:50 PM 75.3°F24.1°C 52.5°F11.4°C 45% 28.0 mph NW45.1 kmh NW -- 30.00 in1015.9 mb 0.00 in0.0 mm 0.00 in0.0 mm 0.00 in0.0 mm
05:51 PM 73.8°F23.2°C 53.9°F12.2°C 50% 27.0 mph NNW43.5 kmh NNW -- 30.00 in1015.9 mb 0.00 in0.0 mm 0.00 in0.0 mm 0.00 in0.0 mm
05:52 PM 72.8°F22.7°C 53.6°F12.0°C 51% 13.0 mph 20.9 kmh -- 30.00 in1015.9 mb 0.00 in0.0 mm 0.00 in0.0 mm 0.00 in0.0 mm
05:53 PM 72.8°F22.7°C 53.6°F12.0°C 51% 13.0 mph NE20.9 kmh NE -- 30.01 in1016.3 mb 0.00 in0.0 mm 0.00 in0.0 mm 0.00 in0.0 mm
05:54 PM 72.3°F22.4°C 54.2°F12.3°C 53% 14.0 mph NE22.5 kmh NE -- 30.00 in1015.9 mb 0.00 in0.0 mm 0.00 in0.0 mm 0.00 in0.0 mm
05:55 PM 72.3°F22.4°C 54.7°F12.6°C 54% 10.0 mph NE16.1 kmh NE -- 30.01 in1016.3 mb 0.00 in0.0 mm 0.00 in0.0 mm 0.00 in0.0 mm
05:56 PM 72.3°F22.4°C 55.2°F12.9°C 55% 16.0 mph NNE25.7 kmh NNE -- 30.00 in1015.9 mb 0.00 in0.0 mm 0.00 in0.0 mm 0.00 in0.0 mm
05:57 PM 72.1°F22.3°C 55.0°F12.8°C 55% 13.0 mph NE20.9 kmh NE -- 30.01 in1016.3 mb 0.00 in0.0 mm 0.00 in0.0 mm 0.00 in0.0 mm
05:58 PM 71.9°F22.2°C 54.9°F12.7°C 55% 10.0 mph NNE16.1 kmh NNE -- 30.00 in1015.9 mb 0.00 in0.0 mm 0.00 in0.0 mm 0.00 in0.0 mm
05:59 PM 71.9°F22.2°C 54.9°F12.7°C 55% 15.0 mph NNE24.1 kmh NNE -- 30.01 in1016.3 mb 0.00 in0.0 mm 0.00 in0.0 mm 0.00 in0.0 mm
06:00 PM 71.9°F22.2°C 54.9°F12.7°C 55% 11.0 mph NNE17.7 kmh NNE -- 30.01 in1016.3 mb 0.00 in0.0 mm 0.00 in0.0 mm 0.00 in0.0 mm
06:01 PM 72.1°F22.3°C 55.0°F12.8°C 55% 15.0 mph NNW24.1 kmh NNW -- 30.01 in1016.3 mb 0.00 in0.0 mm 0.00 in0.0 mm 0.00 in0.0 mm
06:02 PM 72.1°F22.3°C 55.0°F12.8°C 55% 11.0 mph W17.7 kmh W -- 30.01 in1016.3 mb 0.00 in0.0 mm 0.00 in0.0 mm 0.00 in0.0 mm
06:03 PM 71.9°F22.2°C 54.9°F12.7°C 55% 19.0 mph 30.6 kmh -- 30.01 in1016.3 mb 0.00 in0.0 mm 0.00 in0.0 mm 0.00 in0.0 mm
06:04 PM 71.8°F22.1°C 54.7°F12.6°C 55% 12.0 mph NNW19.3 kmh NNW -- 30.01 in1016.3 mb 0.00 in0.0 mm 0.00 in0.0 mm 0.00 in0.0 mm
06:05 PM 71.5°F21.9°C 54.3°F12.4°C 55% 15.0 mph NNW24.1 kmh NNW -- 30.01 in1016.3 mb 0.00 in0.0 mm 0.00 in0.0 mm 0.00 in0.0 mm
06:06 PM 71.5°F21.9°C 54.3°F12.4°C 55% 12.0 mph 19.3 kmh -- 30.01 in1016.3 mb 0.00 in0.0 mm 0.00 in0.0 mm 0.00 in0.0 mm
06:07 PM 71.5°F21.9°C 54.3°F12.4°C 55% 16.0 mph 25.7 kmh -- 30.01 in1016.3 mb 0.00 in0.0 mm 0.00 in0.0 mm 0.00 in0.0 mm
06:08 PM 71.1°F21.7°C 54.5°F12.5°C 56% 13.0 mph NNW20.9 kmh NNW -- 30.02 in1016.6 mb 0.00 in0.0 mm 0.00 in0.0 mm 0.00 in0.0 mm
06:09 PM 70.9°F21.6°C 54.3°F12.4°C 56% 24.0 mph NNE38.6 kmh NNE -- 30.02 in1016.6 mb 0.00 in0.0 mm 0.00 in0.0 mm 0.00 in0.0 mm
06:10 PM 70.6°F21.4°C 55.0°F12.8°C 58% 11.0 mph 17.7 kmh -- 30.01 in1016.3 mb 0.00 in0.0 mm 0.00 in0.0 mm 0.00 in0.0 mm
06:11 PM 70.1°F21.2°C 55.1°F12.8°C 59% 17.0 mph 27.4 kmh -- 30.02 in1016.6 mb 0.00 in0.0 mm 0.00 in0.0 mm 0.00 in0.0 mm
06:12 PM 69.4°F20.8°C 54.4°F12.4°C 59% 16.0 mph 25.7 kmh -- 30.02 in1016.6 mb 0.00 in0.0 mm 0.00 in0.0 mm 0.00 in0.0 mm
06:13 PM 69.3°F20.7°C 54.7°F12.6°C 60% 13.0 mph NNW20.9 kmh NNW -- 30.02 in1016.6 mb 0.00 in0.0 mm 0.00 in0.0 mm 0.00 in0.0 mm
06:14 PM 68.9°F20.5°C 54.4°F12.4°C 60% 15.0 mph NNW24.1 kmh NNW -- 30.02 in1016.6 mb 0.00 in0.0 mm 0.00 in0.0 mm 0.00 in0.0 mm
06:15 PM 68.4°F20.2°C 54.3°F12.4°C 61% 10.0 mph NW16.1 kmh NW -- 30.03 in1016.9 mb 0.00 in0.0 mm 0.00 in0.0 mm 0.00 in0.0 mm
06:16 PM 68.4°F20.2°C 54.3°F12.4°C 61% 16.0 mph NNW25.7 kmh NNW -- 30.02 in1016.6 mb 0.00 in0.0 mm 0.00 in0.0 mm 0.00 in0.0 mm
06:17 PM 68.4°F20.2°C 54.3°F12.4°C 61% 16.0 mph 25.7 kmh -- 30.02 in1016.6 mb 0.00 in0.0 mm 0.00 in0.0 mm 0.00 in0.0 mm
06:18 PM 68.1°F20.1°C 54.1°F12.3°C 61% 14.0 mph 22.5 kmh -- 30.01 in1016.3 mb 0.00 in0.0 mm 0.00 in0.0 mm 0.00 in0.0 mm
06:19 PM 68.0°F20.0°C 54.9°F12.7°C 63% 10.0 mph NNE16.1 kmh NNE -- 30.03 in1016.9 mb 0.00 in0.0 mm 0.00 in0.0 mm 0.00 in0.0 mm
06:20 PM 67.8°F19.9°C 54.7°F12.6°C 63% 16.0 mph 25.7 kmh -- 30.02 in1016.6 mb 0.00 in0.0 mm 0.00 in0.0 mm 0.00 in0.0 mm
06:21 PM 67.5°F19.7°C 54.4°F12.4°C 63% 22.0 mph WNW35.4 kmh WNW -- 30.03 in1016.9 mb 0.00 in0.0 mm 0.00 in0.0 mm 0.00 in0.0 mm
06:22 PM 67.1°F19.5°C 54.9°F12.7°C 65% 18.0 mph NW29.0 kmh NW -- 30.03 in1016.9 mb 0.00 in0.0 mm 0.00 in0.0 mm 0.00 in0.0 mm
06:23 PM 66.9°F19.4°C 54.7°F12.6°C 65% 20.0 mph NNW32.2 kmh NNW -- 30.03 in1016.9 mb 0.00 in0.0 mm 0.00 in0.0 mm 0.00 in0.0 mm
06:24 PM 66.5°F19.2°C 54.8°F12.7°C 66% 12.0 mph NNW19.3 kmh NNW -- 30.03 in1016.9 mb 0.00 in0.0 mm 0.00 in0.0 mm 0.00 in0.0 mm
06:25 PM 66.4°F19.1°C 54.6°F12.6°C 66% 12.0 mph 19.3 kmh -- 30.04 in1017.3 mb 0.00 in0.0 mm 0.00 in0.0 mm 0.00 in0.0 mm
06:26 PM 66.1°F18.9°C 55.1°F12.8°C 68% 19.0 mph NNE30.6 kmh NNE -- 30.03 in1016.9 mb 0.00 in0.0 mm 0.00 in0.0 mm 0.00 in0.0 mm
06:27 PM 65.9°F18.8°C 54.9°F12.7°C 68% 19.0 mph 30.6 kmh -- 30.04 in1017.3 mb 0.00 in0.0 mm 0.00 in0.0 mm 0.00 in0.0 mm
06:28 PM 65.0°F18.3°C 54.9°F12.7°C 70% 28.0 mph NNE45.1 kmh NNE -- 30.03 in1016.9 mb 0.00 in0.0 mm 0.00 in0.0 mm 0.00 in0.0 mm
06:29 PM 64.4°F18.0°C 54.3°F12.4°C 70% 26.0 mph 41.8 kmh -- 30.05 in1017.6 mb 0.00 in0.0 mm 0.00 in0.0 mm 0.00 in0.0 mm
06:30 PM 64.1°F17.8°C 54.4°F12.4°C 71% 19.0 mph NW30.6 kmh NW -- 30.03 in1016.9 mb 0.00 in0.0 mm 0.00 in0.0 mm 0.00 in0.0 mm
06:31 PM 63.9°F17.7°C 54.2°F12.3°C 71% 16.0 mph 25.7 kmh -- 30.04 in1017.3 mb 0.00 in0.0 mm 0.00 in0.0 mm 0.00 in0.0 mm
06:32 PM 63.6°F17.6°C 54.0°F12.2°C 71% 17.0 mph 27.4 kmh -- 30.04 in1017.3 mb 0.00 in0.0 mm 0.00 in0.0 mm 0.00 in0.0 mm
06:33 PM 63.2°F17.3°C 53.5°F11.9°C 71% 23.0 mph 37.0 kmh -- 30.05 in1017.6 mb 0.00 in0.0 mm 0.00 in0.0 mm 0.00 in0.0 mm
06:34 PM 62.7°F17.1°C 53.9°F12.2°C 73% 21.0 mph NNW33.8 kmh NNW -- 30.04 in1017.3 mb 0.00 in0.0 mm 0.00 in0.0 mm 0.00 in0.0 mm
06:35 PM 62.2°F16.8°C 53.8°F12.1°C 74% 21.0 mph NNW33.8 kmh NNW -- 30.05 in1017.6 mb 0.00 in0.0 mm 0.00 in0.0 mm 0.00 in0.0 mm
06:36 PM 62.1°F16.7°C 53.6°F12.0°C 74% 14.0 mph NW22.5 kmh NW -- 30.04 in1017.3 mb 0.00 in0.0 mm 0.00 in0.0 mm 0.00 in0.0 mm
06:37 PM 61.7°F16.5°C 53.6°F12.0°C 75% 18.0 mph NNW29.0 kmh NNW -- 30.05 in1017.6 mb 0.00 in0.0 mm 0.00 in0.0 mm 0.00 in0.0 mm
06:38 PM 61.5°F16.4°C 53.5°F11.9°C 75% 15.0 mph NNE24.1 kmh NNE -- 30.04 in1017.3 mb 0.00 in0.0 mm 0.00 in0.0 mm 0.00 in0.0 mm
06:39 PM 61.3°F16.3°C 53.7°F12.1°C 76% 19.0 mph NNW30.6 kmh NNW -- 30.05 in1017.6 mb 0.00 in0.0 mm 0.00 in0.0 mm 0.00 in0.0 mm
06:40 PM 61.0°F16.1°C 53.3°F11.8°C 76% 18.0 mph 29.0 kmh -- 30.04 in1017.3 mb 0.00 in0.0 mm 0.00 in0.0 mm 0.00 in0.0 mm
06:41 PM 60.7°F15.9°C 53.0°F11.7°C 76% 22.0 mph 35.4 kmh -- 30.05 in1017.6 mb 0.00 in0.0 mm 0.00 in0.0 mm 0.00 in0.0 mm
06:42 PM 60.3°F15.7°C 53.3°F11.8°C 78% 21.0 mph NNW33.8 kmh NNW -- 30.04 in1017.3 mb 0.00 in0.0 mm 0.00 in0.0 mm 0.00 in0.0 mm
06:43 PM 60.0°F15.6°C 53.1°F11.7°C 78% 23.0 mph WNW37.0 kmh WNW -- 30.05 in1017.6 mb 0.00 in0.0 mm 0.00 in0.0 mm 0.00 in0.0 mm
06:44 PM 59.9°F15.5°C 53.3°F11.8°C 79% 20.0 mph NNW32.2 kmh NNW -- 30.04 in1017.3 mb 0.00 in0.0 mm 0.00 in0.0 mm 0.00 in0.0 mm
06:45 PM 59.7°F15.4°C 53.5°F11.9°C 80% 20.0 mph NW32.2 kmh NW -- 30.05 in1017.6 mb 0.00 in0.0 mm 0.00 in0.0 mm 0.00 in0.0 mm
06:46 PM 59.4°F15.2°C 53.1°F11.7°C 80% 20.0 mph NNW32.2 kmh NNW -- 30.04 in1017.3 mb 0.00 in0.0 mm 0.00 in0.0 mm 0.00 in0.0 mm
06:47 PM 59.2°F15.1°C 53.3°F11.8°C 81% 19.0 mph W30.6 kmh W -- 30.06 in1017.9 mb 0.00 in0.0 mm 0.00 in0.0 mm 0.00 in0.0 mm
06:48 PM 58.8°F14.9°C 53.0°F11.7°C 81% 17.0 mph NNW27.4 kmh NNW -- 30.05 in1017.6 mb 0.00 in0.0 mm 0.00 in0.0 mm 0.00 in0.0 mm
06:49 PM 58.8°F14.9°C 53.0°F11.7°C 81% 19.0 mph NNE30.6 kmh NNE -- 30.06 in1017.9 mb 0.00 in0.0 mm 0.00 in0.0 mm 0.00 in0.0 mm
06:50 PM 58.8°F14.9°C 53.0°F11.7°C 81% 15.0 mph 24.1 kmh -- 30.05 in1017.6 mb 0.00 in0.0 mm 0.00 in0.0 mm 0.00 in0.0 mm
06:51 PM 58.5°F14.7°C 52.6°F11.4°C 81% 21.0 mph NNW33.8 kmh NNW -- 30.06 in1017.9 mb 0.00 in0.0 mm 0.00 in0.0 mm 0.00 in0.0 mm
06:52 PM 58.5°F14.7°C 52.3°F11.3°C 80% 24.0 mph 38.6 kmh -- 30.05 in1017.6 mb 0.00 in0.0 mm 0.00 in0.0 mm 0.00 in0.0 mm
06:53 PM 58.4°F14.7°C 52.3°F11.3°C 80% 21.0 mph NW33.8 kmh NW -- 30.06 in1017.9 mb 0.00 in0.0 mm 0.00 in0.0 mm 0.00 in0.0 mm
06:54 PM 58.4°F14.7°C 52.3°F11.3°C 80% 23.0 mph NW37.0 kmh NW -- 30.06 in1017.9 mb 0.00 in0.0 mm 0.00 in0.0 mm 0.00 in0.0 mm
06:55 PM 58.2°F14.6°C 52.1°F11.2°C 80% 21.0 mph 33.8 kmh -- 30.06 in1017.9 mb 0.00 in0.0 mm 0.00 in0.0 mm 0.00 in0.0 mm
06:56 PM 58.0°F14.4°C 51.7°F10.9°C 80% 18.0 mph WNW29.0 kmh WNW -- 30.05 in1017.6 mb 0.00 in0.0 mm 0.00 in0.0 mm 0.00 in0.0 mm
06:57 PM 57.8°F14.3°C 51.9°F11.1°C 81% 13.0 mph NNE20.9 kmh NNE -- 30.06 in1017.9 mb 0.00 in0.0 mm 0.00 in0.0 mm 0.00 in0.0 mm
06:58 PM 57.7°F14.3°C 51.9°F11.1°C 81% 19.0 mph NNW30.6 kmh NNW -- 30.05 in1017.6 mb 0.00 in0.0 mm 0.00 in0.0 mm 0.00 in0.0 mm
06:59 PM 57.7°F14.3°C 51.9°F11.1°C 81% 23.0 mph NNE37.0 kmh NNE -- 30.07 in1018.3 mb 0.00 in0.0 mm 0.00 in0.0 mm 0.00 in0.0 mm
07:00 PM 57.5°F14.2°C 51.7°F10.9°C 81% 23.0 mph NW37.0 kmh NW -- 30.05 in1017.6 mb 0.00 in0.0 mm 0.00 in0.0 mm 0.00 in0.0 mm
07:01 PM 57.3°F14.1°C 51.5°F10.8°C 81% 26.0 mph NNW41.8 kmh NNW -- 30.06 in1017.9 mb 0.00 in0.0 mm 0.00 in0.0 mm 0.00 in0.0 mm
07:02 PM 57.2°F14.0°C 51.4°F10.8°C 81% 24.0 mph NNE38.6 kmh NNE -- 30.06 in1017.9 mb 0.00 in0.0 mm 0.00 in0.0 mm 0.00 in0.0 mm
07:03 PM 57.2°F14.0°C 52.0°F11.1°C 83% 16.0 mph NNW25.7 kmh NNW -- 30.07 in1018.3 mb 0.00 in0.0 mm 0.00 in0.0 mm 0.00 in0.0 mm
07:04 PM 56.9°F13.8°C 51.7°F10.9°C 83% 18.0 mph NNE29.0 kmh NNE -- 30.06 in1017.9 mb 0.00 in0.0 mm 0.00 in0.0 mm 0.00 in0.0 mm
07:05 PM 56.9°F13.8°C 51.7°F10.9°C 83% 18.0 mph NNE29.0 kmh NNE -- 30.07 in1018.3 mb 0.00 in0.0 mm 0.00 in0.0 mm 0.00 in0.0 mm
07:06 PM 56.9°F13.8°C 51.7°F10.9°C 83% 20.0 mph NNW32.2 kmh NNW -- 30.06 in1017.9 mb 0.00 in0.0 mm 0.00 in0.0 mm 0.00 in0.0 mm
07:07 PM 56.9°F13.8°C 51.7°F10.9°C 83% 17.0 mph NW27.4 kmh NW -- 30.07 in1018.3 mb 0.00 in0.0 mm 0.00 in0.0 mm 0.00 in0.0 mm
07:08 PM 56.7°F13.7°C 51.5°F10.8°C 83% 21.0 mph NNE33.8 kmh NNE -- 30.07 in1018.3 mb 0.00 in0.0 mm 0.00 in0.0 mm 0.00 in0.0 mm
07:09 PM 56.7°F13.7°C 52.2°F11.2°C 85% 21.0 mph 33.8 kmh -- 30.07 in1018.3 mb 0.00 in0.0 mm 0.00 in0.0 mm 0.00 in0.0 mm
07:10 PM 56.7°F13.7°C 52.2°F11.2°C 85% 16.0 mph NNW25.7 kmh NNW -- 30.07 in1018.3 mb 0.00 in0.0 mm 0.00 in0.0 mm 0.00 in0.0 mm
07:11 PM 56.5°F13.6°C 52.3°F11.3°C 86% 15.0 mph NNE24.1 kmh NNE -- 30.07 in1018.3 mb 0.00 in0.0 mm 0.00 in0.0 mm 0.00 in0.0 mm
07:12 PM 56.5°F13.6°C 52.3°F11.3°C 86% 17.0 mph NNW27.4 kmh NNW -- 30.07 in1018.3 mb 0.00 in0.0 mm 0.00 in0.0 mm 0.00 in0.0 mm
07:13 PM 56.3°F13.5°C 52.1°F11.2°C 86% 13.0 mph NNW20.9 kmh NNW -- 30.07 in1018.3 mb 0.00 in0.0 mm 0.00 in0.0 mm 0.00 in0.0 mm
07:14 PM 56.3°F13.5°C 52.1°F11.2°C 86% 21.0 mph NNW33.8 kmh NNW -- 30.07 in1018.3 mb 0.00 in0.0 mm 0.00 in0.0 mm 0.00 in0.0 mm
07:15 PM 56.0°F13.3°C 51.8°F11.0°C 86% 20.0 mph NNW32.2 kmh NNW -- 30.07 in1018.3 mb 0.00 in0.0 mm 0.00 in0.0 mm 0.00 in0.0 mm
07:16 PM 56.0°F13.3°C 51.8°F11.0°C 86% 19.0 mph 30.6 kmh -- 30.07 in1018.3 mb 0.00 in0.0 mm 0.00 in0.0 mm 0.00 in0.0 mm
07:17 PM 56.0°F13.3°C 51.8°F11.0°C 86% 21.0 mph 33.8 kmh -- 30.07 in1018.3 mb 0.00 in0.0 mm 0.00 in0.0 mm 0.00 in0.0 mm
07:18 PM 56.0°F13.3°C 52.4°F11.3°C 88% 18.0 mph 29.0 kmh -- 30.07 in1018.3 mb 0.00 in0.0 mm 0.00 in0.0 mm 0.00 in0.0 mm
07:19 PM 55.9°F13.3°C 52.4°F11.3°C 88% 17.0 mph NNW27.4 kmh NNW -- 30.07 in1018.3 mb 0.00 in0.0 mm 0.00 in0.0 mm 0.00 in0.0 mm
07:20 PM 55.9°F13.3°C 52.4°F11.3°C 88% 20.0 mph NNW32.2 kmh NNW -- 30.07 in1018.3 mb 0.00 in0.0 mm 0.00 in0.0 mm 0.00 in0.0 mm
07:21 PM 55.9°F13.3°C 52.4°F11.3°C 88% 25.0 mph NNW40.2 kmh NNW -- 30.07 in1018.3 mb 0.00 in0.0 mm 0.00 in0.0 mm 0.00 in0.0 mm
07:22 PM 55.9°F13.3°C 52.4°F11.3°C 88% 19.0 mph NNW30.6 kmh NNW -- 30.07 in1018.3 mb 0.00 in0.0 mm 0.00 in0.0 mm 0.00 in0.0 mm
07:23 PM 55.9°F13.3°C 52.4°F11.3°C 88% 21.0 mph NNW33.8 kmh NNW -- 30.07 in1018.3 mb 0.00 in0.0 mm 0.00 in0.0 mm 0.00 in0.0 mm
07:24 PM 55.9°F13.3°C 52.4°F11.3°C 88% 23.0 mph 37.0 kmh -- 30.07 in1018.3 mb 0.00 in0.0 mm 0.00 in0.0 mm 0.00 in0.0 mm
07:25 PM 55.7°F13.2°C 52.2°F11.2°C 88% 18.0 mph NW29.0 kmh NW -- 30.07 in1018.3 mb 0.00 in0.0 mm 0.00 in0.0 mm 0.00 in0.0 mm
07:26 PM 55.7°F13.2°C 52.2°F11.2°C 88% 22.0 mph ENE35.4 kmh ENE -- 30.08 in1018.6 mb 0.00 in0.0 mm 0.00 in0.0 mm 0.00 in0.0 mm
07:27 PM 55.7°F13.2°C 52.2°F11.2°C 88% 16.0 mph NNW25.7 kmh NNW -- 30.07 in1018.3 mb 0.00 in0.0 mm 0.00 in0.0 mm 0.00 in0.0 mm
07:28 PM 55.7°F13.2°C 52.2°F11.2°C 88% 15.0 mph NNW24.1 kmh NNW -- 30.07 in1018.3 mb 0.00 in0.0 mm 0.00 in0.0 mm 0.00 in0.0 mm
07:29 PM 55.7°F13.2°C 52.2°F11.2°C 88% 19.0 mph WNW30.6 kmh WNW -- 30.08 in1018.6 mb 0.00 in0.0 mm 0.00 in0.0 mm 0.00 in0.0 mm
07:30 PM 55.7°F13.2°C 52.2°F11.2°C 88% 11.0 mph NW17.7 kmh NW -- 30.08 in1018.6 mb 0.00 in0.0 mm 0.00 in0.0 mm 0.00 in0.0 mm
07:31 PM 55.7°F13.2°C 52.2°F11.2°C 88% 17.0 mph NNW27.4 kmh NNW -- 30.08 in1018.6 mb 0.00 in0.0 mm 0.00 in0.0 mm 0.00 in0.0 mm
07:32 PM 55.7°F13.2°C 52.2°F11.2°C 88% 23.0 mph 37.0 kmh -- 30.09 in1019.0 mb 0.00 in0.0 mm 0.00 in0.0 mm 0.00 in0.0 mm
07:33 PM 55.5°F13.1°C 52.0°F11.1°C 88% 15.0 mph 24.1 kmh -- 30.09 in1019.0 mb 0.00 in0.0 mm 0.00 in0.0 mm 0.00 in0.0 mm
07:34 PM 55.5°F13.1°C 52.0°F11.1°C 88% 19.0 mph NNE30.6 kmh NNE -- 30.08 in1018.6 mb 0.00 in0.0 mm 0.00 in0.0 mm 0.00 in0.0 mm
07:35 PM 55.5°F13.1°C 52.0°F11.1°C 88% 18.0 mph NNW29.0 kmh NNW -- 30.08 in1018.6 mb 0.00 in0.0 mm 0.00 in0.0 mm 0.00 in0.0 mm
07:36 PM 55.5°F13.1°C 52.0°F11.1°C 88% 28.0 mph NNE45.1 kmh NNE -- 30.07 in1018.3 mb 0.00 in0.0 mm 0.00 in0.0 mm 0.00 in0.0 mm
07:37 PM 55.5°F13.1°C 52.0°F11.1°C 88% 22.0 mph NNW35.4 kmh NNW -- 30.08 in1018.6 mb 0.00 in0.0 mm 0.00 in0.0 mm 0.00 in0.0 mm
07:38 PM 55.5°F13.1°C 52.0°F11.1°C 88% 13.0 mph NNW20.9 kmh NNW -- 30.08 in1018.6 mb 0.00 in0.0 mm 0.00 in0.0 mm 0.00 in0.0 mm
07:39 PM 55.5°F13.1°C 52.0°F11.1°C 88% 21.0 mph 33.8 kmh -- 30.08 in1018.6 mb 0.00 in0.0 mm 0.00 in0.0 mm 0.00 in0.0 mm
07:40 PM 55.5°F13.1°C 52.0°F11.1°C 88% 19.0 mph NNW30.6 kmh NNW -- 30.08 in1018.6 mb 0.00 in0.0 mm 0.00 in0.0 mm 0.00 in0.0 mm
07:41 PM 55.5°F13.1°C 52.0°F11.1°C 88% 26.0 mph NW41.8 kmh NW -- 30.08 in1018.6 mb 0.00 in0.0 mm 0.00 in0.0 mm 0.00 in0.0 mm
07:42 PM 55.5°F13.1°C 52.0°F11.1°C 88% 10.0 mph 16.1 kmh -- 30.08 in1018.6 mb 0.00 in0.0 mm 0.00 in0.0 mm 0.00 in0.0 mm
07:43 PM 55.5°F13.1°C 52.0°F11.1°C 88% 17.0 mph NE27.4 kmh NE -- 30.08 in1018.6 mb 0.00 in0.0 mm 0.00 in0.0 mm 0.00 in0.0 mm
07:44 PM 55.5°F13.1°C 52.0°F11.1°C 88% 20.0 mph NNW32.2 kmh NNW -- 30.08 in1018.6 mb 0.00 in0.0 mm 0.00 in0.0 mm 0.00 in0.0 mm
07:45 PM 55.5°F13.1°C 52.0°F11.1°C 88% 22.0 mph NW35.4 kmh NW -- 30.09 in1019.0 mb 0.00 in0.0 mm 0.00 in0.0 mm 0.00 in0.0 mm
07:46 PM 55.5°F13.1°C 52.0°F11.1°C 88% 27.0 mph NNW43.5 kmh NNW -- 30.09 in1019.0 mb 0.00 in0.0 mm 0.00 in0.0 mm 0.00 in0.0 mm
07:48 PM 55.5°F13.1°C 52.0°F11.1°C 88% 23.0 mph NW37.0 kmh NW -- 30.09 in1019.0 mb 0.00 in0.0 mm 0.00 in0.0 mm 0.00 in0.0 mm
07:49 PM 55.5°F13.1°C 52.0°F11.1°C 88% 22.0 mph NNE35.4 kmh NNE -- 30.08 in1018.6 mb 0.00 in0.0 mm 0.00 in0.0 mm 0.00 in0.0 mm
07:50 PM 55.5°F13.1°C 52.0°F11.1°C 88% 16.0 mph NNW25.7 kmh NNW -- 30.08 in1018.6 mb 0.00 in0.0 mm 0.00 in0.0 mm 0.00 in0.0 mm
07:51 PM 55.5°F13.1°C 52.0°F11.1°C 88% 17.0 mph NNW27.4 kmh NNW -- 30.08 in1018.6 mb 0.00 in0.0 mm 0.00 in0.0 mm 0.00 in0.0 mm
07:52 PM 55.3°F12.9°C 51.7°F10.9°C 88% 23.0 mph 37.0 kmh -- 30.08 in1018.6 mb 0.00 in0.0 mm 0.00 in0.0 mm 0.00 in0.0 mm
07:53 PM 55.3°F12.9°C 51.7°F10.9°C 88% 26.0 mph NNE41.8 kmh NNE -- 30.09 in1019.0 mb 0.00 in0.0 mm 0.00 in0.0 mm 0.00 in0.0 mm
07:54 PM 55.3°F12.9°C 51.7°F10.9°C 88% 18.0 mph NNE29.0 kmh NNE -- 30.09 in1019.0 mb 0.00 in0.0 mm 0.00 in0.0 mm 0.00 in0.0 mm
07:55 PM 55.3°F12.9°C 51.7°F10.9°C 88% 19.0 mph NW30.6 kmh NW -- 30.09 in1019.0 mb 0.00 in0.0 mm 0.00 in0.0 mm 0.00 in0.0 mm
07:56 PM 55.3°F12.9°C 51.7°F10.9°C 88% 17.0 mph NNE27.4 kmh NNE -- 30.09 in1019.0 mb 0.00 in0.0 mm 0.00 in0.0 mm 0.00 in0.0 mm
07:57 PM 55.1°F12.8°C 51.5°F10.8°C 88% 24.0 mph 38.6 kmh -- 30.09 in1019.0 mb 0.00 in0.0 mm 0.00 in0.0 mm 0.00 in0.0 mm
07:58 PM 55.1°F12.8°C 51.5°F10.8°C 88% 23.0 mph NNW37.0 kmh NNW -- 30.09 in1019.0 mb 0.00 in0.0 mm 0.00 in0.0 mm 0.00 in0.0 mm
07:59 PM 55.1°F12.8°C 51.5°F10.8°C 88% 19.0 mph NNW30.6 kmh NNW -- 30.10 in1019.3 mb 0.00 in0.0 mm 0.00 in0.0 mm 0.00 in0.0 mm
08:00 PM 55.1°F12.8°C 51.5°F10.8°C 88% 10.0 mph NW16.1 kmh NW -- 30.10 in1019.3 mb 0.00 in0.0 mm 0.00 in0.0 mm 0.00 in0.0 mm
08:01 PM 55.1°F12.8°C 51.5°F10.8°C 88% 19.0 mph 30.6 kmh -- 30.10 in1019.3 mb 0.00 in0.0 mm 0.00 in0.0 mm 0.00 in0.0 mm
08:02 PM 55.1°F12.8°C 51.5°F10.8°C 88% 18.0 mph NNW29.0 kmh NNW -- 30.10 in1019.3 mb 0.00 in0.0 mm 0.00 in0.0 mm 0.00 in0.0 mm
08:03 PM 55.0°F12.8°C 51.5°F10.8°C 88% 19.0 mph NNW30.6 kmh NNW -- 30.10 in1019.3 mb 0.00 in0.0 mm 0.00 in0.0 mm 0.00 in0.0 mm
08:04 PM 55.0°F12.8°C 51.5°F10.8°C 88% 19.0 mph NNE30.6 kmh NNE -- 30.10 in1019.3 mb 0.00 in0.0 mm 0.00 in0.0 mm 0.00 in0.0 mm
08:05 PM 55.0°F12.8°C 51.5°F10.8°C 88% 16.0 mph 25.7 kmh -- 30.10 in1019.3 mb 0.00 in0.0 mm 0.00 in0.0 mm 0.00 in0.0 mm
08:06 PM 55.0°F12.8°C 51.5°F10.8°C 88% 13.0 mph 20.9 kmh -- 30.10 in1019.3 mb 0.00 in0.0 mm 0.00 in0.0 mm 0.00 in0.0 mm
08:07 PM 55.0°F12.8°C 51.5°F10.8°C 88% 22.0 mph 35.4 kmh -- 30.10 in1019.3 mb 0.00 in0.0 mm 0.00 in0.0 mm 0.00 in0.0 mm
08:08 PM 54.9°F12.7°C 51.3°F10.7°C 88% 17.0 mph NNW27.4 kmh NNW -- 30.10 in1019.3 mb 0.00 in0.0 mm 0.00 in0.0 mm 0.00 in0.0 mm
08:09 PM 54.9°F12.7°C 51.3°F10.7°C 88% 22.0 mph NNW35.4 kmh NNW -- 30.10 in1019.3 mb 0.00 in0.0 mm 0.00 in0.0 mm 0.00 in0.0 mm
08:10 PM 54.9°F12.7°C 51.3°F10.7°C 88% 24.0 mph 38.6 kmh -- 30.10 in1019.3 mb 0.00 in0.0 mm 0.00 in0.0 mm 0.00 in0.0 mm
08:11 PM 54.9°F12.7°C 51.3°F10.7°C 88% 16.0 mph NNW25.7 kmh NNW -- 30.10 in1019.3 mb 0.00 in0.0 mm 0.00 in0.0 mm 0.00 in0.0 mm
08:12 PM 54.9°F12.7°C 51.3°F10.7°C 88% 18.0 mph NNW29.0 kmh NNW -- 30.10 in1019.3 mb 0.00 in0.0 mm 0.00 in0.0 mm 0.00 in0.0 mm
08:13 PM 54.9°F12.7°C 52.0°F11.1°C 90% 19.0 mph 30.6 kmh -- 30.10 in1019.3 mb 0.00 in0.0 mm 0.00 in0.0 mm 0.00 in0.0 mm
08:14 PM 54.9°F12.7°C 52.0°F11.1°C 90% 18.0 mph NNW29.0 kmh NNW -- 30.11 in1019.6 mb 0.00 in0.0 mm 0.00 in0.0 mm 0.00 in0.0 mm
08:15 PM 54.9°F12.7°C 52.0°F11.1°C 90% 18.0 mph WNW29.0 kmh WNW -- 30.11 in1019.6 mb 0.00 in0.0 mm 0.00 in0.0 mm 0.00 in0.0 mm
08:16 PM 54.7°F12.6°C 51.8°F11.0°C 90% 21.0 mph NNW33.8 kmh NNW -- 30.11 in1019.6 mb 0.00 in0.0 mm 0.00 in0.0 mm 0.00 in0.0 mm
08:17 PM 54.7°F12.6°C 51.8°F11.0°C 90% 19.0 mph NNW30.6 kmh NNW -- 30.11 in1019.6 mb 0.00 in0.0 mm 0.00 in0.0 mm 0.00 in0.0 mm
08:19 PM 54.7°F12.6°C 51.8°F11.0°C 90% 18.0 mph 29.0 kmh -- 30.11 in1019.6 mb 0.00 in0.0 mm 0.00 in0.0 mm 0.00 in0.0 mm
08:20 PM 54.4°F12.4°C 51.4°F10.8°C 90% 17.0 mph NNW27.4 kmh NNW -- 30.11 in1019.6 mb 0.00 in0.0 mm 0.00 in0.0 mm 0.00 in0.0 mm
08:21 PM 54.4°F12.4°C 51.4°F10.8°C 90% 20.0 mph NNW32.2 kmh NNW -- 30.11 in1019.6 mb 0.00 in0.0 mm 0.00 in0.0 mm 0.00 in0.0 mm
08:22 PM 54.4°F12.4°C 51.4°F10.8°C 90% 15.0 mph NNW24.1 kmh NNW -- 30.11 in1019.6 mb 0.00 in0.0 mm 0.00 in0.0 mm 0.00 in0.0 mm
08:23 PM 54.4°F12.4°C 51.4°F10.8°C 90% 21.0 mph NNE33.8 kmh NNE -- 30.11 in1019.6 mb 0.00 in0.0 mm 0.00 in0.0 mm 0.00 in0.0 mm
08:24 PM 54.2°F12.3°C 51.2°F10.7°C 90% 17.0 mph NNW27.4 kmh NNW -- 30.11 in1019.6 mb 0.00 in0.0 mm 0.00 in0.0 mm 0.00 in0.0 mm
08:25 PM 54.2°F12.3°C 51.2°F10.7°C 90% 23.0 mph 37.0 kmh -- 30.11 in1019.6 mb 0.00 in0.0 mm 0.00 in0.0 mm 0.00 in0.0 mm
08:26 PM 54.2°F12.3°C 51.2°F10.7°C 90% 19.0 mph 30.6 kmh -- 30.11 in1019.6 mb 0.00 in0.0 mm 0.00 in0.0 mm 0.00 in0.0 mm
08:27 PM 54.2°F12.3°C 51.2°F10.7°C 90% 21.0 mph NNW33.8 kmh NNW -- 30.11 in1019.6 mb 0.00 in0.0 mm 0.00 in0.0 mm 0.00 in0.0 mm
08:28 PM 54.2°F12.3°C 51.5°F10.8°C 91% 17.0 mph NNW27.4 kmh NNW -- 30.12 in1020.0 mb 0.00 in0.0 mm 0.00 in0.0 mm 0.00 in0.0 mm
08:29 PM 54.0°F12.2°C 51.4°F10.8°C 91% 23.0 mph NNW37.0 kmh NNW -- 30.12 in1020.0 mb 0.00 in0.0 mm 0.00 in0.0 mm 0.00 in0.0 mm
08:30 PM 54.0°F12.2°C 51.4°F10.8°C 91% 14.0 mph 22.5 kmh -- 30.12 in1020.0 mb 0.00 in0.0 mm 0.00 in0.0 mm 0.00 in0.0 mm
08:31 PM 54.0°F12.2°C 51.4°F10.8°C 91% 11.0 mph NNE17.7 kmh NNE -- 30.12 in1020.0 mb 0.00 in0.0 mm 0.00 in0.0 mm 0.00 in0.0 mm
08:32 PM 54.0°F12.2°C 51.4°F10.8°C 91% 19.0 mph NNW30.6 kmh NNW -- 30.12 in1020.0 mb 0.00 in0.0 mm 0.00 in0.0 mm 0.00 in0.0 mm
08:33 PM 54.0°F12.2°C 51.4°F10.8°C 91% 13.0 mph NW20.9 kmh NW -- 30.12 in1020.0 mb 0.00 in0.0 mm 0.00 in0.0 mm 0.00 in0.0 mm
08:34 PM 54.0°F12.2°C 51.4°F10.8°C 91% 19.0 mph NNW30.6 kmh NNW -- 30.12 in1020.0 mb 0.00 in0.0 mm 0.00 in0.0 mm 0.00 in0.0 mm
08:35 PM 53.8°F12.1°C 51.2°F10.7°C 91% 22.0 mph 35.4 kmh -- 30.13 in1020.3 mb 0.00 in0.0 mm 0.00 in0.0 mm 0.00 in0.0 mm
08:36 PM 53.8°F12.1°C 51.2°F10.7°C 91% 19.0 mph NW30.6 kmh NW -- 30.13 in1020.3 mb 0.00 in0.0 mm 0.00 in0.0 mm 0.00 in0.0 mm
08:37 PM 53.8°F12.1°C 51.2°F10.7°C 91% 18.0 mph NNW29.0 kmh NNW -- 30.12 in1020.0 mb 0.00 in0.0 mm 0.00 in0.0 mm 0.00 in0.0 mm
08:38 PM 53.8°F12.1°C 51.2°F10.7°C 91% 19.0 mph NNW30.6 kmh NNW -- 30.12 in1020.0 mb 0.00 in0.0 mm 0.00 in0.0 mm 0.00 in0.0 mm
08:39 PM 53.8°F12.1°C 51.2°F10.7°C 91% 10.0 mph NE16.1 kmh NE -- 30.13 in1020.3 mb 0.00 in0.0 mm 0.00 in0.0 mm 0.00 in0.0 mm
08:40 PM 53.8°F12.1°C 51.2°F10.7°C 91% 19.0 mph 30.6 kmh -- 30.13 in1020.3 mb 0.00 in0.0 mm 0.00 in0.0 mm 0.00 in0.0 mm
08:41 PM 53.5°F11.9°C 50.8°F10.4°C 91% 15.0 mph NNW24.1 kmh NNW -- 30.13 in1020.3 mb 0.00 in0.0 mm 0.00 in0.0 mm 0.00 in0.0 mm
08:42 PM 53.5°F11.9°C 50.8°F10.4°C 91% 24.0 mph NNW38.6 kmh NNW -- 30.13 in1020.3 mb 0.00 in0.0 mm 0.00 in0.0 mm 0.00 in0.0 mm
08:43 PM 53.5°F11.9°C 50.8°F10.4°C 91% 18.0 mph NNW29.0 kmh NNW -- 30.13 in1020.3 mb 0.00 in0.0 mm 0.00 in0.0 mm 0.00 in0.0 mm
08:44 PM 53.4°F11.9°C 50.8°F10.4°C 91% 19.0 mph 30.6 kmh -- 30.13 in1020.3 mb 0.00 in0.0 mm 0.00 in0.0 mm 0.00 in0.0 mm
08:45 PM 53.4°F11.9°C 50.8°F10.4°C 91% 18.0 mph NNE29.0 kmh NNE -- 30.13 in1020.3 mb 0.00 in0.0 mm 0.00 in0.0 mm 0.00 in0.0 mm
08:46 PM 53.4°F11.9°C 50.8°F10.4°C 91% 18.0 mph NNW29.0 kmh NNW -- 30.13 in1020.3 mb 0.00 in0.0 mm 0.00 in0.0 mm 0.00 in0.0 mm
08:47 PM 53.4°F11.9°C 50.8°F10.4°C 91% 11.0 mph NNW17.7 kmh NNW -- 30.13 in1020.3 mb 0.00 in0.0 mm 0.00 in0.0 mm 0.00 in0.0 mm
08:48 PM 53.4°F11.9°C 50.8°F10.4°C 91% 13.0 mph WNW20.9 kmh WNW -- 30.13 in1020.3 mb 0.00 in0.0 mm 0.00 in0.0 mm 0.00 in0.0 mm
08:49 PM 53.4°F11.9°C 50.8°F10.4°C 91% 13.0 mph 20.9 kmh -- 30.13 in1020.3 mb 0.00 in0.0 mm 0.00 in0.0 mm 0.00 in0.0 mm
08:50 PM 53.4°F11.9°C 50.8°F10.4°C 91% 17.0 mph 27.4 kmh -- 30.13 in1020.3 mb 0.00 in0.0 mm 0.00 in0.0 mm 0.00 in0.0 mm
08:51 PM 53.4°F11.9°C 50.8°F10.4°C 91% 23.0 mph 37.0 kmh -- 30.13 in1020.3 mb 0.00 in0.0 mm 0.00 in0.0 mm 0.00 in0.0 mm
08:52 PM 53.4°F11.9°C 50.8°F10.4°C 91% 19.0 mph 30.6 kmh -- 30.13 in1020.3 mb 0.00 in0.0 mm 0.00 in0.0 mm 0.00 in0.0 mm
08:53 PM 53.4°F11.9°C 50.8°F10.4°C 91% 18.0 mph NNW29.0 kmh NNW -- 30.13 in1020.3 mb 0.00 in0.0 mm 0.00 in0.0 mm 0.00 in0.0 mm
08:54 PM 53.4°F11.9°C 50.8°F10.4°C 91% 17.0 mph NE27.4 kmh NE -- 30.13 in1020.3 mb 0.00 in0.0 mm 0.00 in0.0 mm 0.00 in0.0 mm
08:55 PM 53.4°F11.9°C 50.8°F10.4°C 91% 18.0 mph NNW29.0 kmh NNW -- 30.13 in1020.3 mb 0.00 in0.0 mm 0.00 in0.0 mm 0.00 in0.0 mm
08:56 PM 53.4°F11.9°C 50.8°F10.4°C 91% 13.0 mph WNW20.9 kmh WNW -- 30.13 in1020.3 mb 0.00 in0.0 mm 0.00 in0.0 mm 0.00 in0.0 mm
08:57 PM 53.2°F11.8°C 50.7°F10.4°C 91% 18.0 mph NNE29.0 kmh NNE -- 30.14 in1020.7 mb 0.00 in0.0 mm 0.00 in0.0 mm 0.00 in0.0 mm
08:58 PM 53.2°F11.8°C 51.2°F10.7°C 93% 18.0 mph NNW29.0 kmh NNW -- 30.14 in1020.7 mb 0.00 in0.0 mm 0.00 in0.0 mm 0.00 in0.0 mm
08:59 PM 53.2°F11.8°C 51.2°F10.7°C 93% 11.0 mph 17.7 kmh -- 30.14 in1020.7 mb 0.00 in0.0 mm 0.00 in0.0 mm 0.00 in0.0 mm
09:00 PM 53.2°F11.8°C 51.2°F10.7°C 93% 17.0 mph 27.4 kmh -- 30.14 in1020.7 mb 0.00 in0.0 mm 0.00 in0.0 mm 0.00 in0.0 mm
09:01 PM 53.2°F11.8°C 51.2°F10.7°C 93% 19.0 mph NNW30.6 kmh NNW -- 30.14 in1020.7 mb 0.00 in0.0 mm 0.00 in0.0 mm 0.00 in0.0 mm
09:02 PM 53.2°F11.8°C 51.2°F10.7°C 93% 21.0 mph WNW33.8 kmh WNW -- 30.14 in1020.7 mb 0.00 in0.0 mm 0.00 in0.0 mm 0.00 in0.0 mm
09:03 PM 53.2°F11.8°C 51.2°F10.7°C 93% 20.0 mph NNW32.2 kmh NNW -- 30.14 in1020.7 mb 0.00 in0.0 mm 0.00 in0.0 mm 0.00 in0.0 mm
09:04 PM 53.2°F11.8°C 51.2°F10.7°C 93% 12.0 mph 19.3 kmh -- 30.14 in1020.7 mb 0.00 in0.0 mm 0.00 in0.0 mm 0.00 in0.0 mm
09:05 PM 53.1°F11.7°C 51.1°F10.6°C 93% 19.0 mph NNW30.6 kmh NNW -- 30.15 in1021.0 mb 0.00 in0.0 mm 0.00 in0.0 mm 0.00 in0.0 mm
09:06 PM 53.1°F11.7°C 51.1°F10.6°C 93% 22.0 mph WNW35.4 kmh WNW -- 30.15 in1021.0 mb 0.00 in0.0 mm 0.00 in0.0 mm 0.00 in0.0 mm
09:07 PM 53.1°F11.7°C 51.1°F10.6°C 93% 17.0 mph 27.4 kmh -- 30.14 in1020.7 mb 0.00 in0.0 mm 0.00 in0.0 mm 0.00 in0.0 mm
09:08 PM 53.1°F11.7°C 51.1°F10.6°C 93% 12.0 mph NNW19.3 kmh NNW -- 30.14 in1020.7 mb 0.00 in0.0 mm 0.00 in0.0 mm 0.00 in0.0 mm
09:09 PM 53.1°F11.7°C 51.1°F10.6°C 93% 21.0 mph 33.8 kmh -- 30.14 in1020.7 mb 0.00 in0.0 mm 0.00 in0.0 mm 0.00 in0.0 mm
09:10 PM 53.1°F11.7°C 51.1°F10.6°C 93% 19.0 mph NNW30.6 kmh NNW -- 30.14 in1020.7 mb 0.00 in0.0 mm 0.00 in0.0 mm 0.00 in0.0 mm
09:11 PM 53.1°F11.7°C 51.1°F10.6°C 93% 16.0 mph 25.7 kmh -- 30.15 in1021.0 mb 0.00 in0.0 mm 0.00 in0.0 mm 0.00 in0.0 mm
09:12 PM 52.8°F11.6°C 50.9°F10.5°C 93% 15.0 mph NE24.1 kmh NE -- 30.15 in1021.0 mb 0.00 in0.0 mm 0.00 in0.0 mm 0.00 in0.0 mm
09:13 PM 52.8°F11.6°C 50.9°F10.5°C 93% 19.0 mph NNW30.6 kmh NNW -- 30.16 in1021.3 mb 0.00 in0.0 mm 0.00 in0.0 mm 0.00 in0.0 mm
09:14 PM 52.8°F11.6°C 50.9°F10.5°C 93% 17.0 mph NNE27.4 kmh NNE -- 30.16 in1021.3 mb 0.00 in0.0 mm 0.00 in0.0 mm 0.00 in0.0 mm
09:15 PM 52.8°F11.6°C 50.9°F10.5°C 93% 24.0 mph NNE38.6 kmh NNE -- 30.15 in1021.0 mb 0.00 in0.0 mm 0.00 in0.0 mm 0.00 in0.0 mm
09:16 PM 52.8°F11.6°C 50.9°F10.5°C 93% 23.0 mph NNW37.0 kmh NNW -- 30.15 in1021.0 mb 0.00 in0.0 mm 0.00 in0.0 mm 0.00 in0.0 mm
09:17 PM 52.8°F11.6°C 50.9°F10.5°C 93% 19.0 mph 30.6 kmh -- 30.15 in1021.0 mb 0.00 in0.0 mm 0.00 in0.0 mm 0.00 in0.0 mm
09:18 PM 52.6°F11.4°C 50.5°F10.3°C 93% 21.0 mph NNW33.8 kmh NNW -- 30.15 in1021.0 mb 0.00 in0.0 mm 0.00 in0.0 mm 0.00 in0.0 mm
09:19 PM 52.6°F11.4°C 50.5°F10.3°C 93% 14.0 mph NNW22.5 kmh NNW -- 30.15 in1021.0 mb 0.00 in0.0 mm 0.00 in0.0 mm 0.00 in0.0 mm
09:20 PM 52.6°F11.4°C 50.5°F10.3°C 93% 13.0 mph NNE20.9 kmh NNE -- 30.14 in1020.7 mb 0.00 in0.0 mm 0.00 in0.0 mm 0.00 in0.0 mm
09:21 PM 52.6°F11.4°C 50.5°F10.3°C 93% 20.0 mph NNE32.2 kmh NNE -- 30.15 in1021.0 mb 0.00 in0.0 mm 0.00 in0.0 mm 0.00 in0.0 mm